
Distance (Route):
Temperature : 0°C
Humidity : 0%
Pressure : 0hPa| Receiver | Frames | First received | Last received |
|---|---|---|---|
| MIELECB | 352 | 2026-09-02 11:33:15 | 2026-09-02 13:17:25 |
| SQ9PSP-11 | 137 | 2026-09-02 11:20:35 | 2026-09-02 12:17:44 |
| AKAW68 | 123 | 2026-09-02 11:20:32 | 2026-09-02 12:24:08 |
| AKAW682 | 99 | 2026-09-02 11:29:34 | 2026-09-02 12:24:16 |
| SP9KGR-15 | 91 | 2026-09-02 11:20:29 | 2026-09-02 12:20:03 |
| SQ9EZE-12 | 72 | 2026-09-02 11:21:46 | 2026-09-02 12:21:42 |
| OM5KV | 44 | 2026-09-02 12:13:57 | 2026-09-02 12:17:28 |
| SP9SOS | 10 | 2026-09-02 11:37:21 | 2026-09-02 11:45:42 |
| GYPAP8-17 | 1 | 2026-09-02 12:22:21 | 2026-09-02 12:22:21 |
| Receiver | Date | Latitude | Longitude | Direction | Speed | Altitude | Climb | Temperature | Humidity | Pressure | Voltage | Killtimer | Uptime | BKT | XDATA |
|---|---|---|---|---|---|---|---|---|---|---|---|---|---|---|---|
| MIELECB | 2026-09-02 13:17:25 | 50.11451 | 21.90683 | 108° | 20km/h | 3288m | -9.4m/s | 0°C | 0% | 0hPa | 0V | 00:00:00 | 00:00:00 | 00:00:00 | |
| AKAW682 | 2026-09-02 12:24:16 | 50.08794 | 21.65608 | 101° | 356km/h | 20441m | -17.0m/s | 0°C | 0% | 0hPa | 0V | 00:00:00 | 00:00:00 | 00:00:00 | |
| MIELECB | 2026-09-02 12:24:13 | 50.08837 | 21.65219 | 105° | 347km/h | 20439m | -23.2m/s | 0°C | 0% | 0hPa | 0V | 00:00:00 | 00:00:00 | 00:00:00 | |
| AKAW68 | 2026-09-02 12:24:08 | 50.08929 | 21.64594 | 103° | 312km/h | 20545m | -25.6m/s | 0°C | 0% | 0hPa | 0V | 00:00:00 | 00:00:00 | 00:00:00 | |
| MIELECB | 2026-09-02 12:24:07 | 50.08949 | 21.64464 | 102° | 296km/h | 20569m | -29.8m/s | 0°C | 0% | 0hPa | 0V | 00:00:00 | 00:00:00 | 00:00:00 | |
| MIELECB | 2026-09-02 12:24:01 | 50.09059 | 21.63803 | 103° | 259km/h | 20668m | -34.5m/s | 0°C | 0% | 0hPa | 0V | 00:00:00 | 00:00:00 | 00:00:00 | |
| MIELECB | 2026-09-02 12:23:55 | 50.09233 | 21.63265 | 82° | 221km/h | 20818m | -35.8m/s | 0°C | 0% | 0hPa | 0V | 00:00:00 | 00:00:00 | 00:00:00 | |
| MIELECB | 2026-09-02 12:23:50 | 50.09198 | 21.62877 | 96° | 172km/h | 21012m | -21.3m/s | 0°C | 0% | 0hPa | 0V | 00:00:00 | 00:00:00 | 00:00:00 | |
| AKAW68 | 2026-09-02 12:23:48 | 50.09203 | 21.62744 | 96° | 144km/h | 21066m | -12.1m/s | 0°C | 0% | 0hPa | 0V | 00:00:00 | 00:00:00 | 00:00:00 | |
| MIELECB | 2026-09-02 12:23:44 | 50.09225 | 21.62409 | 91° | 150km/h | 21149m | -10.4m/s | 0°C | 0% | 0hPa | 0V | 00:00:00 | 00:00:00 | 00:00:00 | |
| MIELECB | 2026-09-02 12:23:37 | 50.09231 | 21.62020 | 85° | 22km/h | 21161m | 4.2m/s | 0°C | 0% | 0hPa | 0V | 00:00:00 | 00:00:00 | 00:00:00 | |
| AKAW682 | 2026-09-02 12:23:34 | 50.09230 | 21.62000 | 71° | 20km/h | 21143m | 7.4m/s | 0°C | 0% | 0hPa | 0V | 00:00:00 | 00:00:00 | 00:00:00 | |
| AKAW68 | 2026-09-02 12:23:28 | 50.09212 | 21.61948 | 108° | 26km/h | 21113m | 5.3m/s | 0°C | 0% | 0hPa | 0V | 00:00:00 | 00:00:00 | 00:00:00 | |
| MIELECB | 2026-09-02 12:23:23 | 50.09208 | 21.61897 | 77° | 40km/h | 21084m | 1.1m/s | 0°C | 0% | 0hPa | 0V | 00:00:00 | 00:00:00 | 00:00:00 | |
| MIELECB | 2026-09-02 12:23:18 | 50.09179 | 21.61843 | 59° | 31km/h | 21047m | 4.3m/s | 0°C | 0% | 0hPa | 0V | 00:00:00 | 00:00:00 | 00:00:00 | |
| AKAW682 | 2026-09-02 12:23:13 | 50.09160 | 21.61793 | 102° | 27km/h | 21026m | -4.2m/s | 0°C | 0% | 0hPa | 0V | 00:00:00 | 00:00:00 | 00:00:00 | |
| MIELECB | 2026-09-02 12:23:11 | 50.09157 | 21.61771 | 68° | 31km/h | 21032m | 2.5m/s | 0°C | 0% | 0hPa | 0V | 00:00:00 | 00:00:00 | 00:00:00 | |
| AKAW68 | 2026-09-02 12:23:06 | 50.09147 | 21.61723 | 100° | 20km/h | 21006m | 11.3m/s | 0°C | 0% | 0hPa | 0V | 00:00:00 | 00:00:00 | 00:00:00 | |
| AKAW682 | 2026-09-02 12:22:52 | 50.09122 | 21.61640 | 85° | 18km/h | 20920m | 4.4m/s | 0°C | 0% | 0hPa | 0V | 00:00:00 | 00:00:00 | 00:00:00 | |
| AKAW68 | 2026-09-02 12:22:44 | 50.09093 | 21.61597 | 42° | 20km/h | 20881m | 6.6m/s | 0°C | 0% | 0hPa | 0V | 00:00:00 | 00:00:00 | 00:00:00 | |
| AKAW682 | 2026-09-02 12:22:32 | 50.09073 | 21.61539 | 82° | 16km/h | 20819m | 7.7m/s | 0°C | 0% | 0hPa | 0V | 00:00:00 | 00:00:00 | 00:00:00 | |
| AKAW68 | 2026-09-02 12:22:24 | 50.09056 | 21.61505 | 51° | 13km/h | 20770m | 5.6m/s | 0°C | 0% | 0hPa | 0V | 00:00:00 | 00:00:00 | 00:00:00 | |
| GYPAP8-17 | 2026-09-02 12:22:21 | 50.09055 | 21.61500 | 144° | 7km/h | 20751m | 6.6m/s | 0°C | 0% | 0hPa | 0V | 00:00:00 | 00:00:00 | 00:00:00 | |
| AKAW682 | 2026-09-02 12:22:11 | 50.09043 | 21.61475 | 290° | 4km/h | 20688m | 6.0m/s | 0°C | 0% | 0hPa | 0V | 00:00:00 | 00:00:00 | 00:00:00 | |
| AKAW68 | 2026-09-02 12:22:03 | 50.09037 | 21.61473 | 69° | 9km/h | 20647m | 4.7m/s | 0°C | 0% | 0hPa | 0V | 00:00:00 | 00:00:00 | 00:00:00 | |
| AKAW682 | 2026-09-02 12:21:50 | 50.09022 | 21.61471 | 78° | 5km/h | 20579m | 7.5m/s | 0°C | 0% | 0hPa | 0V | 00:00:00 | 00:00:00 | 00:00:00 | |
| SQ9EZE-12 | 2026-09-02 12:21:42 | 50.09003 | 21.61471 | 361° | 16km/h | 20528m | 4.7m/s | 0°C | 0% | 0hPa | 0V | 00:00:00 | 00:00:00 | 00:00:00 | |
| AKAW682 | 2026-09-02 12:21:30 | 50.08977 | 21.61454 | 46° | 9km/h | 20473m | 3.3m/s | 0°C | 0% | 0hPa | 0V | 00:00:00 | 00:00:00 | 00:00:00 | |
| AKAW68 | 2026-09-02 12:21:21 | 50.08957 | 21.61429 | 7° | 24km/h | 20436m | 6.1m/s | 0°C | 0% | 0hPa | 0V | 00:00:00 | 00:00:00 | 00:00:00 | |
| AKAW682 | 2026-09-02 12:21:09 | 50.08904 | 21.61386 | 29° | 16km/h | 20377m | 7.0m/s | 0°C | 0% | 0hPa | 0V | 00:00:00 | 00:00:00 | 00:00:00 | |
| AKAW68 | 2026-09-02 12:20:57 | 50.08873 | 21.61314 | 58° | 20km/h | 20312m | 3.6m/s | 0°C | 0% | 0hPa | 0V | 00:00:00 | 00:00:00 | 00:00:00 | |
| AKAW682 | 2026-09-02 12:20:48 | 50.08871 | 21.61272 | 88° | 16km/h | 20253m | 4.4m/s | 0°C | 0% | 0hPa | 0V | 00:00:00 | 00:00:00 | 00:00:00 | |
| AKAW68 | 2026-09-02 12:20:36 | 50.08875 | 21.61210 | 106° | 18km/h | 20193m | 3.2m/s | 0°C | 0% | 0hPa | 0V | 00:00:00 | 00:00:00 | 00:00:00 | |
| AKAW682 | 2026-09-02 12:20:28 | 50.08888 | 21.61186 | 44° | 7km/h | 20146m | 5.1m/s | 0°C | 0% | 0hPa | 0V | 00:00:00 | 00:00:00 | 00:00:00 | |
| MIELECB | 2026-09-02 12:20:21 | 50.08916 | 21.61158 | 161° | 16km/h | 20111m | 7.7m/s | 0°C | 0% | 0hPa | 0V | 00:00:00 | 00:00:00 | 00:00:00 | |
| AKAW68 | 2026-09-02 12:20:15 | 50.08930 | 21.61143 | 161° | 16km/h | 20077m | 6.2m/s | 0°C | 0% | 0hPa | 0V | 00:00:00 | 00:00:00 | 00:00:00 | |
| AKAW682 | 2026-09-02 12:20:07 | 50.08956 | 21.61130 | 189° | 15km/h | 20038m | 6.1m/s | 0°C | 0% | 0hPa | 0V | 00:00:00 | 00:00:00 | 00:00:00 | |
| SP9KGR-15 | 2026-09-02 12:20:03 | 50.08974 | 21.61121 | 148° | 16km/h | 20020m | 5.3m/s | 0°C | 0% | 0hPa | 0V | 00:00:00 | 00:00:00 | 00:00:00 | |
| AKAW68 | 2026-09-02 12:19:53 | 50.09021 | 21.61090 | 157° | 35km/h | 19971m | 4.4m/s | 0°C | 0% | 0hPa | 0V | 00:00:00 | 00:00:00 | 00:00:00 | |
| MIELECB | 2026-09-02 12:19:52 | 50.09027 | 21.61084 | 145° | 26km/h | 19966m | 4.6m/s | 0°C | 0% | 0hPa | 0V | 00:00:00 | 00:00:00 | 00:00:00 | |
| AKAW682 | 2026-09-02 12:19:47 | 50.09039 | 21.61049 | 119° | 5km/h | 19935m | 5.6m/s | 0°C | 0% | 0hPa | 0V | 00:00:00 | 00:00:00 | 00:00:00 | |
| SQ9EZE-12 | 2026-09-02 12:19:39 | 50.09058 | 21.61016 | 108° | 22km/h | 19893m | 5.1m/s | 0°C | 0% | 0hPa | 0V | 00:00:00 | 00:00:00 | 00:00:00 | |
| AKAW68 | 2026-09-02 12:19:33 | 50.09071 | 21.60982 | 143° | 18km/h | 19861m | 6.0m/s | 0°C | 0% | 0hPa | 0V | 00:00:00 | 00:00:00 | 00:00:00 | |
| SP9KGR-15 | 2026-09-02 12:19:32 | 50.09074 | 21.60976 | 130° | 20km/h | 19855m | 5.1m/s | 0°C | 0% | 0hPa | 0V | 00:00:00 | 00:00:00 | 00:00:00 | |
| AKAW682 | 2026-09-02 12:19:25 | 50.09085 | 21.60913 | 111° | 27km/h | 19808m | 4.6m/s | 0°C | 0% | 0hPa | 0V | 00:00:00 | 00:00:00 | 00:00:00 | |
| MIELECB | 2026-09-02 12:19:23 | 50.09089 | 21.60895 | 112° | 20km/h | 19795m | 4.5m/s | 0°C | 0% | 0hPa | 0V | 00:00:00 | 00:00:00 | 00:00:00 | |
| SQ9EZE-12 | 2026-09-02 12:19:19 | 50.09093 | 21.60849 | 98° | 37km/h | 19778m | 5.6m/s | 0°C | 0% | 0hPa | 0V | 00:00:00 | 00:00:00 | 00:00:00 | |
| MIELECB | 2026-09-02 12:19:18 | 50.09093 | 21.60836 | 90° | 31km/h | 19772m | 6.1m/s | 0°C | 0% | 0hPa | 0V | 00:00:00 | 00:00:00 | 00:00:00 | |
| SP9KGR-15 | 2026-09-02 12:19:14 | 50.09099 | 21.60793 | 115° | 29km/h | 19760m | 3.2m/s | 0°C | 0% | 0hPa | 0V | 00:00:00 | 00:00:00 | 00:00:00 | |
| AKAW68 | 2026-09-02 12:19:13 | 50.09104 | 21.60777 | 122° | 18km/h | 19756m | 4.9m/s | 0°C | 0% | 0hPa | 0V | 00:00:00 | 00:00:00 | 00:00:00 | |
| MIELECB | 2026-09-02 12:19:11 | 50.09106 | 21.60770 | 118° | 20km/h | 19753m | 5.9m/s | 0°C | 0% | 0hPa | 0V | 00:00:00 | 00:00:00 | 00:00:00 | |
| AKAW682 | 2026-09-02 12:19:03 | 50.09114 | 21.60677 | 103° | 22km/h | 19723m | 5.4m/s | 0°C | 0% | 0hPa | 0V | 00:00:00 | 00:00:00 | 00:00:00 | |
| SQ9EZE-12 | 2026-09-02 12:18:58 | 50.09110 | 21.60616 | 82° | 46km/h | 19689m | 5.5m/s | 0°C | 0% | 0hPa | 0V | 00:00:00 | 00:00:00 | 00:00:00 | |
| MIELECB | 2026-09-02 12:18:54 | 50.09106 | 21.60565 | 91° | 37km/h | 19668m | 7.2m/s | 0°C | 0% | 0hPa | 0V | 00:00:00 | 00:00:00 | 00:00:00 | |
| AKAW68 | 2026-09-02 12:18:52 | 50.09106 | 21.60540 | 82° | 26km/h | 19655m | 4.4m/s | 0°C | 0% | 0hPa | 0V | 00:00:00 | 00:00:00 | 00:00:00 | |
| MIELECB | 2026-09-02 12:18:48 | 50.09097 | 21.60499 | 83° | 33km/h | 19634m | 6.1m/s | 0°C | 0% | 0hPa | 0V | 00:00:00 | 00:00:00 | 00:00:00 | |
| SQ9EZE-12 | 2026-09-02 12:18:42 | 50.09082 | 21.60410 | 93° | 26km/h | 19592m | 4.3m/s | 0°C | 0% | 0hPa | 0V | 00:00:00 | 00:00:00 | 00:00:00 | |
| SP9KGR-15 | 2026-09-02 12:18:41 | 50.09081 | 21.60398 | 80° | 27km/h | 19585m | 5.1m/s | 0°C | 0% | 0hPa | 0V | 00:00:00 | 00:00:00 | 00:00:00 | |
| MIELECB | 2026-09-02 12:18:35 | 50.09061 | 21.60325 | 60° | 35km/h | 19536m | 5.4m/s | 0°C | 0% | 0hPa | 0V | 00:00:00 | 00:00:00 | 00:00:00 | |
| AKAW68 | 2026-09-02 12:18:32 | 50.09052 | 21.60292 | 79° | 16km/h | 19520m | 2.9m/s | 0°C | 0% | 0hPa | 0V | 00:00:00 | 00:00:00 | 00:00:00 | |
| MIELECB | 2026-09-02 12:18:29 | 50.09052 | 21.60277 | 60° | 13km/h | 19516m | 2.8m/s | 0°C | 0% | 0hPa | 0V | 00:00:00 | 00:00:00 | 00:00:00 | |
| SQ9EZE-12 | 2026-09-02 12:18:24 | 50.09047 | 21.60234 | 82° | 26km/h | 19496m | 5.9m/s | 0°C | 0% | 0hPa | 0V | 00:00:00 | 00:00:00 | 00:00:00 | |
| MIELECB | 2026-09-02 12:18:22 | 50.09045 | 21.60220 | 74° | 18km/h | 19485m | 3.6m/s | 0°C | 0% | 0hPa | 0V | 00:00:00 | 00:00:00 | 00:00:00 | |
| AKAW682 | 2026-09-02 12:18:21 | 50.09045 | 21.60214 | 105° | 15km/h | 19480m | 6.1m/s | 0°C | 0% | 0hPa | 0V | 00:00:00 | 00:00:00 | 00:00:00 | |
| MIELECB | 2026-09-02 12:18:16 | 50.09037 | 21.60162 | 75° | 42km/h | 19456m | 0.6m/s | 0°C | 0% | 0hPa | 0V | 00:00:00 | 00:00:00 | 00:00:00 | |
| SP9KGR-15 | 2026-09-02 12:18:13 | 50.09035 | 21.60119 | 76° | 26km/h | 19457m | 5.6m/s | 0°C | 0% | 0hPa | 0V | 00:00:00 | 00:00:00 | 00:00:00 | |
| AKAW68 | 2026-09-02 12:18:10 | 50.09035 | 21.60103 | 109° | 18km/h | 19447m | 6.2m/s | 0°C | 0% | 0hPa | 0V | 00:00:00 | 00:00:00 | 00:00:00 | |
| MIELECB | 2026-09-02 12:18:05 | 50.09036 | 21.60063 | 88° | 27km/h | 19422m | 6.9m/s | 0°C | 0% | 0hPa | 0V | 00:00:00 | 00:00:00 | 00:00:00 | |
| AKAW682 | 2026-09-02 12:18:00 | 50.09040 | 21.60023 | 108° | 13km/h | 19399m | 7.1m/s | 0°C | 0% | 0hPa | 0V | 00:00:00 | 00:00:00 | 00:00:00 | |
| MIELECB | 2026-09-02 12:17:59 | 50.09042 | 21.60018 | 120° | 11km/h | 19393m | 6.2m/s | 0°C | 0% | 0hPa | 0V | 00:00:00 | 00:00:00 | 00:00:00 | |
| MIELECB | 2026-09-02 12:17:54 | 50.09039 | 21.59980 | 76° | 16km/h | 19368m | 4.2m/s | 0°C | 0% | 0hPa | 0V | 00:00:00 | 00:00:00 | 00:00:00 | |
| MIELECB | 2026-09-02 12:17:48 | 50.09038 | 21.59949 | 66° | 11km/h | 19343m | 5.3m/s | 0°C | 0% | 0hPa | 0V | 00:00:00 | 00:00:00 | 00:00:00 | |
| AKAW68 | 2026-09-02 12:17:47 | 50.09037 | 21.59945 | 71° | 15km/h | 19338m | 4.0m/s | 0°C | 0% | 0hPa | 0V | 00:00:00 | 00:00:00 | 00:00:00 | |
| SQ9PSP-11 | 2026-09-02 12:17:44 | 50.09032 | 21.59919 | 67° | 27km/h | 19324m | 9.3m/s | 0°C | 0% | 0hPa | 0V | 00:00:00 | 00:00:00 | 00:00:00 | |
| MIELECB | 2026-09-02 12:17:41 | 50.09028 | 21.59889 | 73° | 18km/h | 19302m | 6.5m/s | 0°C | 0% | 0hPa | 0V | 00:00:00 | 00:00:00 | 00:00:00 | |
| AKAW682 | 2026-09-02 12:17:39 | 50.09023 | 21.59883 | 14° | 22km/h | 19287m | 7.6m/s | 0°C | 0% | 0hPa | 0V | 00:00:00 | 00:00:00 | 00:00:00 | |
| MIELECB | 2026-09-02 12:17:35 | 50.09014 | 21.59870 | 56° | 20km/h | 19262m | 6.5m/s | 0°C | 0% | 0hPa | 0V | 00:00:00 | 00:00:00 | 00:00:00 | |
| MIELECB | 2026-09-02 12:17:30 | 50.08997 | 21.59835 | 64° | 7km/h | 19229m | 4.8m/s | 0°C | 0% | 0hPa | 0V | 00:00:00 | 00:00:00 | 00:00:00 | |
| OM5KV | 2026-09-02 12:17:28 | 50.08996 | 21.59832 | 41° | 9km/h | 19225m | 5.3m/s | 0°C | 0% | 0hPa | 0V | 00:00:00 | 00:00:00 | 00:00:00 | |
| OM5KV | 2026-09-02 12:17:27 | 50.08993 | 21.59829 | 37° | 13km/h | 19219m | 3.6m/s | 0°C | 0% | 0hPa | 0V | 00:00:00 | 00:00:00 | 00:00:00 | |
| AKAW68 | 2026-09-02 12:17:26 | 50.08992 | 21.59825 | 69° | 15km/h | 19216m | 4.2m/s | 0°C | 0% | 0hPa | 0V | 00:00:00 | 00:00:00 | 00:00:00 | |
| MIELECB | 2026-09-02 12:17:23 | 50.08984 | 21.59805 | 51° | 24km/h | 19199m | 6.2m/s | 0°C | 0% | 0hPa | 0V | 00:00:00 | 00:00:00 | 00:00:00 | |
| OM5KV | 2026-09-02 12:17:22 | 50.08980 | 21.59797 | 68° | 26km/h | 19193m | 5.2m/s | 0°C | 0% | 0hPa | 0V | 00:00:00 | 00:00:00 | 00:00:00 | |
| OM5KV | 2026-09-02 12:17:21 | 50.08979 | 21.59787 | 80° | 26km/h | 19188m | 5.5m/s | 0°C | 0% | 0hPa | 0V | 00:00:00 | 00:00:00 | 00:00:00 | |
| SQ9EZE-12 | 2026-09-02 12:17:20 | 50.08978 | 21.59777 | 96° | 24km/h | 19183m | 5.8m/s | 0°C | 0% | 0hPa | 0V | 00:00:00 | 00:00:00 | 00:00:00 | |
| AKAW682 | 2026-09-02 12:17:19 | 50.08979 | 21.59769 | 94° | 16km/h | 19176m | 6.0m/s | 0°C | 0% | 0hPa | 0V | 00:00:00 | 00:00:00 | 00:00:00 | |
| OM5KV | 2026-09-02 12:17:16 | 50.08974 | 21.59751 | 79° | 20km/h | 19165m | 2.7m/s | 0°C | 0% | 0hPa | 0V | 00:00:00 | 00:00:00 | 00:00:00 | |
| OM5KV | 2026-09-02 12:17:15 | 50.08974 | 21.59743 | 100° | 22km/h | 19162m | 6.0m/s | 0°C | 0% | 0hPa | 0V | 00:00:00 | 00:00:00 | 00:00:00 | |
| MIELECB | 2026-09-02 12:17:14 | 50.08976 | 21.59725 | 90° | 24km/h | 19151m | 5.0m/s | 0°C | 0% | 0hPa | 0V | 00:00:00 | 00:00:00 | 00:00:00 | |
| OM5KV | 2026-09-02 12:17:10 | 50.08973 | 21.59701 | 76° | 20km/h | 19134m | 7.1m/s | 0°C | 0% | 0hPa | 0V | 00:00:00 | 00:00:00 | 00:00:00 | |
| OM5KV | 2026-09-02 12:17:09 | 50.08971 | 21.59692 | 84° | 24km/h | 19127m | 6.7m/s | 0°C | 0% | 0hPa | 0V | 00:00:00 | 00:00:00 | 00:00:00 | |
| AKAW68 | 2026-09-02 12:17:05 | 50.08967 | 21.59652 | 83° | 26km/h | 19103m | 4.6m/s | 0°C | 0% | 0hPa | 0V | 00:00:00 | 00:00:00 | 00:00:00 | |
| SQ9PSP-11 | 2026-09-02 12:17:04 | 50.08966 | 21.59627 | 80° | 35km/h | 19091m | 6.7m/s | 0°C | 0% | 0hPa | 0V | 00:00:00 | 00:00:00 | 00:00:00 | |
| MIELECB | 2026-09-02 12:17:01 | 50.08962 | 21.59601 | 61° | 31km/h | 19079m | 7.7m/s | 0°C | 0% | 0hPa | 0V | 00:00:00 | 00:00:00 | 00:00:00 | |
| OM5KV | 2026-09-02 12:16:58 | 50.08940 | 21.59562 | 54° | 27km/h | 19057m | 7.4m/s | 0°C | 0% | 0hPa | 0V | 00:00:00 | 00:00:00 | 00:00:00 | |
| MIELECB | 2026-09-02 12:16:53 | 50.08934 | 21.59525 | 89° | 31km/h | 19033m | 5.4m/s | 0°C | 0% | 0hPa | 0V | 00:00:00 | 00:00:00 | 00:00:00 | |
| OM5KV | 2026-09-02 12:16:52 | 50.08934 | 21.59512 | 88° | 33km/h | 19028m | 3.7m/s | 0°C | 0% | 0hPa | 0V | 00:00:00 | 00:00:00 | 00:00:00 | |
| OM5KV | 2026-09-02 12:16:47 | 50.08914 | 21.59464 | 37° | 27km/h | 19003m | 4.7m/s | 0°C | 0% | 0hPa | 0V | 00:00:00 | 00:00:00 | 00:00:00 | |
| AKAW68 | 2026-09-02 12:16:44 | 50.08906 | 21.59449 | 91° | 16km/h | 18992m | 4.1m/s | 0°C | 0% | 0hPa | 0V | 00:00:00 | 00:00:00 | 00:00:00 | |
| SQ9PSP-11 | 2026-09-02 12:16:43 | 50.08907 | 21.59442 | 97° | 24km/h | 18989m | 5.2m/s | 0°C | 0% | 0hPa | 0V | 00:00:00 | 00:00:00 | 00:00:00 | |
| OM5KV | 2026-09-02 12:16:42 | 50.08900 | 21.59403 | 56° | 38km/h | 18974m | 5.0m/s | 0°C | 0% | 0hPa | 0V | 00:00:00 | 00:00:00 | 00:00:00 | |
| MIELECB | 2026-09-02 12:16:36 | 50.08875 | 21.59368 | 47° | 26km/h | 18953m | 7.8m/s | 0°C | 0% | 0hPa | 0V | 00:00:00 | 00:00:00 | 00:00:00 | |
| MIELECB | 2026-09-02 12:16:29 | 50.08843 | 21.59307 | 43° | 31km/h | 18919m | 5.5m/s | 0°C | 0% | 0hPa | 0V | 00:00:00 | 00:00:00 | 00:00:00 | |
| OM5KV | 2026-09-02 12:16:28 | 50.08838 | 21.59300 | 45° | 27km/h | 18915m | 6.8m/s | 0°C | 0% | 0hPa | 0V | 00:00:00 | 00:00:00 | 00:00:00 | |
| OM5KV | 2026-09-02 12:16:25 | 50.08826 | 21.59278 | 56° | 26km/h | 18898m | 7.1m/s | 0°C | 0% | 0hPa | 0V | 00:00:00 | 00:00:00 | 00:00:00 | |
| AKAW68 | 2026-09-02 12:16:24 | 50.08820 | 21.59262 | 47° | 26km/h | 18888m | 5.5m/s | 0°C | 0% | 0hPa | 0V | 00:00:00 | 00:00:00 | 00:00:00 | |
| OM5KV | 2026-09-02 12:16:19 | 50.08798 | 21.59232 | 50° | 27km/h | 18867m | 3.0m/s | 0°C | 0% | 0hPa | 0V | 00:00:00 | 00:00:00 | 00:00:00 | |
| MIELECB | 2026-09-02 12:16:18 | 50.08793 | 21.59225 | 47° | 24km/h | 18864m | 5.9m/s | 0°C | 0% | 0hPa | 0V | 00:00:00 | 00:00:00 | 00:00:00 | |
| AKAW682 | 2026-09-02 12:16:16 | 50.08786 | 21.59216 | 47° | 16km/h | 18852m | 6.7m/s | 0°C | 0% | 0hPa | 0V | 00:00:00 | 00:00:00 | 00:00:00 | |
| MIELECB | 2026-09-02 12:16:12 | 50.08777 | 21.59196 | 51° | 15km/h | 18830m | 3.6m/s | 0°C | 0% | 0hPa | 0V | 00:00:00 | 00:00:00 | 00:00:00 | |
| OM5KV | 2026-09-02 12:16:11 | 50.08774 | 21.59191 | 46° | 22km/h | 18827m | 4.0m/s | 0°C | 0% | 0hPa | 0V | 00:00:00 | 00:00:00 | 00:00:00 | |
| MIELECB | 2026-09-02 12:16:07 | 50.08756 | 21.59168 | 25° | 20km/h | 18806m | 5.0m/s | 0°C | 0% | 0hPa | 0V | 00:00:00 | 00:00:00 | 00:00:00 | |
| OM5KV | 2026-09-02 12:16:02 | 50.08729 | 21.59140 | 27° | 26km/h | 18777m | 5.9m/s | 0°C | 0% | 0hPa | 0V | 00:00:00 | 00:00:00 | 00:00:00 | |
| OM5KV | 2026-09-02 12:16:00 | 50.08717 | 21.59130 | 29° | 16km/h | 18761m | 4.9m/s | 0°C | 0% | 0hPa | 0V | 00:00:00 | 00:00:00 | 00:00:00 | |
| MIELECB | 2026-09-02 12:15:59 | 50.08717 | 21.59130 | 29° | 16km/h | 18761m | 4.9m/s | 0°C | 0% | 0hPa | 0V | 00:00:00 | 00:00:00 | 00:00:00 | |
| AKAW68 | 2026-09-02 12:15:57 | 50.08709 | 21.59120 | 39° | 22km/h | 18752m | 5.8m/s | 0°C | 0% | 0hPa | 0V | 00:00:00 | 00:00:00 | 00:00:00 | |
| AKAW682 | 2026-09-02 12:15:55 | 50.08699 | 21.59114 | 20° | 24km/h | 18739m | 6.8m/s | 0°C | 0% | 0hPa | 0V | 00:00:00 | 00:00:00 | 00:00:00 | |
| OM5KV | 2026-09-02 12:15:52 | 50.08684 | 21.59099 | 56° | 24km/h | 18722m | 3.4m/s | 0°C | 0% | 0hPa | 0V | 00:00:00 | 00:00:00 | 00:00:00 | |
| OM5KV | 2026-09-02 12:15:51 | 50.08681 | 21.59091 | 67° | 22km/h | 18718m | 4.6m/s | 0°C | 0% | 0hPa | 0V | 00:00:00 | 00:00:00 | 00:00:00 | |
| SQ9EZE-12 | 2026-09-02 12:15:49 | 50.08675 | 21.59080 | 46° | 11km/h | 18707m | 4.9m/s | 0°C | 0% | 0hPa | 0V | 00:00:00 | 00:00:00 | 00:00:00 | |
| OM5KV | 2026-09-02 12:15:48 | 50.08673 | 21.59077 | 29° | 7km/h | 18703m | 4.2m/s | 0°C | 0% | 0hPa | 0V | 00:00:00 | 00:00:00 | 00:00:00 | |
| MIELECB | 2026-09-02 12:15:46 | 50.08668 | 21.59071 | 47° | 16km/h | 18692m | 4.3m/s | 0°C | 0% | 0hPa | 0V | 00:00:00 | 00:00:00 | 00:00:00 | |
| OM5KV | 2026-09-02 12:15:45 | 50.08664 | 21.59066 | 43° | 16km/h | 18688m | 7.4m/s | 0°C | 0% | 0hPa | 0V | 00:00:00 | 00:00:00 | 00:00:00 | |
| OM5KV | 2026-09-02 12:15:41 | 50.08652 | 21.59041 | 124° | 18km/h | 18661m | 3.3m/s | 0°C | 0% | 0hPa | 0V | 00:00:00 | 00:00:00 | 00:00:00 | |
| MIELECB | 2026-09-02 12:15:40 | 50.08652 | 21.59041 | 124° | 18km/h | 18661m | 3.3m/s | 0°C | 0% | 0hPa | 0V | 00:00:00 | 00:00:00 | 00:00:00 | |
| OM5KV | 2026-09-02 12:15:37 | 50.08655 | 21.59032 | 341° | 9km/h | 18646m | 6.2m/s | 0°C | 0% | 0hPa | 0V | 00:00:00 | 00:00:00 | 00:00:00 | |
| AKAW68 | 2026-09-02 12:15:36 | 50.08652 | 21.59032 | 357° | 11km/h | 18641m | 5.1m/s | 0°C | 0% | 0hPa | 0V | 00:00:00 | 00:00:00 | 00:00:00 | |
| OM5KV | 2026-09-02 12:15:35 | 50.08649 | 21.59033 | 358° | 9km/h | 18635m | 5.9m/s | 0°C | 0% | 0hPa | 0V | 00:00:00 | 00:00:00 | 00:00:00 | |
| OM5KV | 2026-09-02 12:15:34 | 50.08647 | 21.59032 | 40° | 11km/h | 18630m | 5.8m/s | 0°C | 0% | 0hPa | 0V | 00:00:00 | 00:00:00 | 00:00:00 | |
| OM5KV | 2026-09-02 12:15:31 | 50.08644 | 21.59017 | 94° | 16km/h | 18616m | 3.2m/s | 0°C | 0% | 0hPa | 0V | 00:00:00 | 00:00:00 | 00:00:00 | |
| MIELECB | 2026-09-02 12:15:30 | 50.08645 | 21.59012 | 119° | 15km/h | 18612m | 5.7m/s | 0°C | 0% | 0hPa | 0V | 00:00:00 | 00:00:00 | 00:00:00 | |
| AKAW682 | 2026-09-02 12:15:29 | 50.08648 | 21.59008 | 161° | 18km/h | 18607m | 4.2m/s | 0°C | 0% | 0hPa | 0V | 00:00:00 | 00:00:00 | 00:00:00 | |
| OM5KV | 2026-09-02 12:15:28 | 50.08652 | 21.59006 | 161° | 11km/h | 18603m | 5.5m/s | 0°C | 0% | 0hPa | 0V | 00:00:00 | 00:00:00 | 00:00:00 | |
| OM5KV | 2026-09-02 12:15:25 | 50.08654 | 21.59007 | 339° | 5km/h | 18589m | 6.8m/s | 0°C | 0% | 0hPa | 0V | 00:00:00 | 00:00:00 | 00:00:00 | |
| SQ9EZE-12 | 2026-09-02 12:15:23 | 50.08652 | 21.59006 | 30° | 5km/h | 18581m | 5.1m/s | 0°C | 0% | 0hPa | 0V | 00:00:00 | 00:00:00 | 00:00:00 | |
| SQ9PSP-11 | 2026-09-02 12:15:21 | 50.08651 | 21.59001 | 116° | 11km/h | 18573m | 6.2m/s | 0°C | 0% | 0hPa | 0V | 00:00:00 | 00:00:00 | 00:00:00 | |
| OM5KV | 2026-09-02 12:15:19 | 50.08658 | 21.58983 | 122° | 20km/h | 18560m | 4.7m/s | 0°C | 0% | 0hPa | 0V | 00:00:00 | 00:00:00 | 00:00:00 | |
| AKAW68 | 2026-09-02 12:15:17 | 50.08662 | 21.58972 | 104° | 9km/h | 18552m | 5.8m/s | 0°C | 0% | 0hPa | 0V | 00:00:00 | 00:00:00 | 00:00:00 | |
| OM5KV | 2026-09-02 12:15:13 | 50.08661 | 21.58969 | 28° | 2km/h | 18538m | 4.2m/s | 0°C | 0% | 0hPa | 0V | 00:00:00 | 00:00:00 | 00:00:00 | |
| OM5KV | 2026-09-02 12:15:10 | 50.08656 | 21.58964 | 45° | 11km/h | 18525m | 3.9m/s | 0°C | 0% | 0hPa | 0V | 00:00:00 | 00:00:00 | 00:00:00 | |
| AKAW682 | 2026-09-02 12:15:09 | 50.08654 | 21.58962 | 63° | 9km/h | 18522m | 4.8m/s | 0°C | 0% | 0hPa | 0V | 00:00:00 | 00:00:00 | 00:00:00 | |
| OM5KV | 2026-09-02 12:15:07 | 50.08656 | 21.58959 | 158° | 9km/h | 18514m | 4.8m/s | 0°C | 0% | 0hPa | 0V | 00:00:00 | 00:00:00 | 00:00:00 | |
| SQ9PSP-11 | 2026-09-02 12:15:06 | 50.08658 | 21.58958 | 164° | 11km/h | 18511m | 5.6m/s | 0°C | 0% | 0hPa | 0V | 00:00:00 | 00:00:00 | 00:00:00 | |
| OM5KV | 2026-09-02 12:15:04 | 50.08663 | 21.58953 | 112° | 11km/h | 18498m | 5.9m/s | 0°C | 0% | 0hPa | 0V | 00:00:00 | 00:00:00 | 00:00:00 | |
| MIELECB | 2026-09-02 12:15:01 | 50.08668 | 21.58940 | 124° | 15km/h | 18482m | 5.8m/s | 0°C | 0% | 0hPa | 0V | 00:00:00 | 00:00:00 | 00:00:00 | |
| OM5KV | 2026-09-02 12:14:56 | 50.08673 | 21.58931 | 163° | 13km/h | 18452m | 5.1m/s | 0°C | 0% | 0hPa | 0V | 00:00:00 | 00:00:00 | 00:00:00 | |
| AKAW68 | 2026-09-02 12:14:55 | 50.08677 | 21.58929 | 153° | 16km/h | 18446m | 4.2m/s | 0°C | 0% | 0hPa | 0V | 00:00:00 | 00:00:00 | 00:00:00 | |
| OM5KV | 2026-09-02 12:14:51 | 50.08688 | 21.58910 | 124° | 16km/h | 18428m | 5.0m/s | 0°C | 0% | 0hPa | 0V | 00:00:00 | 00:00:00 | 00:00:00 | |
| MIELECB | 2026-09-02 12:14:49 | 50.08692 | 21.58901 | 124° | 9km/h | 18419m | 4.7m/s | 0°C | 0% | 0hPa | 0V | 00:00:00 | 00:00:00 | 00:00:00 | |
| AKAW682 | 2026-09-02 12:14:48 | 50.08693 | 21.58898 | 94° | 7km/h | 18414m | 4.7m/s | 0°C | 0% | 0hPa | 0V | 00:00:00 | 00:00:00 | 00:00:00 | |
| OM5KV | 2026-09-02 12:14:45 | 50.08699 | 21.58888 | 143° | 18km/h | 18400m | 4.5m/s | 0°C | 0% | 0hPa | 0V | 00:00:00 | 00:00:00 | 00:00:00 | |
| OM5KV | 2026-09-02 12:14:43 | 50.08707 | 21.58877 | 131° | 24km/h | 18392m | 5.1m/s | 0°C | 0% | 0hPa | 0V | 00:00:00 | 00:00:00 | 00:00:00 | |
| OM5KV | 2026-09-02 12:14:39 | 50.08719 | 21.58853 | 133° | 13km/h | 18370m | 5.2m/s | 0°C | 0% | 0hPa | 0V | 00:00:00 | 00:00:00 | 00:00:00 | |
| MIELECB | 2026-09-02 12:14:37 | 50.08724 | 21.58845 | 113° | 11km/h | 18358m | 5.3m/s | 0°C | 0% | 0hPa | 0V | 00:00:00 | 00:00:00 | 00:00:00 | |
| SQ9PSP-11 | 2026-09-02 12:14:34 | 50.08731 | 21.58825 | 131° | 31km/h | 18344m | 4.9m/s | 0°C | 0% | 0hPa | 0V | 00:00:00 | 00:00:00 | 00:00:00 | |
| AKAW68 | 2026-09-02 12:14:33 | 50.08737 | 21.58816 | 140° | 37km/h | 18340m | 3.6m/s | 0°C | 0% | 0hPa | 0V | 00:00:00 | 00:00:00 | 00:00:00 | |
| MIELECB | 2026-09-02 12:14:31 | 50.08749 | 21.58799 | 139° | 26km/h | 18331m | 5.7m/s | 0°C | 0% | 0hPa | 0V | 00:00:00 | 00:00:00 | 00:00:00 | |
| AKAW682 | 2026-09-02 12:14:27 | 50.08758 | 21.58777 | 131° | 24km/h | 18309m | 5.6m/s | 0°C | 0% | 0hPa | 0V | 00:00:00 | 00:00:00 | 00:00:00 | |
| OM5KV | 2026-09-02 12:14:26 | 50.08761 | 21.58769 | 115° | 26km/h | 18304m | 4.8m/s | 0°C | 0% | 0hPa | 0V | 00:00:00 | 00:00:00 | 00:00:00 | |
| MIELECB | 2026-09-02 12:14:25 | 50.08764 | 21.58760 | 117° | 29km/h | 18299m | 6.8m/s | 0°C | 0% | 0hPa | 0V | 00:00:00 | 00:00:00 | 00:00:00 | |
| MIELECB | 2026-09-02 12:14:19 | 50.08793 | 21.58700 | 123° | 27km/h | 18268m | 5.2m/s | 0°C | 0% | 0hPa | 0V | 00:00:00 | 00:00:00 | 00:00:00 | |
| SQ9PSP-11 | 2026-09-02 12:14:18 | 50.08796 | 21.58690 | 115° | 27km/h | 18263m | 3.4m/s | 0°C | 0% | 0hPa | 0V | 00:00:00 | 00:00:00 | 00:00:00 | |
| OM5KV | 2026-09-02 12:14:14 | 50.08810 | 21.58644 | 118° | 37km/h | 18244m | 5.4m/s | 0°C | 0% | 0hPa | 0V | 00:00:00 | 00:00:00 | 00:00:00 | |
| MIELECB | 2026-09-02 12:14:13 | 50.08814 | 21.58632 | 117° | 35km/h | 18239m | 5.3m/s | 0°C | 0% | 0hPa | 0V | 00:00:00 | 00:00:00 | 00:00:00 | |
| AKAW68 | 2026-09-02 12:14:12 | 50.08818 | 21.58620 | 120° | 33km/h | 18235m | 4.8m/s | 0°C | 0% | 0hPa | 0V | 00:00:00 | 00:00:00 | 00:00:00 | |
| OM5KV | 2026-09-02 12:14:09 | 50.08835 | 21.58591 | 137° | 35km/h | 18218m | 5.1m/s | 0°C | 0% | 0hPa | 0V | 00:00:00 | 00:00:00 | 00:00:00 | |
| MIELECB | 2026-09-02 12:14:07 | 50.08850 | 21.58555 | 113° | 40km/h | 18202m | 4.8m/s | 0°C | 0% | 0hPa | 0V | 00:00:00 | 00:00:00 | 00:00:00 | |
| OM5KV | 2026-09-02 12:14:03 | 50.08862 | 21.58512 | 108° | 35km/h | 18188m | 5.0m/s | 0°C | 0% | 0hPa | 0V | 00:00:00 | 00:00:00 | 00:00:00 | |
| SP9KGR-15 | 2026-09-02 12:14:01 | 50.08866 | 21.58489 | 118° | 31km/h | 18181m | 3.7m/s | 0°C | 0% | 0hPa | 0V | 00:00:00 | 00:00:00 | 00:00:00 | |
| OM5KV | 2026-09-02 12:13:57 | 50.08888 | 21.58439 | 123° | 42km/h | 18159m | 5.3m/s | 0°C | 0% | 0hPa | 0V | 00:00:00 | 00:00:00 | 00:00:00 | |
| MIELECB | 2026-09-02 12:13:55 | 50.08899 | 21.58410 | 122° | 46km/h | 18150m | 4.9m/s | 0°C | 0% | 0hPa | 0V | 00:00:00 | 00:00:00 | 00:00:00 | |
| AKAW68 | 2026-09-02 12:13:51 | 50.08910 | 21.58356 | 97° | 29km/h | 18131m | 3.2m/s | 0°C | 0% | 0hPa | 0V | 00:00:00 | 00:00:00 | 00:00:00 | |
| MIELECB | 2026-09-02 12:13:47 | 50.08924 | 21.58302 | 118° | 47km/h | 18112m | 5.5m/s | 0°C | 0% | 0hPa | 0V | 00:00:00 | 00:00:00 | 00:00:00 | |
| AKAW682 | 2026-09-02 12:13:45 | 50.08933 | 21.58269 | 116° | 44km/h | 18102m | 4.5m/s | 0°C | 0% | 0hPa | 0V | 00:00:00 | 00:00:00 | 00:00:00 | |
| MIELECB | 2026-09-02 12:13:41 | 50.08949 | 21.58218 | 113° | 33km/h | 18084m | 5.4m/s | 0°C | 0% | 0hPa | 0V | 00:00:00 | 00:00:00 | 00:00:00 | |
| MIELECB | 2026-09-02 12:13:34 | 50.08973 | 21.58127 | 112° | 38km/h | 18048m | 5.2m/s | 0°C | 0% | 0hPa | 0V | 00:00:00 | 00:00:00 | 00:00:00 | |
| SP9KGR-15 | 2026-09-02 12:13:32 | 50.08980 | 21.58103 | 121° | 27km/h | 18037m | 4.4m/s | 0°C | 0% | 0hPa | 0V | 00:00:00 | 00:00:00 | 00:00:00 | |
| SQ9PSP-11 | 2026-09-02 12:13:31 | 50.08984 | 21.58095 | 117° | 26km/h | 18032m | 5.2m/s | 0°C | 0% | 0hPa | 0V | 00:00:00 | 00:00:00 | 00:00:00 | |
| AKAW68 | 2026-09-02 12:13:30 | 50.08986 | 21.58086 | 107° | 24km/h | 18026m | 6.3m/s | 0°C | 0% | 0hPa | 0V | 00:00:00 | 00:00:00 | 00:00:00 | |
| MIELECB | 2026-09-02 12:13:28 | 50.08988 | 21.58064 | 101° | 31km/h | 18015m | 5.9m/s | 0°C | 0% | 0hPa | 0V | 00:00:00 | 00:00:00 | 00:00:00 | |
| AKAW682 | 2026-09-02 12:13:23 | 50.09004 | 21.57994 | 112° | 42km/h | 17990m | 3.2m/s | 0°C | 0% | 0hPa | 0V | 00:00:00 | 00:00:00 | 00:00:00 | |
| MIELECB | 2026-09-02 12:13:22 | 50.09008 | 21.57981 | 118° | 35km/h | 17986m | 5.3m/s | 0°C | 0% | 0hPa | 0V | 00:00:00 | 00:00:00 | 00:00:00 | |
| SQ9PSP-11 | 2026-09-02 12:13:16 | 50.09026 | 21.57903 | 113° | 37km/h | 17957m | 5.4m/s | 0°C | 0% | 0hPa | 0V | 00:00:00 | 00:00:00 | 00:00:00 | |
| SP9KGR-15 | 2026-09-02 12:13:15 | 50.09030 | 21.57890 | 116° | 38km/h | 17952m | 5.1m/s | 0°C | 0% | 0hPa | 0V | 00:00:00 | 00:00:00 | 00:00:00 | |
| MIELECB | 2026-09-02 12:13:11 | 50.09042 | 21.57830 | 98° | 35km/h | 17930m | 5.4m/s | 0°C | 0% | 0hPa | 0V | 00:00:00 | 00:00:00 | 00:00:00 | |
| AKAW68 | 2026-09-02 12:13:08 | 50.09044 | 21.57791 | 94° | 37km/h | 17914m | 5.3m/s | 0°C | 0% | 0hPa | 0V | 00:00:00 | 00:00:00 | 00:00:00 | |
| MIELECB | 2026-09-02 12:13:05 | 50.09052 | 21.57752 | 119° | 37km/h | 17900m | 4.5m/s | 0°C | 0% | 0hPa | 0V | 00:00:00 | 00:00:00 | 00:00:00 | |
| AKAW682 | 2026-09-02 12:13:02 | 50.09063 | 21.57706 | 107° | 47km/h | 17887m | 4.7m/s | 0°C | 0% | 0hPa | 0V | 00:00:00 | 00:00:00 | 00:00:00 | |
| SQ9PSP-11 | 2026-09-02 12:13:00 | 50.09065 | 21.57675 | 97° | 35km/h | 17878m | 5.5m/s | 0°C | 0% | 0hPa | 0V | 00:00:00 | 00:00:00 | 00:00:00 | |
| MIELECB | 2026-09-02 12:12:58 | 50.09068 | 21.57653 | 102° | 27km/h | 17870m | 3.9m/s | 0°C | 0% | 0hPa | 0V | 00:00:00 | 00:00:00 | 00:00:00 | |
| MIELECB | 2026-09-02 12:12:53 | 50.09076 | 21.57583 | 96° | 40km/h | 17847m | 6.4m/s | 0°C | 0% | 0hPa | 0V | 00:00:00 | 00:00:00 | 00:00:00 | |
| AKAW68 | 2026-09-02 12:12:47 | 50.09084 | 21.57500 | 100° | 29km/h | 17817m | 6.6m/s | 0°C | 0% | 0hPa | 0V | 00:00:00 | 00:00:00 | 00:00:00 | |
| SQ9PSP-11 | 2026-09-02 12:12:45 | 50.09086 | 21.57475 | 102° | 35km/h | 17805m | 5.5m/s | 0°C | 0% | 0hPa | 0V | 00:00:00 | 00:00:00 | 00:00:00 | |
| AKAW682 | 2026-09-02 12:12:41 | 50.09089 | 21.57417 | 97° | 40km/h | 17783m | 4.7m/s | 0°C | 0% | 0hPa | 0V | 00:00:00 | 00:00:00 | 00:00:00 | |
| MIELECB | 2026-09-02 12:12:36 | 50.09089 | 21.57344 | 91° | 35km/h | 17759m | 6.4m/s | 0°C | 0% | 0hPa | 0V | 00:00:00 | 00:00:00 | 00:00:00 | |
| MIELECB | 2026-09-02 12:12:30 | 50.09096 | 21.57250 | 94° | 44km/h | 17727m | 5.8m/s | 0°C | 0% | 0hPa | 0V | 00:00:00 | 00:00:00 | 00:00:00 | |
| SQ9PSP-11 | 2026-09-02 12:12:29 | 50.09097 | 21.57232 | 99° | 46km/h | 17721m | 5.8m/s | 0°C | 0% | 0hPa | 0V | 00:00:00 | 00:00:00 | 00:00:00 | |
| AKAW68 | 2026-09-02 12:12:27 | 50.09099 | 21.57199 | 89° | 42km/h | 17710m | 4.9m/s | 0°C | 0% | 0hPa | 0V | 00:00:00 | 00:00:00 | 00:00:00 | |
| MIELECB | 2026-09-02 12:12:25 | 50.09099 | 21.57166 | 97° | 47km/h | 17702m | 6.2m/s | 0°C | 0% | 0hPa | 0V | 00:00:00 | 00:00:00 | 00:00:00 | |
| AKAW682 | 2026-09-02 12:12:21 | 50.09103 | 21.57098 | 93° | 40km/h | 17683m | 5.2m/s | 0°C | 0% | 0hPa | 0V | 00:00:00 | 00:00:00 | 00:00:00 | |
| MIELECB | 2026-09-02 12:12:19 | 50.09105 | 21.57063 | 98° | 47km/h | 17673m | 4.0m/s | 0°C | 0% | 0hPa | 0V | 00:00:00 | 00:00:00 | 00:00:00 | |
| SQ9PSP-11 | 2026-09-02 12:12:14 | 50.09105 | 21.56976 | 88° | 44km/h | 17645m | 5.6m/s | 0°C | 0% | 0hPa | 0V | 00:00:00 | 00:00:00 | 00:00:00 | |
| MIELECB | 2026-09-02 12:12:13 | 50.09104 | 21.56958 | 89° | 46km/h | 17640m | 5.6m/s | 0°C | 0% | 0hPa | 0V | 00:00:00 | 00:00:00 | 00:00:00 | |
| MIELECB | 2026-09-02 12:12:07 | 50.09101 | 21.56848 | 90° | 44km/h | 17614m | 3.0m/s | 0°C | 0% | 0hPa | 0V | 00:00:00 | 00:00:00 | 00:00:00 | |
| AKAW68 | 2026-09-02 12:12:06 | 50.09101 | 21.56830 | 94° | 47km/h | 17610m | 6.2m/s | 0°C | 0% | 0hPa | 0V | 00:00:00 | 00:00:00 | 00:00:00 | |
| MIELECB | 2026-09-02 12:12:01 | 50.09106 | 21.56747 | 96° | 42km/h | 17584m | 5.5m/s | 0°C | 0% | 0hPa | 0V | 00:00:00 | 00:00:00 | 00:00:00 | |
| AKAW682 | 2026-09-02 12:12:00 | 50.09107 | 21.56730 | 96° | 46km/h | 17579m | 4.9m/s | 0°C | 0% | 0hPa | 0V | 00:00:00 | 00:00:00 | 00:00:00 | |
| SQ9PSP-11 | 2026-09-02 12:11:58 | 50.09108 | 21.56694 | 86° | 47km/h | 17569m | 3.6m/s | 0°C | 0% | 0hPa | 0V | 00:00:00 | 00:00:00 | 00:00:00 | |
| MIELECB | 2026-09-02 12:11:56 | 50.09108 | 21.56654 | 93° | 57km/h | 17560m | 5.2m/s | 0°C | 0% | 0hPa | 0V | 00:00:00 | 00:00:00 | 00:00:00 | |
| MIELECB | 2026-09-02 12:11:50 | 50.09111 | 21.56537 | 101° | 44km/h | 17531m | 4.1m/s | 0°C | 0% | 0hPa | 0V | 00:00:00 | 00:00:00 | 00:00:00 | |
| MIELECB | 2026-09-02 12:11:45 | 50.09120 | 21.56446 | 95° | 57km/h | 17507m | 4.9m/s | 0°C | 0% | 0hPa | 0V | 00:00:00 | 00:00:00 | 00:00:00 | |
| SQ9PSP-11 | 2026-09-02 12:11:42 | 50.09123 | 21.56381 | 92° | 46km/h | 17493m | 3.4m/s | 0°C | 0% | 0hPa | 0V | 00:00:00 | 00:00:00 | 00:00:00 | |
| MIELECB | 2026-09-02 12:11:40 | 50.09125 | 21.56331 | 99° | 47km/h | 17482m | 2.9m/s | 0°C | 0% | 0hPa | 0V | 00:00:00 | 00:00:00 | 00:00:00 | |
| AKAW682 | 2026-09-02 12:11:38 | 50.09126 | 21.56311 | 94° | 53km/h | 17479m | 4.4m/s | 0°C | 0% | 0hPa | 0V | 00:00:00 | 00:00:00 | 00:00:00 | |
| MIELECB | 2026-09-02 12:11:34 | 50.09122 | 21.56224 | 88° | 51km/h | 17457m | 4.4m/s | 0°C | 0% | 0hPa | 0V | 00:00:00 | 00:00:00 | 00:00:00 | |
| MIELECB | 2026-09-02 12:11:28 | 50.09120 | 21.56109 | 91° | 51km/h | 17430m | 4.0m/s | 0°C | 0% | 0hPa | 0V | 00:00:00 | 00:00:00 | 00:00:00 | |
| AKAW68 | 2026-09-02 12:11:25 | 50.09118 | 21.56045 | 80° | 57km/h | 17416m | 4.9m/s | 0°C | 0% | 0hPa | 0V | 00:00:00 | 00:00:00 | 00:00:00 | |
| AKAW682 | 2026-09-02 12:11:18 | 50.09097 | 21.55890 | 79° | 58km/h | 17382m | 5.3m/s | 0°C | 0% | 0hPa | 0V | 00:00:00 | 00:00:00 | 00:00:00 | |
| MIELECB | 2026-09-02 12:11:16 | 50.09092 | 21.55845 | 80° | 57km/h | 17372m | 4.6m/s | 0°C | 0% | 0hPa | 0V | 00:00:00 | 00:00:00 | 00:00:00 | |
| MIELECB | 2026-09-02 12:11:11 | 50.09074 | 21.55744 | 80° | 57km/h | 17352m | 3.6m/s | 0°C | 0% | 0hPa | 0V | 00:00:00 | 00:00:00 | 00:00:00 | |
| SP9KGR-15 | 2026-09-02 12:11:10 | 50.09071 | 21.55722 | 79° | 60km/h | 17348m | 4.9m/s | 0°C | 0% | 0hPa | 0V | 00:00:00 | 00:00:00 | 00:00:00 | |
| MIELECB | 2026-09-02 12:11:05 | 50.09052 | 21.55610 | 71° | 49km/h | 17325m | 5.2m/s | 0°C | 0% | 0hPa | 0V | 00:00:00 | 00:00:00 | 00:00:00 | |
| AKAW68 | 2026-09-02 12:11:04 | 50.09047 | 21.55592 | 66° | 51km/h | 17321m | 5.1m/s | 0°C | 0% | 0hPa | 0V | 00:00:00 | 00:00:00 | 00:00:00 | |
| MIELECB | 2026-09-02 12:10:59 | 50.09027 | 21.55496 | 77° | 58km/h | 17294m | 5.8m/s | 0°C | 0% | 0hPa | 0V | 00:00:00 | 00:00:00 | 00:00:00 | |
| AKAW682 | 2026-09-02 12:10:57 | 50.09018 | 21.55453 | 70° | 57km/h | 17285m | 4.9m/s | 0°C | 0% | 0hPa | 0V | 00:00:00 | 00:00:00 | 00:00:00 | |
| SQ9PSP-11 | 2026-09-02 12:10:55 | 50.09012 | 21.55412 | 81° | 51km/h | 17275m | 4.6m/s | 0°C | 0% | 0hPa | 0V | 00:00:00 | 00:00:00 | 00:00:00 | |
| MIELECB | 2026-09-02 12:10:54 | 50.09009 | 21.55393 | 74° | 51km/h | 17270m | 4.7m/s | 0°C | 0% | 0hPa | 0V | 00:00:00 | 00:00:00 | 00:00:00 | |
| MIELECB | 2026-09-02 12:10:48 | 50.08988 | 21.55280 | 76° | 49km/h | 17244m | 4.6m/s | 0°C | 0% | 0hPa | 0V | 00:00:00 | 00:00:00 | 00:00:00 | |
| AKAW68 | 2026-09-02 12:10:44 | 50.08972 | 21.55193 | 74° | 55km/h | 17227m | 4.1m/s | 0°C | 0% | 0hPa | 0V | 00:00:00 | 00:00:00 | 00:00:00 | |
| MIELECB | 2026-09-02 12:10:43 | 50.08968 | 21.55174 | 71° | 49km/h | 17222m | 5.9m/s | 0°C | 0% | 0hPa | 0V | 00:00:00 | 00:00:00 | 00:00:00 | |
| SQ9PSP-11 | 2026-09-02 12:10:40 | 50.08961 | 21.55127 | 87° | 40km/h | 17205m | 6.6m/s | 0°C | 0% | 0hPa | 0V | 00:00:00 | 00:00:00 | 00:00:00 | |
| MIELECB | 2026-09-02 12:10:38 | 50.08962 | 21.55094 | 94° | 46km/h | 17196m | 5.4m/s | 0°C | 0% | 0hPa | 0V | 00:00:00 | 00:00:00 | 00:00:00 | |
| AKAW682 | 2026-09-02 12:10:37 | 50.08961 | 21.55057 | 82° | 49km/h | 17186m | 3.8m/s | 0°C | 0% | 0hPa | 0V | 00:00:00 | 00:00:00 | 00:00:00 | |
| MIELECB | 2026-09-02 12:10:32 | 50.08955 | 21.54982 | 82° | 40km/h | 17168m | 4.7m/s | 0°C | 0% | 0hPa | 0V | 00:00:00 | 00:00:00 | 00:00:00 | |
| MIELECB | 2026-09-02 12:10:26 | 50.08953 | 21.54877 | 80° | 58km/h | 17138m | 5.0m/s | 0°C | 0% | 0hPa | 0V | 00:00:00 | 00:00:00 | 00:00:00 | |
| SQ9PSP-11 | 2026-09-02 12:10:25 | 50.08951 | 21.54854 | 83° | 58km/h | 17133m | 3.7m/s | 0°C | 0% | 0hPa | 0V | 00:00:00 | 00:00:00 | 00:00:00 | |
| AKAW68 | 2026-09-02 12:10:23 | 50.08948 | 21.54811 | 89° | 53km/h | 17125m | 3.9m/s | 0°C | 0% | 0hPa | 0V | 00:00:00 | 00:00:00 | 00:00:00 | |
| SP9KGR-15 | 2026-09-02 12:10:22 | 50.08948 | 21.54791 | 93° | 49km/h | 17121m | 3.7m/s | 0°C | 0% | 0hPa | 0V | 00:00:00 | 00:00:00 | 00:00:00 | |
| MIELECB | 2026-09-02 12:10:21 | 50.08948 | 21.54772 | 90° | 49km/h | 17116m | 6.0m/s | 0°C | 0% | 0hPa | 0V | 00:00:00 | 00:00:00 | 00:00:00 | |
| AKAW682 | 2026-09-02 12:10:16 | 50.08949 | 21.54673 | 89° | 55km/h | 17096m | 4.6m/s | 0°C | 0% | 0hPa | 0V | 00:00:00 | 00:00:00 | 00:00:00 | |
| MIELECB | 2026-09-02 12:10:15 | 50.08947 | 21.54651 | 83° | 57km/h | 17091m | 5.4m/s | 0°C | 0% | 0hPa | 0V | 00:00:00 | 00:00:00 | 00:00:00 | |
| MIELECB | 2026-09-02 12:10:10 | 50.08940 | 21.54548 | 91° | 47km/h | 17068m | 5.2m/s | 0°C | 0% | 0hPa | 0V | 00:00:00 | 00:00:00 | 00:00:00 | |
| SQ9PSP-11 | 2026-09-02 12:10:09 | 50.08938 | 21.54530 | 80° | 44km/h | 17063m | 5.6m/s | 0°C | 0% | 0hPa | 0V | 00:00:00 | 00:00:00 | 00:00:00 | |
| MIELECB | 2026-09-02 12:10:04 | 50.08924 | 21.54433 | 72° | 58km/h | 17037m | 5.8m/s | 0°C | 0% | 0hPa | 0V | 00:00:00 | 00:00:00 | 00:00:00 | |
| AKAW68 | 2026-09-02 12:10:03 | 50.08919 | 21.54412 | 71° | 57km/h | 17032m | 4.6m/s | 0°C | 0% | 0hPa | 0V | 00:00:00 | 00:00:00 | 00:00:00 | |
| MIELECB | 2026-09-02 12:09:59 | 50.08906 | 21.54339 | 72° | 42km/h | 17013m | 5.5m/s | 0°C | 0% | 0hPa | 0V | 00:00:00 | 00:00:00 | 00:00:00 | |
| MIELECB | 2026-09-02 12:09:53 | 50.08881 | 21.54231 | 66° | 57km/h | 16985m | 4.9m/s | 0°C | 0% | 0hPa | 0V | 00:00:00 | 00:00:00 | 00:00:00 | |
| SQ9PSP-11 | 2026-09-02 12:09:52 | 50.08875 | 21.54211 | 66° | 57km/h | 16980m | 5.2m/s | 0°C | 0% | 0hPa | 0V | 00:00:00 | 00:00:00 | 00:00:00 | |
| MIELECB | 2026-09-02 12:09:47 | 50.08845 | 21.54125 | 58° | 53km/h | 16956m | 3.6m/s | 0°C | 0% | 0hPa | 0V | 00:00:00 | 00:00:00 | 00:00:00 | |
| AKAW68 | 2026-09-02 12:09:42 | 50.08815 | 21.54031 | 61° | 58km/h | 16933m | 2.8m/s | 0°C | 0% | 0hPa | 0V | 00:00:00 | 00:00:00 | 00:00:00 | |
| MIELECB | 2026-09-02 12:09:41 | 50.08808 | 21.54012 | 58° | 57km/h | 16929m | 4.7m/s | 0°C | 0% | 0hPa | 0V | 00:00:00 | 00:00:00 | 00:00:00 | |
| MIELECB | 2026-09-02 12:09:37 | 50.08773 | 21.53930 | 59° | 47km/h | 16904m | 6.1m/s | 0°C | 0% | 0hPa | 0V | 00:00:00 | 00:00:00 | 00:00:00 | |
| AKAW682 | 2026-09-02 12:09:34 | 50.08755 | 21.53877 | 62° | 55km/h | 16887m | 4.8m/s | 0°C | 0% | 0hPa | 0V | 00:00:00 | 00:00:00 | 00:00:00 | |
| MIELECB | 2026-09-02 12:09:31 | 50.08738 | 21.53825 | 67° | 42km/h | 16874m | 5.9m/s | 0°C | 0% | 0hPa | 0V | 00:00:00 | 00:00:00 | 00:00:00 | |
| SP9KGR-15 | 2026-09-02 12:09:28 | 50.08726 | 21.53793 | 61° | 46km/h | 16863m | 3.8m/s | 0°C | 0% | 0hPa | 0V | 00:00:00 | 00:00:00 | 00:00:00 | |
| MIELECB | 2026-09-02 12:09:25 | 50.08709 | 21.53749 | 58° | 42km/h | 16851m | 3.9m/s | 0°C | 0% | 0hPa | 0V | 00:00:00 | 00:00:00 | 00:00:00 | |
| SQ9PSP-11 | 2026-09-02 12:09:21 | 50.08688 | 21.53688 | 66° | 42km/h | 16833m | 6.2m/s | 0°C | 0% | 0hPa | 0V | 00:00:00 | 00:00:00 | 00:00:00 | |
| MIELECB | 2026-09-02 12:09:19 | 50.08681 | 21.53659 | 65° | 40km/h | 16823m | 6.3m/s | 0°C | 0% | 0hPa | 0V | 00:00:00 | 00:00:00 | 00:00:00 | |
| MIELECB | 2026-09-02 12:09:13 | 50.08656 | 21.53563 | 73° | 51km/h | 16792m | 3.6m/s | 0°C | 0% | 0hPa | 0V | 00:00:00 | 00:00:00 | 00:00:00 | |
| AKAW682 | 2026-09-02 12:09:12 | 50.08652 | 21.53545 | 73° | 49km/h | 16788m | 5.2m/s | 0°C | 0% | 0hPa | 0V | 00:00:00 | 00:00:00 | 00:00:00 | |
| SP9KGR-15 | 2026-09-02 12:09:10 | 50.08646 | 21.53514 | 81° | 35km/h | 16778m | 3.8m/s | 0°C | 0% | 0hPa | 0V | 00:00:00 | 00:00:00 | 00:00:00 | |
| MIELECB | 2026-09-02 12:09:08 | 50.08641 | 21.53488 | 73° | 38km/h | 16769m | 3.8m/s | 0°C | 0% | 0hPa | 0V | 00:00:00 | 00:00:00 | 00:00:00 | |
| SQ9PSP-11 | 2026-09-02 12:09:05 | 50.08632 | 21.53440 | 76° | 44km/h | 16756m | 4.6m/s | 0°C | 0% | 0hPa | 0V | 00:00:00 | 00:00:00 | 00:00:00 | |
| MIELECB | 2026-09-02 12:09:02 | 50.08624 | 21.53384 | 76° | 55km/h | 16743m | 5.8m/s | 0°C | 0% | 0hPa | 0V | 00:00:00 | 00:00:00 | 00:00:00 | |
| AKAW68 | 2026-09-02 12:09:01 | 50.08620 | 21.53362 | 78° | 57km/h | 16738m | 3.7m/s | 0°C | 0% | 0hPa | 0V | 00:00:00 | 00:00:00 | 00:00:00 | |
| MIELECB | 2026-09-02 12:08:56 | 50.08613 | 21.53268 | 75° | 44km/h | 16715m | 3.6m/s | 0°C | 0% | 0hPa | 0V | 00:00:00 | 00:00:00 | 00:00:00 | |
| SP9KGR-15 | 2026-09-02 12:08:55 | 50.08609 | 21.53251 | 72° | 47km/h | 16711m | 4.1m/s | 0°C | 0% | 0hPa | 0V | 00:00:00 | 00:00:00 | 00:00:00 | |
| AKAW682 | 2026-09-02 12:08:52 | 50.08604 | 21.53193 | 86° | 57km/h | 16697m | 5.0m/s | 0°C | 0% | 0hPa | 0V | 00:00:00 | 00:00:00 | 00:00:00 | |
| SQ9PSP-11 | 2026-09-02 12:08:50 | 50.08602 | 21.53148 | 85° | 58km/h | 16688m | 3.8m/s | 0°C | 0% | 0hPa | 0V | 00:00:00 | 00:00:00 | 00:00:00 | |
| MIELECB | 2026-09-02 12:08:44 | 50.08598 | 21.53023 | 92° | 53km/h | 16661m | 4.3m/s | 0°C | 0% | 0hPa | 0V | 00:00:00 | 00:00:00 | 00:00:00 | |
| SQ9EZE-12 | 2026-09-02 12:08:42 | 50.08599 | 21.52981 | 100° | 55km/h | 16653m | 3.1m/s | 0°C | 0% | 0hPa | 0V | 00:00:00 | 00:00:00 | 00:00:00 | |
| SP9KGR-15 | 2026-09-02 12:08:40 | 50.08602 | 21.52937 | 90° | 58km/h | 16645m | 4.0m/s | 0°C | 0% | 0hPa | 0V | 00:00:00 | 00:00:00 | 00:00:00 | |
| MIELECB | 2026-09-02 12:08:39 | 50.08601 | 21.52913 | 89° | 60km/h | 16641m | 3.5m/s | 0°C | 0% | 0hPa | 0V | 00:00:00 | 00:00:00 | 00:00:00 | |
| SQ9PSP-11 | 2026-09-02 12:08:33 | 50.08597 | 21.52796 | 78° | 49km/h | 16615m | 3.3m/s | 0°C | 0% | 0hPa | 0V | 00:00:00 | 00:00:00 | 00:00:00 | |
| AKAW682 | 2026-09-02 12:08:32 | 50.08595 | 21.52777 | 83° | 49km/h | 16610m | 6.0m/s | 0°C | 0% | 0hPa | 0V | 00:00:00 | 00:00:00 | 00:00:00 | |
| MIELECB | 2026-09-02 12:08:27 | 50.08590 | 21.52675 | 92° | 49km/h | 16588m | 5.2m/s | 0°C | 0% | 0hPa | 0V | 00:00:00 | 00:00:00 | 00:00:00 | |
| SP9KGR-15 | 2026-09-02 12:08:23 | 50.08586 | 21.52600 | 86° | 42km/h | 16571m | 4.5m/s | 0°C | 0% | 0hPa | 0V | 00:00:00 | 00:00:00 | 00:00:00 | |
| MIELECB | 2026-09-02 12:08:22 | 50.08586 | 21.52584 | 91° | 40km/h | 16566m | 6.0m/s | 0°C | 0% | 0hPa | 0V | 00:00:00 | 00:00:00 | 00:00:00 | |
| AKAW68 | 2026-09-02 12:08:19 | 50.08586 | 21.52533 | 93° | 49km/h | 16552m | 3.5m/s | 0°C | 0% | 0hPa | 0V | 00:00:00 | 00:00:00 | 00:00:00 | |
| MIELECB | 2026-09-02 12:08:17 | 50.08587 | 21.52494 | 95° | 49km/h | 16543m | 5.1m/s | 0°C | 0% | 0hPa | 0V | 00:00:00 | 00:00:00 | 00:00:00 | |
| SQ9PSP-11 | 2026-09-02 12:08:14 | 50.08588 | 21.52430 | 91° | 57km/h | 16530m | 4.3m/s | 0°C | 0% | 0hPa | 0V | 00:00:00 | 00:00:00 | 00:00:00 | |
| MIELECB | 2026-09-02 12:08:12 | 50.08590 | 21.52386 | 96° | 57km/h | 16520m | 3.0m/s | 0°C | 0% | 0hPa | 0V | 00:00:00 | 00:00:00 | 00:00:00 | |
| AKAW682 | 2026-09-02 12:08:09 | 50.08591 | 21.52318 | 88° | 55km/h | 16506m | 4.4m/s | 0°C | 0% | 0hPa | 0V | 00:00:00 | 00:00:00 | 00:00:00 | |
| SP9KGR-15 | 2026-09-02 12:08:07 | 50.08592 | 21.52275 | 96° | 51km/h | 16497m | 3.4m/s | 0°C | 0% | 0hPa | 0V | 00:00:00 | 00:00:00 | 00:00:00 | |
| MIELECB | 2026-09-02 12:08:06 | 50.08592 | 21.52255 | 90° | 49km/h | 16493m | 4.8m/s | 0°C | 0% | 0hPa | 0V | 00:00:00 | 00:00:00 | 00:00:00 | |
| MIELECB | 2026-09-02 12:08:00 | 50.08588 | 21.52132 | 95° | 58km/h | 16465m | 4.7m/s | 0°C | 0% | 0hPa | 0V | 00:00:00 | 00:00:00 | 00:00:00 | |
| SQ9PSP-11 | 2026-09-02 12:07:59 | 50.08589 | 21.52109 | 91° | 58km/h | 16461m | 3.6m/s | 0°C | 0% | 0hPa | 0V | 00:00:00 | 00:00:00 | 00:00:00 | |
| MIELECB | 2026-09-02 12:07:54 | 50.08587 | 21.51998 | 81° | 58km/h | 16438m | 4.2m/s | 0°C | 0% | 0hPa | 0V | 00:00:00 | 00:00:00 | 00:00:00 | |
| SP9KGR-15 | 2026-09-02 12:07:50 | 50.08578 | 21.51908 | 85° | 64km/h | 16420m | 3.4m/s | 0°C | 0% | 0hPa | 0V | 00:00:00 | 00:00:00 | 00:00:00 | |
| AKAW682 | 2026-09-02 12:07:49 | 50.08576 | 21.51884 | 85° | 58km/h | 16417m | 3.8m/s | 0°C | 0% | 0hPa | 0V | 00:00:00 | 00:00:00 | 00:00:00 | |
| SQ9EZE-12 | 2026-09-02 12:07:47 | 50.08576 | 21.51841 | 94° | 49km/h | 16407m | 3.7m/s | 0°C | 0% | 0hPa | 0V | 00:00:00 | 00:00:00 | 00:00:00 | |
| MIELECB | 2026-09-02 12:07:43 | 50.08574 | 21.51758 | 82° | 57km/h | 16390m | 3.5m/s | 0°C | 0% | 0hPa | 0V | 00:00:00 | 00:00:00 | 00:00:00 | |
| AKAW68 | 2026-09-02 12:07:38 | 50.08578 | 21.51650 | 99° | 60km/h | 16369m | 3.7m/s | 0°C | 0% | 0hPa | 0V | 00:00:00 | 00:00:00 | 00:00:00 | |
| SP9KGR-15 | 2026-09-02 12:07:34 | 50.08578 | 21.51563 | 91° | 57km/h | 16352m | 5.4m/s | 0°C | 0% | 0hPa | 0V | 00:00:00 | 00:00:00 | 00:00:00 | |
| MIELECB | 2026-09-02 12:07:33 | 50.08578 | 21.51540 | 92° | 58km/h | 16348m | 2.9m/s | 0°C | 0% | 0hPa | 0V | 00:00:00 | 00:00:00 | 00:00:00 | |
| AKAW682 | 2026-09-02 12:07:28 | 50.08586 | 21.51428 | 96° | 64km/h | 16324m | 4.0m/s | 0°C | 0% | 0hPa | 0V | 00:00:00 | 00:00:00 | 00:00:00 | |
| MIELECB | 2026-09-02 12:07:27 | 50.08587 | 21.51403 | 91° | 64km/h | 16320m | 5.2m/s | 0°C | 0% | 0hPa | 0V | 00:00:00 | 00:00:00 | 00:00:00 | |
| MIELECB | 2026-09-02 12:07:21 | 50.08580 | 21.51256 | 87° | 58km/h | 16292m | 4.5m/s | 0°C | 0% | 0hPa | 0V | 00:00:00 | 00:00:00 | 00:00:00 | |
| AKAW68 | 2026-09-02 12:07:17 | 50.08582 | 21.51158 | 90° | 66km/h | 16274m | 5.5m/s | 0°C | 0% | 0hPa | 0V | 00:00:00 | 00:00:00 | 00:00:00 | |
| SQ9EZE-12 | 2026-09-02 12:07:16 | 50.08581 | 21.51133 | 84° | 62km/h | 16269m | 4.4m/s | 0°C | 0% | 0hPa | 0V | 00:00:00 | 00:00:00 | 00:00:00 | |
| AKAW682 | 2026-09-02 12:07:07 | 50.08566 | 21.50918 | 96° | 60km/h | 16228m | 2.6m/s | 0°C | 0% | 0hPa | 0V | 00:00:00 | 00:00:00 | 00:00:00 | |
| MIELECB | 2026-09-02 12:07:04 | 50.08562 | 21.50850 | 77° | 58km/h | 16215m | 5.3m/s | 0°C | 0% | 0hPa | 0V | 00:00:00 | 00:00:00 | 00:00:00 | |
| SQ9EZE-12 | 2026-09-02 12:07:00 | 50.08546 | 21.50754 | 81° | 62km/h | 16195m | 5.0m/s | 0°C | 0% | 0hPa | 0V | 00:00:00 | 00:00:00 | 00:00:00 | |
| MIELECB | 2026-09-02 12:06:58 | 50.08542 | 21.50707 | 88° | 60km/h | 16186m | 4.9m/s | 0°C | 0% | 0hPa | 0V | 00:00:00 | 00:00:00 | 00:00:00 | |
| AKAW68 | 2026-09-02 12:06:57 | 50.08542 | 21.50683 | 90° | 64km/h | 16181m | 5.3m/s | 0°C | 0% | 0hPa | 0V | 00:00:00 | 00:00:00 | 00:00:00 | |
| MIELECB | 2026-09-02 12:06:52 | 50.08527 | 21.50565 | 72° | 62km/h | 16159m | 5.7m/s | 0°C | 0% | 0hPa | 0V | 00:00:00 | 00:00:00 | 00:00:00 | |
| MIELECB | 2026-09-02 12:06:46 | 50.08508 | 21.50412 | 88° | 66km/h | 16131m | 4.0m/s | 0°C | 0% | 0hPa | 0V | 00:00:00 | 00:00:00 | 00:00:00 | |
| MIELECB | 2026-09-02 12:06:36 | 50.08470 | 21.50173 | 83° | 58km/h | 16083m | 4.8m/s | 0°C | 0% | 0hPa | 0V | 00:00:00 | 00:00:00 | 00:00:00 | |
| AKAW682 | 2026-09-02 12:06:25 | 50.08421 | 21.49900 | 79° | 55km/h | 16027m | 5.7m/s | 0°C | 0% | 0hPa | 0V | 00:00:00 | 00:00:00 | 00:00:00 | |
| SQ9EZE-12 | 2026-09-02 12:06:23 | 50.08415 | 21.49858 | 75° | 55km/h | 16019m | 5.1m/s | 0°C | 0% | 0hPa | 0V | 00:00:00 | 00:00:00 | 00:00:00 | |
| AKAW68 | 2026-09-02 12:06:15 | 50.08360 | 21.49660 | 64° | 49km/h | 15980m | 6.0m/s | 0°C | 0% | 0hPa | 0V | 00:00:00 | 00:00:00 | 00:00:00 | |
| AKAW682 | 2026-09-02 12:06:04 | 50.08310 | 21.49418 | 76° | 46km/h | 15919m | 5.5m/s | 0°C | 0% | 0hPa | 0V | 00:00:00 | 00:00:00 | 00:00:00 | |
| SQ9EZE-12 | 2026-09-02 12:05:51 | 50.08243 | 21.49160 | 53° | 55km/h | 15840m | 5.1m/s | 0°C | 0% | 0hPa | 0V | 00:00:00 | 00:00:00 | 00:00:00 | |
| AKAW682 | 2026-09-02 12:05:43 | 50.08213 | 21.49008 | 71° | 51km/h | 15800m | 4.3m/s | 0°C | 0% | 0hPa | 0V | 00:00:00 | 00:00:00 | 00:00:00 | |
| AKAW682 | 2026-09-02 12:04:53 | 50.08136 | 21.47935 | 90° | 64km/h | 15562m | 5.3m/s | 0°C | 0% | 0hPa | 0V | 00:00:00 | 00:00:00 | 00:00:00 | |
| SQ9EZE-12 | 2026-09-02 12:04:42 | 50.08105 | 21.47695 | 77° | 58km/h | 15508m | 5.0m/s | 0°C | 0% | 0hPa | 0V | 00:00:00 | 00:00:00 | 00:00:00 | |
| AKAW682 | 2026-09-02 12:04:33 | 50.08071 | 21.47510 | 71° | 49km/h | 15464m | 5.5m/s | 0°C | 0% | 0hPa | 0V | 00:00:00 | 00:00:00 | 00:00:00 | |
| MIELECB | 2026-09-02 12:04:29 | 50.08050 | 21.47436 | 62° | 49km/h | 15445m | 4.0m/s | 0°C | 0% | 0hPa | 0V | 00:00:00 | 00:00:00 | 00:00:00 | |
| SQ9EZE-12 | 2026-09-02 12:04:27 | 50.08040 | 21.47400 | 70° | 49km/h | 15437m | 5.6m/s | 0°C | 0% | 0hPa | 0V | 00:00:00 | 00:00:00 | 00:00:00 | |
| SP9KGR-15 | 2026-09-02 12:04:26 | 50.08032 | 21.47363 | 76° | 47km/h | 15427m | 4.9m/s | 0°C | 0% | 0hPa | 0V | 00:00:00 | 00:00:00 | 00:00:00 | |
| MIELECB | 2026-09-02 12:04:13 | 50.07971 | 21.47158 | 71° | 46km/h | 15373m | 6.2m/s | 0°C | 0% | 0hPa | 0V | 00:00:00 | 00:00:00 | 00:00:00 | |
| AKAW682 | 2026-09-02 12:04:12 | 50.07967 | 21.47140 | 69° | 53km/h | 15368m | 4.4m/s | 0°C | 0% | 0hPa | 0V | 00:00:00 | 00:00:00 | 00:00:00 | |
| MIELECB | 2026-09-02 12:04:07 | 50.07935 | 21.47052 | 59° | 49km/h | 15345m | 3.3m/s | 0°C | 0% | 0hPa | 0V | 00:00:00 | 00:00:00 | 00:00:00 | |
| SQ9EZE-12 | 2026-09-02 12:04:04 | 50.07919 | 21.47008 | 62° | 40km/h | 15331m | 4.7m/s | 0°C | 0% | 0hPa | 0V | 00:00:00 | 00:00:00 | 00:00:00 | |
| MIELECB | 2026-09-02 12:03:58 | 50.07890 | 21.46909 | 64° | 47km/h | 15305m | 4.8m/s | 0°C | 0% | 0hPa | 0V | 00:00:00 | 00:00:00 | 00:00:00 | |
| AKAW682 | 2026-09-02 12:03:51 | 50.07851 | 21.46792 | 60° | 53km/h | 15273m | 4.4m/s | 0°C | 0% | 0hPa | 0V | 00:00:00 | 00:00:00 | 00:00:00 | |
| MIELECB | 2026-09-02 12:03:48 | 50.07831 | 21.46746 | 58° | 46km/h | 15261m | 6.1m/s | 0°C | 0% | 0hPa | 0V | 00:00:00 | 00:00:00 | 00:00:00 | |
| MIELECB | 2026-09-02 12:03:42 | 50.07800 | 21.46656 | 66° | 42km/h | 15229m | 5.1m/s | 0°C | 0% | 0hPa | 0V | 00:00:00 | 00:00:00 | 00:00:00 | |
| SQ9EZE-12 | 2026-09-02 12:03:40 | 50.07791 | 21.46623 | 64° | 44km/h | 15222m | 5.0m/s | 0°C | 0% | 0hPa | 0V | 00:00:00 | 00:00:00 | 00:00:00 | |
| AKAW682 | 2026-09-02 12:03:30 | 50.07746 | 21.46476 | 72° | 42km/h | 15174m | 4.8m/s | 0°C | 0% | 0hPa | 0V | 00:00:00 | 00:00:00 | 00:00:00 | |
| MIELECB | 2026-09-02 12:03:25 | 50.07725 | 21.46399 | 73° | 46km/h | 15149m | 5.2m/s | 0°C | 0% | 0hPa | 0V | 00:00:00 | 00:00:00 | 00:00:00 | |
| SQ9EZE-12 | 2026-09-02 12:03:16 | 50.07695 | 21.46261 | 79° | 44km/h | 15106m | 3.6m/s | 0°C | 0% | 0hPa | 0V | 00:00:00 | 00:00:00 | 00:00:00 | |
| MIELECB | 2026-09-02 12:03:15 | 50.07692 | 21.46245 | 77° | 42km/h | 15103m | 4.5m/s | 0°C | 0% | 0hPa | 0V | 00:00:00 | 00:00:00 | 00:00:00 | |
| AKAW682 | 2026-09-02 12:03:08 | 50.07679 | 21.46142 | 75° | 44km/h | 15069m | 5.4m/s | 0°C | 0% | 0hPa | 0V | 00:00:00 | 00:00:00 | 00:00:00 | |
| SP9KGR-15 | 2026-09-02 12:03:07 | 50.07677 | 21.46125 | 85° | 44km/h | 15064m | 4.7m/s | 0°C | 0% | 0hPa | 0V | 00:00:00 | 00:00:00 | 00:00:00 | |
| SQ9EZE-12 | 2026-09-02 12:03:00 | 50.07667 | 21.46014 | 84° | 40km/h | 15032m | 5.1m/s | 0°C | 0% | 0hPa | 0V | 00:00:00 | 00:00:00 | 00:00:00 | |
| MIELECB | 2026-09-02 12:02:56 | 50.07664 | 21.45951 | 90° | 44km/h | 15014m | 4.8m/s | 0°C | 0% | 0hPa | 0V | 00:00:00 | 00:00:00 | 00:00:00 | |
| AKAW682 | 2026-09-02 12:02:49 | 50.07656 | 21.45803 | 94° | 49km/h | 14977m | 6.7m/s | 0°C | 0% | 0hPa | 0V | 00:00:00 | 00:00:00 | 00:00:00 | |
| SQ9EZE-12 | 2026-09-02 12:02:44 | 50.07658 | 21.45729 | 90° | 47km/h | 14959m | 4.6m/s | 0°C | 0% | 0hPa | 0V | 00:00:00 | 00:00:00 | 00:00:00 | |
| MIELECB | 2026-09-02 12:02:40 | 50.07657 | 21.45648 | 85° | 57km/h | 14940m | 4.2m/s | 0°C | 0% | 0hPa | 0V | 00:00:00 | 00:00:00 | 00:00:00 | |
| MIELECB | 2026-09-02 12:02:35 | 50.07653 | 21.45542 | 86° | 55km/h | 14915m | 5.7m/s | 0°C | 0% | 0hPa | 0V | 00:00:00 | 00:00:00 | 00:00:00 | |
| MIELECB | 2026-09-02 12:02:29 | 50.07644 | 21.45404 | 83° | 60km/h | 14887m | 6.1m/s | 0°C | 0% | 0hPa | 0V | 00:00:00 | 00:00:00 | 00:00:00 | |
| AKAW682 | 2026-09-02 12:02:28 | 50.07642 | 21.45381 | 88° | 58km/h | 14882m | 5.3m/s | 0°C | 0% | 0hPa | 0V | 00:00:00 | 00:00:00 | 00:00:00 | |
| SQ9EZE-12 | 2026-09-02 12:02:26 | 50.07642 | 21.45334 | 90° | 62km/h | 14873m | 5.7m/s | 0°C | 0% | 0hPa | 0V | 00:00:00 | 00:00:00 | 00:00:00 | |
| MIELECB | 2026-09-02 12:02:22 | 50.07642 | 21.45230 | 88° | 66km/h | 14856m | 4.2m/s | 0°C | 0% | 0hPa | 0V | 00:00:00 | 00:00:00 | 00:00:00 | |
| MIELECB | 2026-09-02 12:02:14 | 50.07621 | 21.45028 | 86° | 71km/h | 14821m | 3.6m/s | 0°C | 0% | 0hPa | 0V | 00:00:00 | 00:00:00 | 00:00:00 | |
| SQ9EZE-12 | 2026-09-02 12:02:10 | 50.07611 | 21.44902 | 79° | 62km/h | 14800m | 5.3m/s | 0°C | 0% | 0hPa | 0V | 00:00:00 | 00:00:00 | 00:00:00 | |
| SQ9EZE-12 | 2026-09-02 12:01:52 | 50.07551 | 21.44498 | 77° | 62km/h | 14718m | 4.5m/s | 0°C | 0% | 0hPa | 0V | 00:00:00 | 00:00:00 | 00:00:00 | |
| MIELECB | 2026-09-02 12:01:48 | 50.07533 | 21.44410 | 73° | 55km/h | 14698m | 4.4m/s | 0°C | 0% | 0hPa | 0V | 00:00:00 | 00:00:00 | 00:00:00 | |
| MIELECB | 2026-09-02 12:01:39 | 50.07484 | 21.44222 | 72° | 55km/h | 14658m | 6.6m/s | 0°C | 0% | 0hPa | 0V | 00:00:00 | 00:00:00 | 00:00:00 | |
| SQ9EZE-12 | 2026-09-02 12:01:36 | 50.07468 | 21.44139 | 74° | 57km/h | 14639m | 5.8m/s | 0°C | 0% | 0hPa | 0V | 00:00:00 | 00:00:00 | 00:00:00 | |
| MIELECB | 2026-09-02 12:01:32 | 50.07456 | 21.44077 | 72° | 58km/h | 14624m | 5.8m/s | 0°C | 0% | 0hPa | 0V | 00:00:00 | 00:00:00 | 00:00:00 | |
| MIELECB | 2026-09-02 12:01:23 | 50.07418 | 21.43890 | 76° | 55km/h | 14579m | 5.2m/s | 0°C | 0% | 0hPa | 0V | 00:00:00 | 00:00:00 | 00:00:00 | |
| SQ9EZE-12 | 2026-09-02 12:01:17 | 50.07398 | 21.43768 | 76° | 57km/h | 14549m | 4.2m/s | 0°C | 0% | 0hPa | 0V | 00:00:00 | 00:00:00 | 00:00:00 | |
| MIELECB | 2026-09-02 12:01:12 | 50.07382 | 21.43665 | 72° | 51km/h | 14525m | 4.9m/s | 0°C | 0% | 0hPa | 0V | 00:00:00 | 00:00:00 | 00:00:00 | |
| MIELECB | 2026-09-02 12:01:05 | 50.07360 | 21.43508 | 80° | 58km/h | 14492m | 3.5m/s | 0°C | 0% | 0hPa | 0V | 00:00:00 | 00:00:00 | 00:00:00 | |
| MIELECB | 2026-09-02 12:01:00 | 50.07348 | 21.43409 | 82° | 49km/h | 14469m | 4.0m/s | 0°C | 0% | 0hPa | 0V | 00:00:00 | 00:00:00 | 00:00:00 | |
| MIELECB | 2026-09-02 12:00:53 | 50.07336 | 21.43252 | 83° | 55km/h | 14435m | 4.8m/s | 0°C | 0% | 0hPa | 0V | 00:00:00 | 00:00:00 | 00:00:00 | |
| MIELECB | 2026-09-02 12:00:48 | 50.07330 | 21.43140 | 86° | 57km/h | 14412m | 3.6m/s | 0°C | 0% | 0hPa | 0V | 00:00:00 | 00:00:00 | 00:00:00 | |
| MIELECB | 2026-09-02 12:00:41 | 50.07320 | 21.42962 | 86° | 68km/h | 14380m | 5.9m/s | 0°C | 0% | 0hPa | 0V | 00:00:00 | 00:00:00 | 00:00:00 | |
| MIELECB | 2026-09-02 12:00:32 | 50.07304 | 21.42737 | 80° | 62km/h | 14338m | 5.4m/s | 0°C | 0% | 0hPa | 0V | 00:00:00 | 00:00:00 | 00:00:00 | |
| SQ9EZE-12 | 2026-09-02 12:00:26 | 50.07293 | 21.42593 | 88° | 64km/h | 14309m | 4.8m/s | 0°C | 0% | 0hPa | 0V | 00:00:00 | 00:00:00 | 00:00:00 | |
| MIELECB | 2026-09-02 12:00:25 | 50.07289 | 21.42542 | 80° | 69km/h | 14298m | 5.4m/s | 0°C | 0% | 0hPa | 0V | 00:00:00 | 00:00:00 | 00:00:00 | |
| MIELECB | 2026-09-02 12:00:18 | 50.07275 | 21.42380 | 85° | 66km/h | 14272m | 6.6m/s | 0°C | 0% | 0hPa | 0V | 00:00:00 | 00:00:00 | 00:00:00 | |
| MIELECB | 2026-09-02 12:00:12 | 50.07265 | 21.42235 | 88° | 57km/h | 14242m | 3.9m/s | 0°C | 0% | 0hPa | 0V | 00:00:00 | 00:00:00 | 00:00:00 | |
| MIELECB | 2026-09-02 12:00:06 | 50.07260 | 21.42103 | 90° | 57km/h | 14217m | 4.4m/s | 0°C | 0% | 0hPa | 0V | 00:00:00 | 00:00:00 | 00:00:00 | |
| SP9KGR-15 | 2026-09-02 12:00:03 | 50.07254 | 21.42036 | 80° | 58km/h | 14202m | 5.5m/s | 0°C | 0% | 0hPa | 0V | 00:00:00 | 00:00:00 | 00:00:00 | |
| MIELECB | 2026-09-02 12:00:00 | 50.07245 | 21.41972 | 79° | 49km/h | 14188m | 5.8m/s | 0°C | 0% | 0hPa | 0V | 00:00:00 | 00:00:00 | 00:00:00 | |
| MIELECB | 2026-09-02 11:59:55 | 50.07236 | 21.41872 | 88° | 49km/h | 14164m | 4.1m/s | 0°C | 0% | 0hPa | 0V | 00:00:00 | 00:00:00 | 00:00:00 | |
| MIELECB | 2026-09-02 11:59:47 | 50.07231 | 21.41710 | 88° | 57km/h | 14130m | 4.6m/s | 0°C | 0% | 0hPa | 0V | 00:00:00 | 00:00:00 | 00:00:00 | |
| SP9KGR-15 | 2026-09-02 11:59:46 | 50.07228 | 21.41666 | 85° | 55km/h | 14121m | 2.9m/s | 0°C | 0% | 0hPa | 0V | 00:00:00 | 00:00:00 | 00:00:00 | |
| MIELECB | 2026-09-02 11:59:41 | 50.07225 | 21.41578 | 91° | 49km/h | 14103m | 4.3m/s | 0°C | 0% | 0hPa | 0V | 00:00:00 | 00:00:00 | 00:00:00 | |
| MIELECB | 2026-09-02 11:59:35 | 50.07225 | 21.41454 | 85° | 55km/h | 14074m | 4.2m/s | 0°C | 0% | 0hPa | 0V | 00:00:00 | 00:00:00 | 00:00:00 | |
| SP9KGR-15 | 2026-09-02 11:59:29 | 50.07225 | 21.41327 | 100° | 53km/h | 14047m | 4.3m/s | 0°C | 0% | 0hPa | 0V | 00:00:00 | 00:00:00 | 00:00:00 | |
| MIELECB | 2026-09-02 11:59:28 | 50.07226 | 21.41306 | 97° | 51km/h | 14043m | 3.7m/s | 0°C | 0% | 0hPa | 0V | 00:00:00 | 00:00:00 | 00:00:00 | |
| MIELECB | 2026-09-02 11:59:22 | 50.07228 | 21.41177 | 92° | 55km/h | 14019m | 6.8m/s | 0°C | 0% | 0hPa | 0V | 00:00:00 | 00:00:00 | 00:00:00 | |
| MIELECB | 2026-09-02 11:59:17 | 50.07230 | 21.41067 | 92° | 53km/h | 13996m | 4.6m/s | 0°C | 0% | 0hPa | 0V | 00:00:00 | 00:00:00 | 00:00:00 | |
| SQ9EZE-12 | 2026-09-02 11:59:11 | 50.07238 | 21.40942 | 98° | 53km/h | 13970m | 5.0m/s | 0°C | 0% | 0hPa | 0V | 00:00:00 | 00:00:00 | 00:00:00 | |
| MIELECB | 2026-09-02 11:59:06 | 50.07246 | 21.40830 | 97° | 60km/h | 13946m | 5.1m/s | 0°C | 0% | 0hPa | 0V | 00:00:00 | 00:00:00 | 00:00:00 | |
| MIELECB | 2026-09-02 11:58:57 | 50.07259 | 21.40619 | 96° | 66km/h | 13905m | 5.6m/s | 0°C | 0% | 0hPa | 0V | 00:00:00 | 00:00:00 | 00:00:00 | |
| SQ9EZE-12 | 2026-09-02 11:58:55 | 50.07260 | 21.40566 | 95° | 66km/h | 13895m | 6.6m/s | 0°C | 0% | 0hPa | 0V | 00:00:00 | 00:00:00 | 00:00:00 | |
| MIELECB | 2026-09-02 11:58:51 | 50.07267 | 21.40463 | 98° | 69km/h | 13876m | 4.4m/s | 0°C | 0% | 0hPa | 0V | 00:00:00 | 00:00:00 | 00:00:00 | |
| SP9KGR-15 | 2026-09-02 11:58:50 | 50.07270 | 21.40437 | 102° | 68km/h | 13871m | 5.5m/s | 0°C | 0% | 0hPa | 0V | 00:00:00 | 00:00:00 | 00:00:00 | |
| MIELECB | 2026-09-02 11:58:46 | 50.07278 | 21.40329 | 91° | 75km/h | 13853m | 3.7m/s | 0°C | 0% | 0hPa | 0V | 00:00:00 | 00:00:00 | 00:00:00 | |
| MIELECB | 2026-09-02 11:58:31 | 50.07300 | 21.39889 | 94° | 82km/h | 13784m | 3.2m/s | 0°C | 0% | 0hPa | 0V | 00:00:00 | 00:00:00 | 00:00:00 | |
| SP9KGR-15 | 2026-09-02 11:58:17 | 50.07316 | 21.39482 | 92° | 75km/h | 13726m | 4.7m/s | 0°C | 0% | 0hPa | 0V | 00:00:00 | 00:00:00 | 00:00:00 | |
| MIELECB | 2026-09-02 11:58:08 | 50.07321 | 21.39223 | 95° | 73km/h | 13686m | 3.1m/s | 0°C | 0% | 0hPa | 0V | 00:00:00 | 00:00:00 | 00:00:00 | |
| MIELECB | 2026-09-02 11:57:58 | 50.07335 | 21.38946 | 97° | 75km/h | 13638m | 6.6m/s | 0°C | 0% | 0hPa | 0V | 00:00:00 | 00:00:00 | 00:00:00 | |
| MIELECB | 2026-09-02 11:57:53 | 50.07351 | 21.38809 | 96° | 73km/h | 13615m | 3.8m/s | 0°C | 0% | 0hPa | 0V | 00:00:00 | 00:00:00 | 00:00:00 | |
| MIELECB | 2026-09-02 11:57:40 | 50.07354 | 21.38405 | 87° | 91km/h | 13544m | 4.9m/s | 0°C | 0% | 0hPa | 0V | 00:00:00 | 00:00:00 | 00:00:00 | |
| MIELECB | 2026-09-02 11:57:35 | 50.07350 | 21.38246 | 92° | 77km/h | 13521m | 5.5m/s | 0°C | 0% | 0hPa | 0V | 00:00:00 | 00:00:00 | 00:00:00 | |
| MIELECB | 2026-09-02 11:57:29 | 50.07345 | 21.38053 | 95° | 82km/h | 13494m | 5.2m/s | 0°C | 0% | 0hPa | 0V | 00:00:00 | 00:00:00 | 00:00:00 | |
| MIELECB | 2026-09-02 11:57:24 | 50.07335 | 21.37901 | 79° | 82km/h | 13462m | 6.6m/s | 0°C | 0% | 0hPa | 0V | 00:00:00 | 00:00:00 | 00:00:00 | |
| MIELECB | 2026-09-02 11:57:18 | 50.07321 | 21.37716 | 91° | 78km/h | 13433m | 7.2m/s | 0°C | 0% | 0hPa | 0V | 00:00:00 | 00:00:00 | 00:00:00 | |
| MIELECB | 2026-09-02 11:57:13 | 50.07306 | 21.37570 | 76° | 77km/h | 13405m | 5.5m/s | 0°C | 0% | 0hPa | 0V | 00:00:00 | 00:00:00 | 00:00:00 | |
| MIELECB | 2026-09-02 11:57:04 | 50.07278 | 21.37288 | 80° | 73km/h | 13357m | 5.2m/s | 0°C | 0% | 0hPa | 0V | 00:00:00 | 00:00:00 | 00:00:00 | |
| MIELECB | 2026-09-02 11:56:58 | 50.07259 | 21.37112 | 82° | 78km/h | 13325m | 4.3m/s | 0°C | 0% | 0hPa | 0V | 00:00:00 | 00:00:00 | 00:00:00 | |
| MIELECB | 2026-09-02 11:56:53 | 50.07236 | 21.36969 | 81° | 77km/h | 13300m | 3.9m/s | 0°C | 0% | 0hPa | 0V | 00:00:00 | 00:00:00 | 00:00:00 | |
| MIELECB | 2026-09-02 11:56:47 | 50.07223 | 21.36795 | 86° | 77km/h | 13270m | 6.4m/s | 0°C | 0% | 0hPa | 0V | 00:00:00 | 00:00:00 | 00:00:00 | |
| MIELECB | 2026-09-02 11:56:36 | 50.07188 | 21.36501 | 78° | 73km/h | 13216m | 3.8m/s | 0°C | 0% | 0hPa | 0V | 00:00:00 | 00:00:00 | 00:00:00 | |
| MIELECB | 2026-09-02 11:56:30 | 50.07165 | 21.36341 | 75° | 68km/h | 13187m | 5.6m/s | 0°C | 0% | 0hPa | 0V | 00:00:00 | 00:00:00 | 00:00:00 | |
| MIELECB | 2026-09-02 11:56:24 | 50.07146 | 21.36185 | 87° | 69km/h | 13152m | 3.6m/s | 0°C | 0% | 0hPa | 0V | 00:00:00 | 00:00:00 | 00:00:00 | |
| MIELECB | 2026-09-02 11:56:12 | 50.07110 | 21.35855 | 80° | 73km/h | 13094m | 5.7m/s | 0°C | 0% | 0hPa | 0V | 00:00:00 | 00:00:00 | 00:00:00 | |
| MIELECB | 2026-09-02 11:56:06 | 50.07092 | 21.35683 | 85° | 77km/h | 13070m | 4.3m/s | 0°C | 0% | 0hPa | 0V | 00:00:00 | 00:00:00 | 00:00:00 | |
| MIELECB | 2026-09-02 11:56:01 | 50.07080 | 21.35538 | 75° | 73km/h | 13042m | 6.1m/s | 0°C | 0% | 0hPa | 0V | 00:00:00 | 00:00:00 | 00:00:00 | |
| MIELECB | 2026-09-02 11:55:55 | 50.07062 | 21.35362 | 93° | 84km/h | 13015m | 4.7m/s | 0°C | 0% | 0hPa | 0V | 00:00:00 | 00:00:00 | 00:00:00 | |
| MIELECB | 2026-09-02 11:55:28 | 50.06887 | 21.34543 | 69° | 84km/h | 12898m | 4.3m/s | 0°C | 0% | 0hPa | 0V | 00:00:00 | 00:00:00 | 00:00:00 | |
| MIELECB | 2026-09-02 11:55:21 | 50.06836 | 21.34338 | 73° | 78km/h | 12867m | 6.4m/s | 0°C | 0% | 0hPa | 0V | 00:00:00 | 00:00:00 | 00:00:00 | |
| MIELECB | 2026-09-02 11:55:16 | 50.06804 | 21.34193 | 73° | 80km/h | 12845m | 6.6m/s | 0°C | 0% | 0hPa | 0V | 00:00:00 | 00:00:00 | 00:00:00 | |
| MIELECB | 2026-09-02 11:55:10 | 50.06770 | 21.34024 | 76° | 73km/h | 12820m | 3.7m/s | 0°C | 0% | 0hPa | 0V | 00:00:00 | 00:00:00 | 00:00:00 | |
| MIELECB | 2026-09-02 11:55:04 | 50.06738 | 21.33851 | 77° | 73km/h | 12792m | 5.8m/s | 0°C | 0% | 0hPa | 0V | 00:00:00 | 00:00:00 | 00:00:00 | |
| MIELECB | 2026-09-02 11:54:57 | 50.06703 | 21.33662 | 75° | 77km/h | 12761m | 5.7m/s | 0°C | 0% | 0hPa | 0V | 00:00:00 | 00:00:00 | 00:00:00 | |
| SQ9PSP-11 | 2026-09-02 11:54:53 | 50.06686 | 21.33552 | 75° | 69km/h | 12743m | 3.7m/s | 0°C | 0% | 0hPa | 0V | 00:00:00 | 00:00:00 | 00:00:00 | |
| MIELECB | 2026-09-02 11:54:52 | 50.06681 | 21.33525 | 76° | 71km/h | 12739m | 5.6m/s | 0°C | 0% | 0hPa | 0V | 00:00:00 | 00:00:00 | 00:00:00 | |
| MIELECB | 2026-09-02 11:54:46 | 50.06657 | 21.33359 | 76° | 73km/h | 12713m | 5.8m/s | 0°C | 0% | 0hPa | 0V | 00:00:00 | 00:00:00 | 00:00:00 | |
| MIELECB | 2026-09-02 11:54:40 | 50.06631 | 21.33193 | 79° | 71km/h | 12686m | 4.4m/s | 0°C | 0% | 0hPa | 0V | 00:00:00 | 00:00:00 | 00:00:00 | |
| MIELECB | 2026-09-02 11:54:34 | 50.06610 | 21.33025 | 78° | 73km/h | 12661m | 5.7m/s | 0°C | 0% | 0hPa | 0V | 00:00:00 | 00:00:00 | 00:00:00 | |
| MIELECB | 2026-09-02 11:54:29 | 50.06591 | 21.32886 | 80° | 69km/h | 12638m | 4.6m/s | 0°C | 0% | 0hPa | 0V | 00:00:00 | 00:00:00 | 00:00:00 | |
| MIELECB | 2026-09-02 11:54:22 | 50.06573 | 21.32690 | 84° | 73km/h | 12605m | 5.1m/s | 0°C | 0% | 0hPa | 0V | 00:00:00 | 00:00:00 | 00:00:00 | |
| SQ9PSP-11 | 2026-09-02 11:54:21 | 50.06571 | 21.32661 | 85° | 73km/h | 12601m | 5.1m/s | 0°C | 0% | 0hPa | 0V | 00:00:00 | 00:00:00 | 00:00:00 | |
| AKAW68 | 2026-09-02 11:54:15 | 50.06557 | 21.32493 | 82° | 68km/h | 12574m | 5.2m/s | 0°C | 0% | 0hPa | 0V | 00:00:00 | 00:00:00 | 00:00:00 | |
| MIELECB | 2026-09-02 11:54:10 | 50.06548 | 21.32357 | 88° | 68km/h | 12550m | 5.2m/s | 0°C | 0% | 0hPa | 0V | 00:00:00 | 00:00:00 | 00:00:00 | |
| MIELECB | 2026-09-02 11:54:04 | 50.06535 | 21.32192 | 82° | 73km/h | 12525m | 5.6m/s | 0°C | 0% | 0hPa | 0V | 00:00:00 | 00:00:00 | 00:00:00 | |
| SQ9PSP-11 | 2026-09-02 11:53:59 | 50.06533 | 21.32054 | 96° | 71km/h | 12502m | 5.5m/s | 0°C | 0% | 0hPa | 0V | 00:00:00 | 00:00:00 | 00:00:00 | |
| MIELECB | 2026-09-02 11:53:58 | 50.06534 | 21.32026 | 92° | 73km/h | 12498m | 4.0m/s | 0°C | 0% | 0hPa | 0V | 00:00:00 | 00:00:00 | 00:00:00 | |
| MIELECB | 2026-09-02 11:53:52 | 50.06520 | 21.31847 | 87° | 78km/h | 12472m | 5.6m/s | 0°C | 0% | 0hPa | 0V | 00:00:00 | 00:00:00 | 00:00:00 | |
| AKAW68 | 2026-09-02 11:53:50 | 50.06518 | 21.31788 | 89° | 73km/h | 12463m | 4.1m/s | 0°C | 0% | 0hPa | 0V | 00:00:00 | 00:00:00 | 00:00:00 | |
| MIELECB | 2026-09-02 11:53:46 | 50.06516 | 21.31669 | 88° | 75km/h | 12448m | 5.3m/s | 0°C | 0% | 0hPa | 0V | 00:00:00 | 00:00:00 | 00:00:00 | |
| MIELECB | 2026-09-02 11:53:40 | 50.06501 | 21.31484 | 80° | 84km/h | 12420m | 4.3m/s | 0°C | 0% | 0hPa | 0V | 00:00:00 | 00:00:00 | 00:00:00 | |
| SQ9PSP-11 | 2026-09-02 11:53:39 | 50.06497 | 21.31451 | 82° | 84km/h | 12415m | 5.5m/s | 0°C | 0% | 0hPa | 0V | 00:00:00 | 00:00:00 | 00:00:00 | |
| AKAW682 | 2026-09-02 11:53:38 | 50.06494 | 21.31419 | 83° | 84km/h | 12411m | 3.7m/s | 0°C | 0% | 0hPa | 0V | 00:00:00 | 00:00:00 | 00:00:00 | |
| MIELECB | 2026-09-02 11:53:34 | 50.06485 | 21.31297 | 87° | 77km/h | 12395m | 4.8m/s | 0°C | 0% | 0hPa | 0V | 00:00:00 | 00:00:00 | 00:00:00 | |
| MIELECB | 2026-09-02 11:53:28 | 50.06469 | 21.31108 | 78° | 78km/h | 12367m | 4.8m/s | 0°C | 0% | 0hPa | 0V | 00:00:00 | 00:00:00 | 00:00:00 | |
| SQ9PSP-11 | 2026-09-02 11:53:23 | 50.06451 | 21.30957 | 81° | 78km/h | 12345m | 6.2m/s | 0°C | 0% | 0hPa | 0V | 00:00:00 | 00:00:00 | 00:00:00 | |
| AKAW68 | 2026-09-02 11:53:20 | 50.06440 | 21.30866 | 76° | 77km/h | 12333m | 6.6m/s | 0°C | 0% | 0hPa | 0V | 00:00:00 | 00:00:00 | 00:00:00 | |
| MIELECB | 2026-09-02 11:53:18 | 50.06429 | 21.30810 | 75° | 75km/h | 12323m | 6.8m/s | 0°C | 0% | 0hPa | 0V | 00:00:00 | 00:00:00 | 00:00:00 | |
| MIELECB | 2026-09-02 11:53:12 | 50.06405 | 21.30641 | 84° | 71km/h | 12297m | 4.9m/s | 0°C | 0% | 0hPa | 0V | 00:00:00 | 00:00:00 | 00:00:00 | |
| MIELECB | 2026-09-02 11:53:07 | 50.06378 | 21.30502 | 69° | 75km/h | 12274m | 6.1m/s | 0°C | 0% | 0hPa | 0V | 00:00:00 | 00:00:00 | 00:00:00 | |
| SQ9PSP-11 | 2026-09-02 11:53:04 | 50.06361 | 21.30423 | 79° | 69km/h | 12261m | 6.0m/s | 0°C | 0% | 0hPa | 0V | 00:00:00 | 00:00:00 | 00:00:00 | |
| MIELECB | 2026-09-02 11:53:02 | 50.06354 | 21.30368 | 79° | 71km/h | 12252m | 5.6m/s | 0°C | 0% | 0hPa | 0V | 00:00:00 | 00:00:00 | 00:00:00 | |
| AKAW68 | 2026-09-02 11:52:56 | 50.06327 | 21.30202 | 75° | 64km/h | 12227m | 4.8m/s | 0°C | 0% | 0hPa | 0V | 00:00:00 | 00:00:00 | 00:00:00 | |
| MIELECB | 2026-09-02 11:52:51 | 50.06308 | 21.30075 | 73° | 68km/h | 12208m | 5.3m/s | 0°C | 0% | 0hPa | 0V | 00:00:00 | 00:00:00 | 00:00:00 | |
| MIELECB | 2026-09-02 11:52:46 | 50.06282 | 21.29953 | 73° | 66km/h | 12183m | 5.8m/s | 0°C | 0% | 0hPa | 0V | 00:00:00 | 00:00:00 | 00:00:00 | |
| SQ9PSP-11 | 2026-09-02 11:52:44 | 50.06272 | 21.29900 | 78° | 75km/h | 12174m | 5.8m/s | 0°C | 0% | 0hPa | 0V | 00:00:00 | 00:00:00 | 00:00:00 | |
| MIELECB | 2026-09-02 11:52:39 | 50.06237 | 21.29768 | 58° | 64km/h | 12151m | 4.0m/s | 0°C | 0% | 0hPa | 0V | 00:00:00 | 00:00:00 | 00:00:00 | |
| AKAW68 | 2026-09-02 11:52:35 | 50.06210 | 21.29667 | 75° | 73km/h | 12132m | 4.6m/s | 0°C | 0% | 0hPa | 0V | 00:00:00 | 00:00:00 | 00:00:00 | |
| MIELECB | 2026-09-02 11:52:33 | 50.06201 | 21.29614 | 74° | 62km/h | 12123m | 5.2m/s | 0°C | 0% | 0hPa | 0V | 00:00:00 | 00:00:00 | 00:00:00 | |
| SQ9PSP-11 | 2026-09-02 11:52:27 | 50.06167 | 21.29478 | 69° | 64km/h | 12096m | 3.8m/s | 0°C | 0% | 0hPa | 0V | 00:00:00 | 00:00:00 | 00:00:00 | |
| MIELECB | 2026-09-02 11:52:26 | 50.06161 | 21.29456 | 67° | 58km/h | 12092m | 5.0m/s | 0°C | 0% | 0hPa | 0V | 00:00:00 | 00:00:00 | 00:00:00 | |
| MIELECB | 2026-09-02 11:52:18 | 50.06119 | 21.29266 | 70° | 68km/h | 12058m | 4.3m/s | 0°C | 0% | 0hPa | 0V | 00:00:00 | 00:00:00 | 00:00:00 | |
| AKAW682 | 2026-09-02 11:52:16 | 50.06108 | 21.29219 | 70° | 58km/h | 12048m | 5.8m/s | 0°C | 0% | 0hPa | 0V | 00:00:00 | 00:00:00 | 00:00:00 | |
| AKAW68 | 2026-09-02 11:52:14 | 50.06097 | 21.29176 | 68° | 62km/h | 12039m | 5.7m/s | 0°C | 0% | 0hPa | 0V | 00:00:00 | 00:00:00 | 00:00:00 | |
| SQ9PSP-11 | 2026-09-02 11:52:12 | 50.06086 | 21.29129 | 73° | 62km/h | 12031m | 6.0m/s | 0°C | 0% | 0hPa | 0V | 00:00:00 | 00:00:00 | 00:00:00 | |
| MIELECB | 2026-09-02 11:52:06 | 50.06060 | 21.28987 | 77° | 57km/h | 12003m | 3.3m/s | 0°C | 0% | 0hPa | 0V | 00:00:00 | 00:00:00 | 00:00:00 | |
| MIELECB | 2026-09-02 11:52:00 | 50.06034 | 21.28846 | 75° | 64km/h | 11975m | 6.2m/s | 0°C | 0% | 0hPa | 0V | 00:00:00 | 00:00:00 | 00:00:00 | |
| SQ9PSP-11 | 2026-09-02 11:51:55 | 50.06019 | 21.28720 | 86° | 71km/h | 11954m | 4.2m/s | 0°C | 0% | 0hPa | 0V | 00:00:00 | 00:00:00 | 00:00:00 | |
| AKAW68 | 2026-09-02 11:51:54 | 50.06017 | 21.28692 | 84° | 69km/h | 11950m | 4.1m/s | 0°C | 0% | 0hPa | 0V | 00:00:00 | 00:00:00 | 00:00:00 | |
| AKAW682 | 2026-09-02 11:51:53 | 50.06014 | 21.28666 | 83° | 66km/h | 11945m | 6.8m/s | 0°C | 0% | 0hPa | 0V | 00:00:00 | 00:00:00 | 00:00:00 | |
| SP9KGR-15 | 2026-09-02 11:51:49 | 50.06004 | 21.28557 | 84° | 69km/h | 11926m | 4.5m/s | 0°C | 0% | 0hPa | 0V | 00:00:00 | 00:00:00 | 00:00:00 | |
| MIELECB | 2026-09-02 11:51:43 | 50.05989 | 21.28395 | 82° | 71km/h | 11899m | 4.5m/s | 0°C | 0% | 0hPa | 0V | 00:00:00 | 00:00:00 | 00:00:00 | |
| SQ9PSP-11 | 2026-09-02 11:51:39 | 50.05977 | 21.28278 | 82° | 77km/h | 11883m | 4.1m/s | 0°C | 0% | 0hPa | 0V | 00:00:00 | 00:00:00 | 00:00:00 | |
| MIELECB | 2026-09-02 11:51:37 | 50.05972 | 21.28221 | 81° | 71km/h | 11873m | 3.7m/s | 0°C | 0% | 0hPa | 0V | 00:00:00 | 00:00:00 | 00:00:00 | |
| AKAW68 | 2026-09-02 11:51:33 | 50.05958 | 21.28105 | 76° | 78km/h | 11856m | 3.6m/s | 0°C | 0% | 0hPa | 0V | 00:00:00 | 00:00:00 | 00:00:00 | |
| MIELECB | 2026-09-02 11:51:32 | 50.05950 | 21.28045 | 81° | 80km/h | 11847m | 6.3m/s | 0°C | 0% | 0hPa | 0V | 00:00:00 | 00:00:00 | 00:00:00 | |
| AKAW682 | 2026-09-02 11:51:29 | 50.05943 | 21.27984 | 80° | 77km/h | 11837m | 5.7m/s | 0°C | 0% | 0hPa | 0V | 00:00:00 | 00:00:00 | 00:00:00 | |
| SP9KGR-15 | 2026-09-02 11:51:27 | 50.05935 | 21.27922 | 83° | 80km/h | 11828m | 5.2m/s | 0°C | 0% | 0hPa | 0V | 00:00:00 | 00:00:00 | 00:00:00 | |
| MIELECB | 2026-09-02 11:51:25 | 50.05929 | 21.27859 | 81° | 84km/h | 11820m | 3.8m/s | 0°C | 0% | 0hPa | 0V | 00:00:00 | 00:00:00 | 00:00:00 | |
| SQ9PSP-11 | 2026-09-02 11:51:24 | 50.05924 | 21.27826 | 78° | 84km/h | 11815m | 5.7m/s | 0°C | 0% | 0hPa | 0V | 00:00:00 | 00:00:00 | 00:00:00 | |
| MIELECB | 2026-09-02 11:51:19 | 50.05901 | 21.27669 | 79° | 84km/h | 11794m | 4.9m/s | 0°C | 0% | 0hPa | 0V | 00:00:00 | 00:00:00 | 00:00:00 | |
| MIELECB | 2026-09-02 11:51:14 | 50.05878 | 21.27509 | 76° | 80km/h | 11774m | 4.0m/s | 0°C | 0% | 0hPa | 0V | 00:00:00 | 00:00:00 | 00:00:00 | |
| AKAW68 | 2026-09-02 11:51:13 | 50.05872 | 21.27479 | 75° | 80km/h | 11769m | 5.3m/s | 0°C | 0% | 0hPa | 0V | 00:00:00 | 00:00:00 | 00:00:00 | |
| AKAW682 | 2026-09-02 11:51:08 | 50.05845 | 21.27330 | 77° | 77km/h | 11747m | 4.3m/s | 0°C | 0% | 0hPa | 0V | 00:00:00 | 00:00:00 | 00:00:00 | |
| MIELECB | 2026-09-02 11:51:03 | 50.05817 | 21.27171 | 75° | 80km/h | 11724m | 4.3m/s | 0°C | 0% | 0hPa | 0V | 00:00:00 | 00:00:00 | 00:00:00 | |
| MIELECB | 2026-09-02 11:50:57 | 50.05784 | 21.26990 | 78° | 80km/h | 11699m | 5.8m/s | 0°C | 0% | 0hPa | 0V | 00:00:00 | 00:00:00 | 00:00:00 | |
| SQ9PSP-11 | 2026-09-02 11:50:52 | 50.05759 | 21.26836 | 75° | 82km/h | 11677m | 5.9m/s | 0°C | 0% | 0hPa | 0V | 00:00:00 | 00:00:00 | 00:00:00 | |
| AKAW68 | 2026-09-02 11:50:50 | 50.05748 | 21.26774 | 73° | 77km/h | 11670m | 6.3m/s | 0°C | 0% | 0hPa | 0V | 00:00:00 | 00:00:00 | 00:00:00 | |
| AKAW682 | 2026-09-02 11:50:47 | 50.05732 | 21.26682 | 78° | 84km/h | 11657m | 3.8m/s | 0°C | 0% | 0hPa | 0V | 00:00:00 | 00:00:00 | 00:00:00 | |
| MIELECB | 2026-09-02 11:50:46 | 50.05728 | 21.26650 | 80° | 84km/h | 11653m | 6.0m/s | 0°C | 0% | 0hPa | 0V | 00:00:00 | 00:00:00 | 00:00:00 | |
| MIELECB | 2026-09-02 11:50:40 | 50.05712 | 21.26460 | 82° | 75km/h | 11622m | 4.9m/s | 0°C | 0% | 0hPa | 0V | 00:00:00 | 00:00:00 | 00:00:00 | |
| SQ9PSP-11 | 2026-09-02 11:50:37 | 50.05699 | 21.26372 | 79° | 77km/h | 11608m | 4.0m/s | 0°C | 0% | 0hPa | 0V | 00:00:00 | 00:00:00 | 00:00:00 | |
| MIELECB | 2026-09-02 11:50:34 | 50.05692 | 21.26284 | 86° | 77km/h | 11593m | 5.7m/s | 0°C | 0% | 0hPa | 0V | 00:00:00 | 00:00:00 | 00:00:00 | |
| AKAW68 | 2026-09-02 11:50:30 | 50.05686 | 21.26159 | 86° | 77km/h | 11577m | 3.8m/s | 0°C | 0% | 0hPa | 0V | 00:00:00 | 00:00:00 | 00:00:00 | |
| MIELECB | 2026-09-02 11:50:28 | 50.05681 | 21.26099 | 80° | 77km/h | 11567m | 4.4m/s | 0°C | 0% | 0hPa | 0V | 00:00:00 | 00:00:00 | 00:00:00 | |
| AKAW682 | 2026-09-02 11:50:27 | 50.05678 | 21.26070 | 83° | 71km/h | 11563m | 5.7m/s | 0°C | 0% | 0hPa | 0V | 00:00:00 | 00:00:00 | 00:00:00 | |
| MIELECB | 2026-09-02 11:50:23 | 50.05673 | 21.25954 | 87° | 82km/h | 11546m | 3.8m/s | 0°C | 0% | 0hPa | 0V | 00:00:00 | 00:00:00 | 00:00:00 | |
| SQ9PSP-11 | 2026-09-02 11:50:21 | 50.05670 | 21.25888 | 87° | 86km/h | 11538m | 3.6m/s | 0°C | 0% | 0hPa | 0V | 00:00:00 | 00:00:00 | 00:00:00 | |
| SP9KGR-15 | 2026-09-02 11:50:17 | 50.05660 | 21.25762 | 81° | 71km/h | 11522m | 4.5m/s | 0°C | 0% | 0hPa | 0V | 00:00:00 | 00:00:00 | 00:00:00 | |
| MIELECB | 2026-09-02 11:50:12 | 50.05644 | 21.25623 | 83° | 78km/h | 11499m | 6.1m/s | 0°C | 0% | 0hPa | 0V | 00:00:00 | 00:00:00 | 00:00:00 | |
| AKAW68 | 2026-09-02 11:50:09 | 50.05635 | 21.25531 | 81° | 77km/h | 11487m | 4.4m/s | 0°C | 0% | 0hPa | 0V | 00:00:00 | 00:00:00 | 00:00:00 | |
| AKAW682 | 2026-09-02 11:50:06 | 50.05625 | 21.25441 | 83° | 75km/h | 11475m | 3.2m/s | 0°C | 0% | 0hPa | 0V | 00:00:00 | 00:00:00 | 00:00:00 | |
| SQ9PSP-11 | 2026-09-02 11:50:05 | 50.05622 | 21.25412 | 79° | 75km/h | 11471m | 4.5m/s | 0°C | 0% | 0hPa | 0V | 00:00:00 | 00:00:00 | 00:00:00 | |
| MIELECB | 2026-09-02 11:50:01 | 50.05603 | 21.25293 | 80° | 75km/h | 11456m | 4.9m/s | 0°C | 0% | 0hPa | 0V | 00:00:00 | 00:00:00 | 00:00:00 | |
| SP9KGR-15 | 2026-09-02 11:50:00 | 50.05599 | 21.25264 | 80° | 77km/h | 11451m | 4.2m/s | 0°C | 0% | 0hPa | 0V | 00:00:00 | 00:00:00 | 00:00:00 | |
| MIELECB | 2026-09-02 11:49:56 | 50.05582 | 21.25146 | 82° | 80km/h | 11435m | 5.4m/s | 0°C | 0% | 0hPa | 0V | 00:00:00 | 00:00:00 | 00:00:00 | |
| MIELECB | 2026-09-02 11:49:50 | 50.05557 | 21.24958 | 77° | 88km/h | 11410m | 3.5m/s | 0°C | 0% | 0hPa | 0V | 00:00:00 | 00:00:00 | 00:00:00 | |
| AKAW68 | 2026-09-02 11:49:49 | 50.05551 | 21.24926 | 74° | 82km/h | 11405m | 6.9m/s | 0°C | 0% | 0hPa | 0V | 00:00:00 | 00:00:00 | 00:00:00 | |
| AKAW682 | 2026-09-02 11:49:45 | 50.05530 | 21.24800 | 76° | 80km/h | 11386m | 7.0m/s | 0°C | 0% | 0hPa | 0V | 00:00:00 | 00:00:00 | 00:00:00 | |
| MIELECB | 2026-09-02 11:49:44 | 50.05524 | 21.24771 | 73° | 77km/h | 11381m | 4.3m/s | 0°C | 0% | 0hPa | 0V | 00:00:00 | 00:00:00 | 00:00:00 | |
| MIELECB | 2026-09-02 11:49:39 | 50.05494 | 21.24609 | 80° | 84km/h | 11360m | 6.5m/s | 0°C | 0% | 0hPa | 0V | 00:00:00 | 00:00:00 | 00:00:00 | |
| SQ9PSP-11 | 2026-09-02 11:49:34 | 50.05465 | 21.24459 | 75° | 78km/h | 11339m | 5.0m/s | 0°C | 0% | 0hPa | 0V | 00:00:00 | 00:00:00 | 00:00:00 | |
| MIELECB | 2026-09-02 11:49:33 | 50.05459 | 21.24428 | 74° | 86km/h | 11336m | 3.7m/s | 0°C | 0% | 0hPa | 0V | 00:00:00 | 00:00:00 | 00:00:00 | |
| AKAW68 | 2026-09-02 11:49:28 | 50.05427 | 21.24263 | 75° | 77km/h | 11316m | 3.7m/s | 0°C | 0% | 0hPa | 0V | 00:00:00 | 00:00:00 | 00:00:00 | |
| MIELECB | 2026-09-02 11:49:27 | 50.05422 | 21.24234 | 73° | 75km/h | 11312m | 4.6m/s | 0°C | 0% | 0hPa | 0V | 00:00:00 | 00:00:00 | 00:00:00 | |
| AKAW682 | 2026-09-02 11:49:24 | 50.05404 | 21.24149 | 75° | 80km/h | 11300m | 4.1m/s | 0°C | 0% | 0hPa | 0V | 00:00:00 | 00:00:00 | 00:00:00 | |
| MIELECB | 2026-09-02 11:49:21 | 50.05384 | 21.24056 | 69° | 86km/h | 11289m | 4.3m/s | 0°C | 0% | 0hPa | 0V | 00:00:00 | 00:00:00 | 00:00:00 | |
| SQ9PSP-11 | 2026-09-02 11:49:19 | 50.05367 | 21.23994 | 70° | 88km/h | 11280m | 4.0m/s | 0°C | 0% | 0hPa | 0V | 00:00:00 | 00:00:00 | 00:00:00 | |
| MIELECB | 2026-09-02 11:49:16 | 50.05341 | 21.23903 | 67° | 82km/h | 11268m | 5.0m/s | 0°C | 0% | 0hPa | 0V | 00:00:00 | 00:00:00 | 00:00:00 | |
| MIELECB | 2026-09-02 11:49:10 | 50.05293 | 21.23723 | 70° | 78km/h | 11241m | 4.8m/s | 0°C | 0% | 0hPa | 0V | 00:00:00 | 00:00:00 | 00:00:00 | |
| AKAW68 | 2026-09-02 11:49:07 | 50.05269 | 21.23640 | 65° | 78km/h | 11228m | 3.9m/s | 0°C | 0% | 0hPa | 0V | 00:00:00 | 00:00:00 | 00:00:00 | |
| MIELECB | 2026-09-02 11:49:04 | 50.05244 | 21.23551 | 70° | 82km/h | 11215m | 4.0m/s | 0°C | 0% | 0hPa | 0V | 00:00:00 | 00:00:00 | 00:00:00 | |
| SQ9PSP-11 | 2026-09-02 11:49:03 | 50.05236 | 21.23523 | 66° | 78km/h | 11211m | 3.4m/s | 0°C | 0% | 0hPa | 0V | 00:00:00 | 00:00:00 | 00:00:00 | |
| MIELECB | 2026-09-02 11:48:59 | 50.05206 | 21.23409 | 69° | 73km/h | 11194m | 3.7m/s | 0°C | 0% | 0hPa | 0V | 00:00:00 | 00:00:00 | 00:00:00 | |
| MIELECB | 2026-09-02 11:48:53 | 50.05164 | 21.23238 | 71° | 78km/h | 11168m | 5.3m/s | 0°C | 0% | 0hPa | 0V | 00:00:00 | 00:00:00 | 00:00:00 | |
| SQ9PSP-11 | 2026-09-02 11:48:48 | 50.05127 | 21.23095 | 70° | 80km/h | 11148m | 4.5m/s | 0°C | 0% | 0hPa | 0V | 00:00:00 | 00:00:00 | 00:00:00 | |
| MIELECB | 2026-09-02 11:48:47 | 50.05120 | 21.23065 | 71° | 78km/h | 11145m | 3.1m/s | 0°C | 0% | 0hPa | 0V | 00:00:00 | 00:00:00 | 00:00:00 | |
| AKAW68 | 2026-09-02 11:48:46 | 50.05113 | 21.23036 | 70° | 77km/h | 11141m | 6.5m/s | 0°C | 0% | 0hPa | 0V | 00:00:00 | 00:00:00 | 00:00:00 | |
| AKAW682 | 2026-09-02 11:48:44 | 50.05101 | 21.22983 | 71° | 69km/h | 11131m | 4.3m/s | 0°C | 0% | 0hPa | 0V | 00:00:00 | 00:00:00 | 00:00:00 | |
| MIELECB | 2026-09-02 11:48:42 | 50.05089 | 21.22929 | 72° | 75km/h | 11121m | 3.8m/s | 0°C | 0% | 0hPa | 0V | 00:00:00 | 00:00:00 | 00:00:00 | |
| MIELECB | 2026-09-02 11:48:37 | 50.05045 | 21.22790 | 62° | 80km/h | 11099m | 2.8m/s | 0°C | 0% | 0hPa | 0V | 00:00:00 | 00:00:00 | 00:00:00 | |
| SQ9PSP-11 | 2026-09-02 11:48:33 | 50.05012 | 21.22682 | 71° | 77km/h | 11082m | 5.5m/s | 0°C | 0% | 0hPa | 0V | 00:00:00 | 00:00:00 | 00:00:00 | |
| MIELECB | 2026-09-02 11:48:31 | 50.05000 | 21.22626 | 72° | 73km/h | 11073m | 5.7m/s | 0°C | 0% | 0hPa | 0V | 00:00:00 | 00:00:00 | 00:00:00 | |
| AKAW68 | 2026-09-02 11:48:26 | 50.04958 | 21.22472 | 68° | 66km/h | 11045m | 5.2m/s | 0°C | 0% | 0hPa | 0V | 00:00:00 | 00:00:00 | 00:00:00 | |
| AKAW682 | 2026-09-02 11:48:23 | 50.04945 | 21.22425 | 69° | 68km/h | 11038m | 6.3m/s | 0°C | 0% | 0hPa | 0V | 00:00:00 | 00:00:00 | 00:00:00 | |
| MIELECB | 2026-09-02 11:48:20 | 50.04927 | 21.22349 | 73° | 66km/h | 11024m | 4.3m/s | 0°C | 0% | 0hPa | 0V | 00:00:00 | 00:00:00 | 00:00:00 | |
| SQ9PSP-11 | 2026-09-02 11:48:17 | 50.04908 | 21.22272 | 67° | 73km/h | 11012m | 3.6m/s | 0°C | 0% | 0hPa | 0V | 00:00:00 | 00:00:00 | 00:00:00 | |
| SP9KGR-15 | 2026-09-02 11:48:15 | 50.04892 | 21.22220 | 65° | 68km/h | 11004m | 4.0m/s | 0°C | 0% | 0hPa | 0V | 00:00:00 | 00:00:00 | 00:00:00 | |
| MIELECB | 2026-09-02 11:48:10 | 50.04855 | 21.22065 | 76° | 68km/h | 10980m | 6.4m/s | 0°C | 0% | 0hPa | 0V | 00:00:00 | 00:00:00 | 00:00:00 | |
| MIELECB | 2026-09-02 11:48:04 | 50.04823 | 21.21939 | 68° | 69km/h | 10956m | 5.9m/s | 0°C | 0% | 0hPa | 0V | 00:00:00 | 00:00:00 | 00:00:00 | |
| AKAW682 | 2026-09-02 11:48:03 | 50.04815 | 21.21914 | 67° | 71km/h | 10952m | 3.8m/s | 0°C | 0% | 0hPa | 0V | 00:00:00 | 00:00:00 | 00:00:00 | |
| SQ9PSP-11 | 2026-09-02 11:48:02 | 50.04808 | 21.21889 | 70° | 68km/h | 10948m | 5.7m/s | 0°C | 0% | 0hPa | 0V | 00:00:00 | 00:00:00 | 00:00:00 | |
| SP9KGR-15 | 2026-09-02 11:48:00 | 50.04797 | 21.21841 | 72° | 64km/h | 10939m | 2.3m/s | 0°C | 0% | 0hPa | 0V | 00:00:00 | 00:00:00 | 00:00:00 | |
| MIELECB | 2026-09-02 11:47:58 | 50.04785 | 21.21790 | 71° | 71km/h | 10933m | 4.2m/s | 0°C | 0% | 0hPa | 0V | 00:00:00 | 00:00:00 | 00:00:00 | |
| MIELECB | 2026-09-02 11:47:52 | 50.04751 | 21.21642 | 70° | 68km/h | 10906m | 3.8m/s | 0°C | 0% | 0hPa | 0V | 00:00:00 | 00:00:00 | 00:00:00 | |
| MIELECB | 2026-09-02 11:47:47 | 50.04721 | 21.21519 | 74° | 62km/h | 10885m | 6.4m/s | 0°C | 0% | 0hPa | 0V | 00:00:00 | 00:00:00 | 00:00:00 | |
| SQ9PSP-11 | 2026-09-02 11:47:46 | 50.04716 | 21.21495 | 76° | 64km/h | 10881m | 3.5m/s | 0°C | 0% | 0hPa | 0V | 00:00:00 | 00:00:00 | 00:00:00 | |
| AKAW68 | 2026-09-02 11:47:43 | 50.04700 | 21.21420 | 67° | 66km/h | 10868m | 5.7m/s | 0°C | 0% | 0hPa | 0V | 00:00:00 | 00:00:00 | 00:00:00 | |
| AKAW682 | 2026-09-02 11:47:42 | 50.04693 | 21.21397 | 65° | 62km/h | 10863m | 4.4m/s | 0°C | 0% | 0hPa | 0V | 00:00:00 | 00:00:00 | 00:00:00 | |
| MIELECB | 2026-09-02 11:47:41 | 50.04686 | 21.21374 | 64° | 64km/h | 10859m | 4.3m/s | 0°C | 0% | 0hPa | 0V | 00:00:00 | 00:00:00 | 00:00:00 | |
| SP9KGR-15 | 2026-09-02 11:47:40 | 50.04678 | 21.21351 | 64° | 66km/h | 10855m | 4.8m/s | 0°C | 0% | 0hPa | 0V | 00:00:00 | 00:00:00 | 00:00:00 | |
| MIELECB | 2026-09-02 11:47:36 | 50.04650 | 21.21256 | 68° | 66km/h | 10839m | 4.4m/s | 0°C | 0% | 0hPa | 0V | 00:00:00 | 00:00:00 | 00:00:00 | |
| SQ9EZE-12 | 2026-09-02 11:47:34 | 50.04637 | 21.21206 | 72° | 68km/h | 10829m | 3.7m/s | 0°C | 0% | 0hPa | 0V | 00:00:00 | 00:00:00 | 00:00:00 | |
| SQ9PSP-11 | 2026-09-02 11:47:31 | 50.04621 | 21.21132 | 72° | 68km/h | 10817m | 6.3m/s | 0°C | 0% | 0hPa | 0V | 00:00:00 | 00:00:00 | 00:00:00 | |
| MIELECB | 2026-09-02 11:47:30 | 50.04615 | 21.21106 | 70° | 71km/h | 10813m | 4.8m/s | 0°C | 0% | 0hPa | 0V | 00:00:00 | 00:00:00 | 00:00:00 | |
| MIELECB | 2026-09-02 11:47:25 | 50.04582 | 21.20979 | 67° | 66km/h | 10792m | 5.6m/s | 0°C | 0% | 0hPa | 0V | 00:00:00 | 00:00:00 | 00:00:00 | |
| AKAW682 | 2026-09-02 11:47:23 | 50.04560 | 21.20911 | 67° | 68km/h | 10779m | 4.0m/s | 0°C | 0% | 0hPa | 0V | 00:00:00 | 00:00:00 | 00:00:00 | |
| MIELECB | 2026-09-02 11:47:19 | 50.04539 | 21.20833 | 70° | 71km/h | 10766m | 5.4m/s | 0°C | 0% | 0hPa | 0V | 00:00:00 | 00:00:00 | 00:00:00 | |
| SQ9PSP-11 | 2026-09-02 11:47:16 | 50.04521 | 21.20761 | 71° | 66km/h | 10751m | 5.6m/s | 0°C | 0% | 0hPa | 0V | 00:00:00 | 00:00:00 | 00:00:00 | |
| MIELECB | 2026-09-02 11:47:14 | 50.04509 | 21.20713 | 69° | 64km/h | 10742m | 4.5m/s | 0°C | 0% | 0hPa | 0V | 00:00:00 | 00:00:00 | 00:00:00 | |
| SP9KGR-15 | 2026-09-02 11:47:07 | 50.04457 | 21.20549 | 65° | 62km/h | 10713m | 5.0m/s | 0°C | 0% | 0hPa | 0V | 00:00:00 | 00:00:00 | 00:00:00 | |
| AKAW682 | 2026-09-02 11:47:02 | 50.04414 | 21.20407 | 70° | 68km/h | 10684m | 4.4m/s | 0°C | 0% | 0hPa | 0V | 00:00:00 | 00:00:00 | 00:00:00 | |
| SQ9PSP-11 | 2026-09-02 11:47:01 | 50.04414 | 21.20407 | 70° | 68km/h | 10684m | 4.4m/s | 0°C | 0% | 0hPa | 0V | 00:00:00 | 00:00:00 | 00:00:00 | |
| MIELECB | 2026-09-02 11:46:58 | 50.04396 | 21.20335 | 69° | 68km/h | 10670m | 6.1m/s | 0°C | 0% | 0hPa | 0V | 00:00:00 | 00:00:00 | 00:00:00 | |
| SQ9EZE-12 | 2026-09-02 11:46:53 | 50.04364 | 21.20214 | 70° | 69km/h | 10648m | 3.9m/s | 0°C | 0% | 0hPa | 0V | 00:00:00 | 00:00:00 | 00:00:00 | |
| MIELECB | 2026-09-02 11:46:52 | 50.04358 | 21.20189 | 71° | 66km/h | 10645m | 4.6m/s | 0°C | 0% | 0hPa | 0V | 00:00:00 | 00:00:00 | 00:00:00 | |
| SP9KGR-15 | 2026-09-02 11:46:51 | 50.04352 | 21.20165 | 72° | 64km/h | 10640m | 5.7m/s | 0°C | 0% | 0hPa | 0V | 00:00:00 | 00:00:00 | 00:00:00 | |
| MIELECB | 2026-09-02 11:46:47 | 50.04328 | 21.20070 | 68° | 69km/h | 10623m | 4.9m/s | 0°C | 0% | 0hPa | 0V | 00:00:00 | 00:00:00 | 00:00:00 | |
| SQ9PSP-11 | 2026-09-02 11:46:45 | 50.04317 | 21.20021 | 73° | 66km/h | 10615m | 4.2m/s | 0°C | 0% | 0hPa | 0V | 00:00:00 | 00:00:00 | 00:00:00 | |
| AKAW682 | 2026-09-02 11:46:41 | 50.04297 | 21.19922 | 70° | 60km/h | 10595m | 4.0m/s | 0°C | 0% | 0hPa | 0V | 00:00:00 | 00:00:00 | 00:00:00 | |
| MIELECB | 2026-09-02 11:46:36 | 50.04262 | 21.19808 | 65° | 62km/h | 10575m | 6.2m/s | 0°C | 0% | 0hPa | 0V | 00:00:00 | 00:00:00 | 00:00:00 | |
| SQ9EZE-12 | 2026-09-02 11:46:34 | 50.04251 | 21.19764 | 75° | 60km/h | 10566m | 5.6m/s | 0°C | 0% | 0hPa | 0V | 00:00:00 | 00:00:00 | 00:00:00 | |
| MIELECB | 2026-09-02 11:46:30 | 50.04234 | 21.19668 | 71° | 62km/h | 10547m | 5.6m/s | 0°C | 0% | 0hPa | 0V | 00:00:00 | 00:00:00 | 00:00:00 | |
| SQ9PSP-11 | 2026-09-02 11:46:29 | 50.04227 | 21.19645 | 69° | 64km/h | 10542m | 3.4m/s | 0°C | 0% | 0hPa | 0V | 00:00:00 | 00:00:00 | 00:00:00 | |
| MIELECB | 2026-09-02 11:46:25 | 50.04203 | 21.19544 | 69° | 66km/h | 10524m | 4.2m/s | 0°C | 0% | 0hPa | 0V | 00:00:00 | 00:00:00 | 00:00:00 | |
| AKAW682 | 2026-09-02 11:46:21 | 50.04174 | 21.19447 | 67° | 69km/h | 10506m | 4.9m/s | 0°C | 0% | 0hPa | 0V | 00:00:00 | 00:00:00 | 00:00:00 | |
| MIELECB | 2026-09-02 11:46:20 | 50.04162 | 21.19400 | 70° | 58km/h | 10499m | 3.3m/s | 0°C | 0% | 0hPa | 0V | 00:00:00 | 00:00:00 | 00:00:00 | |
| SQ9EZE-12 | 2026-09-02 11:46:17 | 50.04151 | 21.19354 | 73° | 66km/h | 10490m | 6.1m/s | 0°C | 0% | 0hPa | 0V | 00:00:00 | 00:00:00 | 00:00:00 | |
| MIELECB | 2026-09-02 11:46:14 | 50.04134 | 21.19279 | 71° | 69km/h | 10476m | 5.1m/s | 0°C | 0% | 0hPa | 0V | 00:00:00 | 00:00:00 | 00:00:00 | |
| MIELECB | 2026-09-02 11:46:08 | 50.04091 | 21.19130 | 64° | 71km/h | 10449m | 3.8m/s | 0°C | 0% | 0hPa | 0V | 00:00:00 | 00:00:00 | 00:00:00 | |
| SP9KGR-15 | 2026-09-02 11:46:05 | 50.04069 | 21.19059 | 69° | 62km/h | 10437m | 5.9m/s | 0°C | 0% | 0hPa | 0V | 00:00:00 | 00:00:00 | 00:00:00 | |
| MIELECB | 2026-09-02 11:46:03 | 50.04056 | 21.19011 | 68° | 68km/h | 10427m | 3.8m/s | 0°C | 0% | 0hPa | 0V | 00:00:00 | 00:00:00 | 00:00:00 | |
| SQ9EZE-12 | 2026-09-02 11:46:02 | 50.04050 | 21.18986 | 69° | 66km/h | 10423m | 4.9m/s | 0°C | 0% | 0hPa | 0V | 00:00:00 | 00:00:00 | 00:00:00 | |
| AKAW68 | 2026-09-02 11:46:00 | 50.04036 | 21.18938 | 67° | 69km/h | 10413m | 5.9m/s | 0°C | 0% | 0hPa | 0V | 00:00:00 | 00:00:00 | 00:00:00 | |
| SQ9PSP-11 | 2026-09-02 11:45:59 | 50.04029 | 21.18913 | 64° | 73km/h | 10408m | 3.2m/s | 0°C | 0% | 0hPa | 0V | 00:00:00 | 00:00:00 | 00:00:00 | |
| MIELECB | 2026-09-02 11:45:57 | 50.04011 | 21.18864 | 60° | 68km/h | 10400m | 3.6m/s | 0°C | 0% | 0hPa | 0V | 00:00:00 | 00:00:00 | 00:00:00 | |
| MIELECB | 2026-09-02 11:45:51 | 50.03960 | 21.18719 | 66° | 77km/h | 10371m | 5.1m/s | 0°C | 0% | 0hPa | 0V | 00:00:00 | 00:00:00 | 00:00:00 | |
| SQ9EZE-12 | 2026-09-02 11:45:47 | 50.03925 | 21.18617 | 57° | 68km/h | 10355m | 5.9m/s | 0°C | 0% | 0hPa | 0V | 00:00:00 | 00:00:00 | 00:00:00 | |
| MIELECB | 2026-09-02 11:45:45 | 50.03907 | 21.18573 | 64° | 64km/h | 10346m | 3.9m/s | 0°C | 0% | 0hPa | 0V | 00:00:00 | 00:00:00 | 00:00:00 | |
| SQ9PSP-11 | 2026-09-02 11:45:44 | 50.03899 | 21.18549 | 63° | 69km/h | 10341m | 6.6m/s | 0°C | 0% | 0hPa | 0V | 00:00:00 | 00:00:00 | 00:00:00 | |
| SP9SOS | 2026-09-02 11:45:42 | 50.03881 | 21.18501 | 61° | 71km/h | 10333m | 3.4m/s | 0°C | 0% | 0hPa | 0V | 00:00:00 | 00:00:00 | 00:00:00 | |
| MIELECB | 2026-09-02 11:45:40 | 50.03854 | 21.18431 | 62° | 71km/h | 10320m | 5.2m/s | 0°C | 0% | 0hPa | 0V | 00:00:00 | 00:00:00 | 00:00:00 | |
| AKAW68 | 2026-09-02 11:45:39 | 50.03854 | 21.18431 | 62° | 71km/h | 10320m | 5.2m/s | 0°C | 0% | 0hPa | 0V | 00:00:00 | 00:00:00 | 00:00:00 | |
| SQ9EZE-12 | 2026-09-02 11:45:31 | 50.03785 | 21.18242 | 61° | 64km/h | 10287m | 5.7m/s | 0°C | 0% | 0hPa | 0V | 00:00:00 | 00:00:00 | 00:00:00 | |
| MIELECB | 2026-09-02 11:45:29 | 50.03758 | 21.18171 | 61° | 73km/h | 10275m | 3.5m/s | 0°C | 0% | 0hPa | 0V | 00:00:00 | 00:00:00 | 00:00:00 | |
| MIELECB | 2026-09-02 11:45:22 | 50.03707 | 21.18030 | 63° | 64km/h | 10248m | 6.0m/s | 0°C | 0% | 0hPa | 0V | 00:00:00 | 00:00:00 | 00:00:00 | |
| AKAW68 | 2026-09-02 11:45:19 | 50.03681 | 21.17965 | 55° | 73km/h | 10235m | 5.7m/s | 0°C | 0% | 0hPa | 0V | 00:00:00 | 00:00:00 | 00:00:00 | |
| SP9KGR-15 | 2026-09-02 11:45:18 | 50.03651 | 21.17897 | 61° | 68km/h | 10219m | 5.9m/s | 0°C | 0% | 0hPa | 0V | 00:00:00 | 00:00:00 | 00:00:00 | |
| SQ9EZE-12 | 2026-09-02 11:45:16 | 50.03642 | 21.17874 | 56° | 68km/h | 10214m | 6.0m/s | 0°C | 0% | 0hPa | 0V | 00:00:00 | 00:00:00 | 00:00:00 | |
| SQ9PSP-11 | 2026-09-02 11:45:12 | 50.03616 | 21.17809 | 63° | 62km/h | 10198m | 4.6m/s | 0°C | 0% | 0hPa | 0V | 00:00:00 | 00:00:00 | 00:00:00 | |
| MIELECB | 2026-09-02 11:45:11 | 50.03608 | 21.17788 | 60° | 62km/h | 10195m | 3.3m/s | 0°C | 0% | 0hPa | 0V | 00:00:00 | 00:00:00 | 00:00:00 | |
| MIELECB | 2026-09-02 11:45:05 | 50.03556 | 21.17657 | 58° | 62km/h | 10167m | 3.3m/s | 0°C | 0% | 0hPa | 0V | 00:00:00 | 00:00:00 | 00:00:00 | |
| MIELECB | 2026-09-02 11:45:00 | 50.03518 | 21.17556 | 53° | 64km/h | 10143m | 6.7m/s | 0°C | 0% | 0hPa | 0V | 00:00:00 | 00:00:00 | 00:00:00 | |
| SQ9EZE-12 | 2026-09-02 11:44:59 | 50.03507 | 21.17536 | 50° | 68km/h | 10138m | 3.8m/s | 0°C | 0% | 0hPa | 0V | 00:00:00 | 00:00:00 | 00:00:00 | |
| AKAW68 | 2026-09-02 11:44:58 | 50.03495 | 21.17516 | 49° | 71km/h | 10134m | 4.4m/s | 0°C | 0% | 0hPa | 0V | 00:00:00 | 00:00:00 | 00:00:00 | |
| SP9KGR-15 | 2026-09-02 11:44:57 | 50.03475 | 21.17474 | 60° | 62km/h | 10124m | 4.9m/s | 0°C | 0% | 0hPa | 0V | 00:00:00 | 00:00:00 | 00:00:00 | |
| SQ9PSP-11 | 2026-09-02 11:44:56 | 50.03475 | 21.17474 | 60° | 62km/h | 10124m | 4.9m/s | 0°C | 0% | 0hPa | 0V | 00:00:00 | 00:00:00 | 00:00:00 | |
| MIELECB | 2026-09-02 11:44:54 | 50.03461 | 21.17433 | 63° | 57km/h | 10114m | 5.8m/s | 0°C | 0% | 0hPa | 0V | 00:00:00 | 00:00:00 | 00:00:00 | |
| MIELECB | 2026-09-02 11:44:48 | 50.03418 | 21.17327 | 62° | 68km/h | 10078m | 8.7m/s | 0°C | 0% | 0hPa | 0V | 00:00:00 | 00:00:00 | 00:00:00 | |
| SQ9EZE-12 | 2026-09-02 11:44:45 | 50.03379 | 21.17229 | 56° | 60km/h | 10052m | 5.5m/s | 0°C | 0% | 0hPa | 0V | 00:00:00 | 00:00:00 | 00:00:00 | |
| MIELECB | 2026-09-02 11:44:42 | 50.03364 | 21.17191 | 64° | 57km/h | 10040m | 7.2m/s | 0°C | 0% | 0hPa | 0V | 00:00:00 | 00:00:00 | 00:00:00 | |
| SQ9PSP-11 | 2026-09-02 11:44:41 | 50.03357 | 21.17171 | 62° | 60km/h | 10033m | 7.2m/s | 0°C | 0% | 0hPa | 0V | 00:00:00 | 00:00:00 | 00:00:00 | |
| SP9KGR-15 | 2026-09-02 11:44:40 | 50.03349 | 21.17150 | 59° | 62km/h | 10028m | 3.1m/s | 0°C | 0% | 0hPa | 0V | 00:00:00 | 00:00:00 | 00:00:00 | |
| AKAW682 | 2026-09-02 11:44:38 | 50.03334 | 21.17111 | 59° | 53km/h | 10016m | 5.9m/s | 0°C | 0% | 0hPa | 0V | 00:00:00 | 00:00:00 | 00:00:00 | |
| AKAW68 | 2026-09-02 11:44:37 | 50.03326 | 21.17093 | 55° | 55km/h | 10010m | 5.4m/s | 0°C | 0% | 0hPa | 0V | 00:00:00 | 00:00:00 | 00:00:00 | |
| MIELECB | 2026-09-02 11:44:36 | 50.03317 | 21.17076 | 51° | 58km/h | 10005m | 4.5m/s | 0°C | 0% | 0hPa | 0V | 00:00:00 | 00:00:00 | 00:00:00 | |
| MIELECB | 2026-09-02 11:44:31 | 50.03279 | 21.16955 | 71° | 69km/h | 9978m | 4.7m/s | 0°C | 0% | 0hPa | 0V | 00:00:00 | 00:00:00 | 00:00:00 | |
| SQ9EZE-12 | 2026-09-02 11:44:29 | 50.03267 | 21.16907 | 66° | 60km/h | 9967m | 8.8m/s | 0°C | 0% | 0hPa | 0V | 00:00:00 | 00:00:00 | 00:00:00 | |
| SQ9PSP-11 | 2026-09-02 11:44:26 | 50.03243 | 21.16855 | 55° | 49km/h | 9948m | 5.0m/s | 0°C | 0% | 0hPa | 0V | 00:00:00 | 00:00:00 | 00:00:00 | |
| SP9KGR-15 | 2026-09-02 11:44:23 | 50.03222 | 21.16795 | 66° | 73km/h | 9936m | 5.3m/s | 0°C | 0% | 0hPa | 0V | 00:00:00 | 00:00:00 | 00:00:00 | |
| MIELECB | 2026-09-02 11:44:20 | 50.03201 | 21.16715 | 65° | 64km/h | 9920m | 5.2m/s | 0°C | 0% | 0hPa | 0V | 00:00:00 | 00:00:00 | 00:00:00 | |
| AKAW682 | 2026-09-02 11:44:18 | 50.03187 | 21.16675 | 56° | 51km/h | 9907m | 5.4m/s | 0°C | 0% | 0hPa | 0V | 00:00:00 | 00:00:00 | 00:00:00 | |
| AKAW68 | 2026-09-02 11:44:17 | 50.03179 | 21.16658 | 51° | 57km/h | 9901m | 5.0m/s | 0°C | 0% | 0hPa | 0V | 00:00:00 | 00:00:00 | 00:00:00 | |
| MIELECB | 2026-09-02 11:44:15 | 50.03154 | 21.16598 | 65° | 64km/h | 9887m | 5.3m/s | 0°C | 0% | 0hPa | 0V | 00:00:00 | 00:00:00 | 00:00:00 | |
| SQ9EZE-12 | 2026-09-02 11:44:14 | 50.03147 | 21.16575 | 70° | 64km/h | 9881m | 7.1m/s | 0°C | 0% | 0hPa | 0V | 00:00:00 | 00:00:00 | 00:00:00 | |
| SQ9PSP-11 | 2026-09-02 11:44:10 | 50.03126 | 21.16505 | 62° | 64km/h | 9866m | 4.1m/s | 0°C | 0% | 0hPa | 0V | 00:00:00 | 00:00:00 | 00:00:00 | |
| MIELECB | 2026-09-02 11:44:08 | 50.03113 | 21.16462 | 68° | 62km/h | 9856m | 5.4m/s | 0°C | 0% | 0hPa | 0V | 00:00:00 | 00:00:00 | 00:00:00 | |
| SP9SOS | 2026-09-02 11:44:04 | 50.03088 | 21.16375 | 60° | 60km/h | 9838m | 4.0m/s | 0°C | 0% | 0hPa | 0V | 00:00:00 | 00:00:00 | 00:00:00 | |
| MIELECB | 2026-09-02 11:44:02 | 50.03072 | 21.16334 | 63° | 58km/h | 9829m | 6.4m/s | 0°C | 0% | 0hPa | 0V | 00:00:00 | 00:00:00 | 00:00:00 | |
| MIELECB | 2026-09-02 11:43:57 | 50.03049 | 21.16227 | 69° | 55km/h | 9798m | 5.4m/s | 0°C | 0% | 0hPa | 0V | 00:00:00 | 00:00:00 | 00:00:00 | |
| AKAW68 | 2026-09-02 11:43:56 | 50.03043 | 21.16208 | 66° | 57km/h | 9792m | 6.6m/s | 0°C | 0% | 0hPa | 0V | 00:00:00 | 00:00:00 | 00:00:00 | |
| SQ9PSP-11 | 2026-09-02 11:43:55 | 50.03037 | 21.16186 | 70° | 60km/h | 9786m | 5.3m/s | 0°C | 0% | 0hPa | 0V | 00:00:00 | 00:00:00 | 00:00:00 | |
| MIELECB | 2026-09-02 11:43:51 | 50.03014 | 21.16106 | 66° | 46km/h | 9760m | 4.2m/s | 0°C | 0% | 0hPa | 0V | 00:00:00 | 00:00:00 | 00:00:00 | |
| MIELECB | 2026-09-02 11:43:45 | 50.02981 | 21.15989 | 73° | 66km/h | 9727m | 4.0m/s | 0°C | 0% | 0hPa | 0V | 00:00:00 | 00:00:00 | 00:00:00 | |
| SQ9EZE-12 | 2026-09-02 11:43:42 | 50.02963 | 21.15925 | 62° | 55km/h | 9707m | 8.1m/s | 0°C | 0% | 0hPa | 0V | 00:00:00 | 00:00:00 | 00:00:00 | |
| SP9KGR-15 | 2026-09-02 11:43:40 | 50.02951 | 21.15885 | 66° | 62km/h | 9694m | 7.1m/s | 0°C | 0% | 0hPa | 0V | 00:00:00 | 00:00:00 | 00:00:00 | |
| SQ9PSP-11 | 2026-09-02 11:43:39 | 50.02945 | 21.15862 | 72° | 60km/h | 9687m | 6.1m/s | 0°C | 0% | 0hPa | 0V | 00:00:00 | 00:00:00 | 00:00:00 | |
| AKAW682 | 2026-09-02 11:43:37 | 50.02936 | 21.15820 | 74° | 55km/h | 9676m | 6.3m/s | 0°C | 0% | 0hPa | 0V | 00:00:00 | 00:00:00 | 00:00:00 | |
| AKAW68 | 2026-09-02 11:43:36 | 50.02932 | 21.15800 | 76° | 53km/h | 9669m | 4.9m/s | 0°C | 0% | 0hPa | 0V | 00:00:00 | 00:00:00 | 00:00:00 | |
| MIELECB | 2026-09-02 11:43:34 | 50.02922 | 21.15761 | 61° | 55km/h | 9658m | 3.5m/s | 0°C | 0% | 0hPa | 0V | 00:00:00 | 00:00:00 | 00:00:00 | |
| MIELECB | 2026-09-02 11:43:28 | 50.02888 | 21.15631 | 76° | 58km/h | 9620m | 5.9m/s | 0°C | 0% | 0hPa | 0V | 00:00:00 | 00:00:00 | 00:00:00 | |
| SQ9EZE-12 | 2026-09-02 11:43:26 | 50.02879 | 21.15589 | 66° | 55km/h | 9608m | 7.9m/s | 0°C | 0% | 0hPa | 0V | 00:00:00 | 00:00:00 | 00:00:00 | |
| SQ9PSP-11 | 2026-09-02 11:43:24 | 50.02864 | 21.15552 | 60° | 55km/h | 9596m | 9.1m/s | 0°C | 0% | 0hPa | 0V | 00:00:00 | 00:00:00 | 00:00:00 | |
| MIELECB | 2026-09-02 11:43:23 | 50.02858 | 21.15534 | 68° | 53km/h | 9589m | 5.7m/s | 0°C | 0% | 0hPa | 0V | 00:00:00 | 00:00:00 | 00:00:00 | |
| SP9KGR-15 | 2026-09-02 11:43:21 | 50.02848 | 21.15492 | 71° | 57km/h | 9575m | 7.2m/s | 0°C | 0% | 0hPa | 0V | 00:00:00 | 00:00:00 | 00:00:00 | |
| MIELECB | 2026-09-02 11:43:17 | 50.02839 | 21.15414 | 93° | 49km/h | 9550m | 8.6m/s | 0°C | 0% | 0hPa | 0V | 00:00:00 | 00:00:00 | 00:00:00 | |
| AKAW682 | 2026-09-02 11:43:16 | 50.02839 | 21.15394 | 91° | 51km/h | 9543m | 5.3m/s | 0°C | 0% | 0hPa | 0V | 00:00:00 | 00:00:00 | 00:00:00 | |
| AKAW68 | 2026-09-02 11:43:14 | 50.02835 | 21.15355 | 75° | 53km/h | 9534m | 8.0m/s | 0°C | 0% | 0hPa | 0V | 00:00:00 | 00:00:00 | 00:00:00 | |
| MIELECB | 2026-09-02 11:43:12 | 50.02817 | 21.15294 | 60° | 58km/h | 9514m | 3.9m/s | 0°C | 0% | 0hPa | 0V | 00:00:00 | 00:00:00 | 00:00:00 | |
| SQ9EZE-12 | 2026-09-02 11:43:10 | 50.02810 | 21.15273 | 65° | 58km/h | 9510m | 4.2m/s | 0°C | 0% | 0hPa | 0V | 00:00:00 | 00:00:00 | 00:00:00 | |
| SQ9PSP-11 | 2026-09-02 11:43:08 | 50.02799 | 21.15232 | 81° | 55km/h | 9500m | 4.2m/s | 0°C | 0% | 0hPa | 0V | 00:00:00 | 00:00:00 | 00:00:00 | |
| SP9KGR-15 | 2026-09-02 11:43:05 | 50.02798 | 21.15179 | 93° | 40km/h | 9480m | 5.4m/s | 0°C | 0% | 0hPa | 0V | 00:00:00 | 00:00:00 | 00:00:00 | |
| SQ9EZE-12 | 2026-09-02 11:42:55 | 50.02766 | 21.14994 | 77° | 46km/h | 9419m | 4.9m/s | 0°C | 0% | 0hPa | 0V | 00:00:00 | 00:00:00 | 00:00:00 | |
| AKAW68 | 2026-09-02 11:42:54 | 50.02763 | 21.14976 | 72° | 51km/h | 9413m | 5.3m/s | 0°C | 0% | 0hPa | 0V | 00:00:00 | 00:00:00 | 00:00:00 | |
| SQ9PSP-11 | 2026-09-02 11:42:53 | 50.02753 | 21.14935 | 70° | 60km/h | 9402m | 4.8m/s | 0°C | 0% | 0hPa | 0V | 00:00:00 | 00:00:00 | 00:00:00 | |
| SP9KGR-15 | 2026-09-02 11:42:49 | 50.02738 | 21.14873 | 80° | 51km/h | 9382m | 4.7m/s | 0°C | 0% | 0hPa | 0V | 00:00:00 | 00:00:00 | 00:00:00 | |
| MIELECB | 2026-09-02 11:42:48 | 50.02736 | 21.14854 | 84° | 46km/h | 9376m | 8.3m/s | 0°C | 0% | 0hPa | 0V | 00:00:00 | 00:00:00 | 00:00:00 | |
| MIELECB | 2026-09-02 11:42:42 | 50.02729 | 21.14736 | 72° | 51km/h | 9345m | 6.7m/s | 0°C | 0% | 0hPa | 0V | 00:00:00 | 00:00:00 | 00:00:00 | |
| SQ9EZE-12 | 2026-09-02 11:42:40 | 50.02720 | 21.14705 | 65° | 37km/h | 9335m | 4.0m/s | 0°C | 0% | 0hPa | 0V | 00:00:00 | 00:00:00 | 00:00:00 | |
| MIELECB | 2026-09-02 11:42:37 | 50.02714 | 21.14658 | 88° | 51km/h | 9322m | 5.3m/s | 0°C | 0% | 0hPa | 0V | 00:00:00 | 00:00:00 | 00:00:00 | |
| AKAW68 | 2026-09-02 11:42:34 | 50.02710 | 21.14586 | 85° | 62km/h | 9311m | 3.4m/s | 0°C | 0% | 0hPa | 0V | 00:00:00 | 00:00:00 | 00:00:00 | |
| SP9KGR-15 | 2026-09-02 11:42:32 | 50.02706 | 21.14544 | 79° | 49km/h | 9302m | 6.3m/s | 0°C | 0% | 0hPa | 0V | 00:00:00 | 00:00:00 | 00:00:00 | |
| MIELECB | 2026-09-02 11:42:31 | 50.02702 | 21.14527 | 69° | 46km/h | 9295m | 7.9m/s | 0°C | 0% | 0hPa | 0V | 00:00:00 | 00:00:00 | 00:00:00 | |
| MIELECB | 2026-09-02 11:42:26 | 50.02678 | 21.14444 | 75° | 44km/h | 9264m | 5.9m/s | 0°C | 0% | 0hPa | 0V | 00:00:00 | 00:00:00 | 00:00:00 | |
| SQ9EZE-12 | 2026-09-02 11:42:23 | 50.02673 | 21.14390 | 83° | 55km/h | 9246m | 3.5m/s | 0°C | 0% | 0hPa | 0V | 00:00:00 | 00:00:00 | 00:00:00 | |
| MIELECB | 2026-09-02 11:42:21 | 50.02668 | 21.14346 | 81° | 55km/h | 9235m | 5.6m/s | 0°C | 0% | 0hPa | 0V | 00:00:00 | 00:00:00 | 00:00:00 | |
| MIELECB | 2026-09-02 11:42:15 | 50.02646 | 21.14247 | 75° | 55km/h | 9205m | 3.1m/s | 0°C | 0% | 0hPa | 0V | 00:00:00 | 00:00:00 | 00:00:00 | |
| AKAW68 | 2026-09-02 11:42:14 | 50.02643 | 21.14227 | 79° | 55km/h | 9199m | 8.1m/s | 0°C | 0% | 0hPa | 0V | 00:00:00 | 00:00:00 | 00:00:00 | |
| AKAW682 | 2026-09-02 11:42:13 | 50.02640 | 21.14207 | 85° | 47km/h | 9193m | 4.9m/s | 0°C | 0% | 0hPa | 0V | 00:00:00 | 00:00:00 | 00:00:00 | |
| SP9SOS | 2026-09-02 11:42:11 | 50.02639 | 21.14170 | 89° | 46km/h | 9182m | 7.5m/s | 0°C | 0% | 0hPa | 0V | 00:00:00 | 00:00:00 | 00:00:00 | |
| MIELECB | 2026-09-02 11:42:10 | 50.02638 | 21.14151 | 86° | 51km/h | 9176m | 5.4m/s | 0°C | 0% | 0hPa | 0V | 00:00:00 | 00:00:00 | 00:00:00 | |
| SP9KGR-15 | 2026-09-02 11:42:09 | 50.02637 | 21.14132 | 80° | 49km/h | 9171m | 4.9m/s | 0°C | 0% | 0hPa | 0V | 00:00:00 | 00:00:00 | 00:00:00 | |
| SQ9EZE-12 | 2026-09-02 11:42:08 | 50.02634 | 21.14113 | 77° | 46km/h | 9165m | 7.5m/s | 0°C | 0% | 0hPa | 0V | 00:00:00 | 00:00:00 | 00:00:00 | |
| SQ9PSP-11 | 2026-09-02 11:42:06 | 50.02626 | 21.14083 | 61° | 42km/h | 9154m | 4.4m/s | 0°C | 0% | 0hPa | 0V | 00:00:00 | 00:00:00 | 00:00:00 | |
| MIELECB | 2026-09-02 11:42:04 | 50.02616 | 21.14049 | 75° | 55km/h | 9143m | 5.4m/s | 0°C | 0% | 0hPa | 0V | 00:00:00 | 00:00:00 | 00:00:00 | |
| MIELECB | 2026-09-02 11:41:59 | 50.02601 | 21.13944 | 73° | 49km/h | 9117m | 6.6m/s | 0°C | 0% | 0hPa | 0V | 00:00:00 | 00:00:00 | 00:00:00 | |
| SP9KGR-15 | 2026-09-02 11:41:54 | 50.02588 | 21.13848 | 86° | 46km/h | 9083m | 9.2m/s | 0°C | 0% | 0hPa | 0V | 00:00:00 | 00:00:00 | 00:00:00 | |
| MIELECB | 2026-09-02 11:41:53 | 50.02587 | 21.13830 | 82° | 47km/h | 9076m | 4.3m/s | 0°C | 0% | 0hPa | 0V | 00:00:00 | 00:00:00 | 00:00:00 | |
| SQ9EZE-12 | 2026-09-02 11:41:52 | 50.02584 | 21.13812 | 78° | 47km/h | 9070m | 6.6m/s | 0°C | 0% | 0hPa | 0V | 00:00:00 | 00:00:00 | 00:00:00 | |
| SQ9PSP-11 | 2026-09-02 11:41:51 | 50.02581 | 21.13793 | 75° | 55km/h | 9064m | 5.5m/s | 0°C | 0% | 0hPa | 0V | 00:00:00 | 00:00:00 | 00:00:00 | |
| MIELECB | 2026-09-02 11:41:47 | 50.02562 | 21.13706 | 67° | 57km/h | 9047m | 2.1m/s | 0°C | 0% | 0hPa | 0V | 00:00:00 | 00:00:00 | 00:00:00 | |
| MIELECB | 2026-09-02 11:41:42 | 50.02543 | 21.13595 | 87° | 62km/h | 9020m | 7.2m/s | 0°C | 0% | 0hPa | 0V | 00:00:00 | 00:00:00 | 00:00:00 | |
| SP9SOS | 2026-09-02 11:41:41 | 50.02541 | 21.13572 | 85° | 60km/h | 9013m | 5.2m/s | 0°C | 0% | 0hPa | 0V | 00:00:00 | 00:00:00 | 00:00:00 | |
| SP9KGR-15 | 2026-09-02 11:41:38 | 50.02538 | 21.13508 | 85° | 46km/h | 8995m | 9.7m/s | 0°C | 0% | 0hPa | 0V | 00:00:00 | 00:00:00 | 00:00:00 | |
| SQ9EZE-12 | 2026-09-02 11:41:36 | 50.02532 | 21.13477 | 66° | 40km/h | 8984m | 5.8m/s | 0°C | 0% | 0hPa | 0V | 00:00:00 | 00:00:00 | 00:00:00 | |
| SQ9PSP-11 | 2026-09-02 11:41:35 | 50.02527 | 21.13462 | 62° | 46km/h | 8979m | 3.5m/s | 0°C | 0% | 0hPa | 0V | 00:00:00 | 00:00:00 | 00:00:00 | |
| AKAW68 | 2026-09-02 11:41:33 | 50.02517 | 21.13426 | 73° | 53km/h | 8971m | 5.5m/s | 0°C | 0% | 0hPa | 0V | 00:00:00 | 00:00:00 | 00:00:00 | |
| AKAW682 | 2026-09-02 11:41:32 | 50.02514 | 21.13405 | 88° | 55km/h | 8966m | 4.9m/s | 0°C | 0% | 0hPa | 0V | 00:00:00 | 00:00:00 | 00:00:00 | |
| MIELECB | 2026-09-02 11:41:30 | 50.02514 | 21.13358 | 91° | 62km/h | 8954m | 4.5m/s | 0°C | 0% | 0hPa | 0V | 00:00:00 | 00:00:00 | 00:00:00 | |
| MIELECB | 2026-09-02 11:41:24 | 50.02490 | 21.13251 | 72° | 49km/h | 8921m | 6.5m/s | 0°C | 0% | 0hPa | 0V | 00:00:00 | 00:00:00 | 00:00:00 | |
| SP9KGR-15 | 2026-09-02 11:41:23 | 50.02488 | 21.13232 | 83° | 51km/h | 8915m | 4.6m/s | 0°C | 0% | 0hPa | 0V | 00:00:00 | 00:00:00 | 00:00:00 | |
| SQ9PSP-11 | 2026-09-02 11:41:20 | 50.02484 | 21.13172 | 80° | 49km/h | 8899m | 4.7m/s | 0°C | 0% | 0hPa | 0V | 00:00:00 | 00:00:00 | 00:00:00 | |
| MIELECB | 2026-09-02 11:41:19 | 50.02481 | 21.13153 | 75° | 47km/h | 8894m | 4.9m/s | 0°C | 0% | 0hPa | 0V | 00:00:00 | 00:00:00 | 00:00:00 | |
| MIELECB | 2026-09-02 11:41:14 | 50.02465 | 21.13050 | 78° | 42km/h | 8858m | 3.6m/s | 0°C | 0% | 0hPa | 0V | 00:00:00 | 00:00:00 | 00:00:00 | |
| AKAW68 | 2026-09-02 11:41:13 | 50.02465 | 21.13050 | 78° | 42km/h | 8858m | 3.6m/s | 0°C | 0% | 0hPa | 0V | 00:00:00 | 00:00:00 | 00:00:00 | |
| AKAW682 | 2026-09-02 11:41:11 | 50.02461 | 21.13016 | 81° | 46km/h | 8847m | 5.4m/s | 0°C | 0% | 0hPa | 0V | 00:00:00 | 00:00:00 | 00:00:00 | |
| SP9SOS | 2026-09-02 11:41:07 | 50.02447 | 21.12918 | 76° | 53km/h | 8813m | 2.9m/s | 0°C | 0% | 0hPa | 0V | 00:00:00 | 00:00:00 | 00:00:00 | |
| SP9KGR-15 | 2026-09-02 11:41:05 | 50.02443 | 21.12898 | 72° | 53km/h | 8807m | 8.6m/s | 0°C | 0% | 0hPa | 0V | 00:00:00 | 00:00:00 | 00:00:00 | |
| SQ9PSP-11 | 2026-09-02 11:41:04 | 50.02438 | 21.12879 | 64° | 53km/h | 8800m | 4.2m/s | 0°C | 0% | 0hPa | 0V | 00:00:00 | 00:00:00 | 00:00:00 | |
| SQ9EZE-12 | 2026-09-02 11:41:00 | 50.02419 | 21.12799 | 79° | 51km/h | 8779m | 4.9m/s | 0°C | 0% | 0hPa | 0V | 00:00:00 | 00:00:00 | 00:00:00 | |
| MIELECB | 2026-09-02 11:40:57 | 50.02407 | 21.12744 | 63° | 46km/h | 8762m | 3.0m/s | 0°C | 0% | 0hPa | 0V | 00:00:00 | 00:00:00 | 00:00:00 | |
| AKAW68 | 2026-09-02 11:40:52 | 50.02399 | 21.12654 | 95° | 47km/h | 8736m | 4.3m/s | 0°C | 0% | 0hPa | 0V | 00:00:00 | 00:00:00 | 00:00:00 | |
| MIELECB | 2026-09-02 11:40:51 | 50.02399 | 21.12636 | 86° | 44km/h | 8731m | 3.9m/s | 0°C | 0% | 0hPa | 0V | 00:00:00 | 00:00:00 | 00:00:00 | |
| AKAW682 | 2026-09-02 11:40:50 | 50.02398 | 21.12619 | 82° | 44km/h | 8726m | 5.5m/s | 0°C | 0% | 0hPa | 0V | 00:00:00 | 00:00:00 | 00:00:00 | |
| SP9KGR-15 | 2026-09-02 11:40:49 | 50.02396 | 21.12601 | 80° | 47km/h | 8721m | 4.6m/s | 0°C | 0% | 0hPa | 0V | 00:00:00 | 00:00:00 | 00:00:00 | |
| SQ9PSP-11 | 2026-09-02 11:40:48 | 50.02393 | 21.12583 | 73° | 47km/h | 8714m | 8.4m/s | 0°C | 0% | 0hPa | 0V | 00:00:00 | 00:00:00 | 00:00:00 | |
| MIELECB | 2026-09-02 11:40:45 | 50.02380 | 21.12523 | 77° | 55km/h | 8694m | 4.6m/s | 0°C | 0% | 0hPa | 0V | 00:00:00 | 00:00:00 | 00:00:00 | |
| SQ9EZE-12 | 2026-09-02 11:40:43 | 50.02376 | 21.12483 | 85° | 51km/h | 8682m | 5.7m/s | 0°C | 0% | 0hPa | 0V | 00:00:00 | 00:00:00 | 00:00:00 | |
| MIELECB | 2026-09-02 11:40:39 | 50.02370 | 21.12402 | 89° | 53km/h | 8662m | 6.4m/s | 0°C | 0% | 0hPa | 0V | 00:00:00 | 00:00:00 | 00:00:00 | |
| SP9KGR-15 | 2026-09-02 11:40:33 | 50.02370 | 21.12291 | 84° | 42km/h | 8629m | 6.5m/s | 0°C | 0% | 0hPa | 0V | 00:00:00 | 00:00:00 | 00:00:00 | |
| AKAW68 | 2026-09-02 11:40:31 | 50.02368 | 21.12260 | 87° | 42km/h | 8616m | 4.7m/s | 0°C | 0% | 0hPa | 0V | 00:00:00 | 00:00:00 | 00:00:00 | |
| AKAW682 | 2026-09-02 11:40:28 | 50.02365 | 21.12203 | 81° | 55km/h | 8596m | 7.7m/s | 0°C | 0% | 0hPa | 0V | 00:00:00 | 00:00:00 | 00:00:00 | |
| SQ9EZE-12 | 2026-09-02 11:40:23 | 50.02358 | 21.12091 | 86° | 57km/h | 8570m | 7.0m/s | 0°C | 0% | 0hPa | 0V | 00:00:00 | 00:00:00 | 00:00:00 | |
| SQ9PSP-11 | 2026-09-02 11:40:18 | 50.02349 | 21.12006 | 83° | 46km/h | 8541m | 4.3m/s | 0°C | 0% | 0hPa | 0V | 00:00:00 | 00:00:00 | 00:00:00 | |
| SP9KGR-15 | 2026-09-02 11:40:17 | 50.02347 | 21.11987 | 87° | 51km/h | 8537m | 3.4m/s | 0°C | 0% | 0hPa | 0V | 00:00:00 | 00:00:00 | 00:00:00 | |
| AKAW68 | 2026-09-02 11:40:10 | 50.02342 | 21.11850 | 95° | 47km/h | 8501m | 7.3m/s | 0°C | 0% | 0hPa | 0V | 00:00:00 | 00:00:00 | 00:00:00 | |
| SP9SOS | 2026-09-02 11:40:08 | 50.02341 | 21.11808 | 84° | 60km/h | 8488m | 10.6m/s | 0°C | 0% | 0hPa | 0V | 00:00:00 | 00:00:00 | 00:00:00 | |
| AKAW682 | 2026-09-02 11:40:07 | 50.02339 | 21.11784 | 86° | 60km/h | 8481m | 4.9m/s | 0°C | 0% | 0hPa | 0V | 00:00:00 | 00:00:00 | 00:00:00 | |
| SQ9PSP-11 | 2026-09-02 11:40:02 | 50.02333 | 21.11683 | 89° | 51km/h | 8449m | 4.9m/s | 0°C | 0% | 0hPa | 0V | 00:00:00 | 00:00:00 | 00:00:00 | |
| MIELECB | 2026-09-02 11:39:51 | 50.02326 | 21.11457 | 91° | 53km/h | 8380m | 3.5m/s | 0°C | 0% | 0hPa | 0V | 00:00:00 | 00:00:00 | 00:00:00 | |
| AKAW68 | 2026-09-02 11:39:49 | 50.02328 | 21.11415 | 101° | 58km/h | 8367m | 5.1m/s | 0°C | 0% | 0hPa | 0V | 00:00:00 | 00:00:00 | 00:00:00 | |
| SQ9PSP-11 | 2026-09-02 11:39:47 | 50.02332 | 21.11367 | 91° | 60km/h | 8354m | 7.9m/s | 0°C | 0% | 0hPa | 0V | 00:00:00 | 00:00:00 | 00:00:00 | |
| MIELECB | 2026-09-02 11:39:46 | 50.02331 | 21.11344 | 89° | 55km/h | 8348m | 2.7m/s | 0°C | 0% | 0hPa | 0V | 00:00:00 | 00:00:00 | 00:00:00 | |
| AKAW682 | 2026-09-02 11:39:45 | 50.02330 | 21.11324 | 86° | 49km/h | 8343m | 8.4m/s | 0°C | 0% | 0hPa | 0V | 00:00:00 | 00:00:00 | 00:00:00 | |
| MIELECB | 2026-09-02 11:39:41 | 50.02332 | 21.11248 | 96° | 51km/h | 8315m | 4.8m/s | 0°C | 0% | 0hPa | 0V | 00:00:00 | 00:00:00 | 00:00:00 | |
| MIELECB | 2026-09-02 11:39:35 | 50.02328 | 21.11112 | 86° | 55km/h | 8282m | 4.1m/s | 0°C | 0% | 0hPa | 0V | 00:00:00 | 00:00:00 | 00:00:00 | |
| SP9SOS | 2026-09-02 11:39:33 | 50.02323 | 21.11067 | 83° | 58km/h | 8267m | 7.1m/s | 0°C | 0% | 0hPa | 0V | 00:00:00 | 00:00:00 | 00:00:00 | |
| SP9KGR-15 | 2026-09-02 11:39:31 | 50.02321 | 21.11025 | 89° | 51km/h | 8256m | 6.1m/s | 0°C | 0% | 0hPa | 0V | 00:00:00 | 00:00:00 | 00:00:00 | |
| AKAW68 | 2026-09-02 11:39:29 | 50.02321 | 21.10983 | 89° | 55km/h | 8245m | 4.1m/s | 0°C | 0% | 0hPa | 0V | 00:00:00 | 00:00:00 | 00:00:00 | |
| MIELECB | 2026-09-02 11:39:23 | 50.02319 | 21.10862 | 93° | 58km/h | 8207m | 4.6m/s | 0°C | 0% | 0hPa | 0V | 00:00:00 | 00:00:00 | 00:00:00 | |
| MIELECB | 2026-09-02 11:39:17 | 50.02321 | 21.10747 | 105° | 44km/h | 8170m | 3.8m/s | 0°C | 0% | 0hPa | 0V | 00:00:00 | 00:00:00 | 00:00:00 | |
| SQ9PSP-11 | 2026-09-02 11:39:16 | 50.02323 | 21.10730 | 105° | 42km/h | 8166m | 5.6m/s | 0°C | 0% | 0hPa | 0V | 00:00:00 | 00:00:00 | 00:00:00 | |
| SP9KGR-15 | 2026-09-02 11:39:15 | 50.02325 | 21.10714 | 97° | 44km/h | 8160m | 5.1m/s | 0°C | 0% | 0hPa | 0V | 00:00:00 | 00:00:00 | 00:00:00 | |
| MIELECB | 2026-09-02 11:39:12 | 50.02326 | 21.10651 | 92° | 58km/h | 8140m | 8.6m/s | 0°C | 0% | 0hPa | 0V | 00:00:00 | 00:00:00 | 00:00:00 | |
| AKAW68 | 2026-09-02 11:39:08 | 50.02321 | 21.10560 | 81° | 55km/h | 8108m | 6.3m/s | 0°C | 0% | 0hPa | 0V | 00:00:00 | 00:00:00 | 00:00:00 | |
| SP9SOS | 2026-09-02 11:39:07 | 50.02319 | 21.10539 | 83° | 51km/h | 8100m | 9.0m/s | 0°C | 0% | 0hPa | 0V | 00:00:00 | 00:00:00 | 00:00:00 | |
| MIELECB | 2026-09-02 11:39:06 | 50.02318 | 21.10518 | 92° | 53km/h | 8092m | 7.2m/s | 0°C | 0% | 0hPa | 0V | 00:00:00 | 00:00:00 | 00:00:00 | |
| AKAW682 | 2026-09-02 11:39:03 | 50.02326 | 21.10452 | 107° | 51km/h | 8076m | 2.2m/s | 0°C | 0% | 0hPa | 0V | 00:00:00 | 00:00:00 | 00:00:00 | |
| SQ9PSP-11 | 2026-09-02 11:39:01 | 50.02333 | 21.10413 | 104° | 51km/h | 8066m | 4.9m/s | 0°C | 0% | 0hPa | 0V | 00:00:00 | 00:00:00 | 00:00:00 | |
| SP9KGR-15 | 2026-09-02 11:38:58 | 50.02335 | 21.10343 | 82° | 62km/h | 8046m | 8.6m/s | 0°C | 0% | 0hPa | 0V | 00:00:00 | 00:00:00 | 00:00:00 | |
| MIELECB | 2026-09-02 11:38:54 | 50.02330 | 21.10251 | 93° | 68km/h | 8020m | 4.1m/s | 0°C | 0% | 0hPa | 0V | 00:00:00 | 00:00:00 | 00:00:00 | |
| AKAW68 | 2026-09-02 11:38:47 | 50.02335 | 21.10097 | 98° | 53km/h | 7976m | 5.7m/s | 0°C | 0% | 0hPa | 0V | 00:00:00 | 00:00:00 | 00:00:00 | |
| SQ9PSP-11 | 2026-09-02 11:38:45 | 50.02335 | 21.10052 | 88° | 64km/h | 7963m | 4.7m/s | 0°C | 0% | 0hPa | 0V | 00:00:00 | 00:00:00 | 00:00:00 | |
| MIELECB | 2026-09-02 11:38:44 | 50.02334 | 21.10027 | 84° | 64km/h | 7957m | 4.5m/s | 0°C | 0% | 0hPa | 0V | 00:00:00 | 00:00:00 | 00:00:00 | |
| SP9SOS | 2026-09-02 11:38:41 | 50.02330 | 21.09959 | 90° | 53km/h | 7937m | 5.9m/s | 0°C | 0% | 0hPa | 0V | 00:00:00 | 00:00:00 | 00:00:00 | |
| SP9KGR-15 | 2026-09-02 11:38:39 | 50.02330 | 21.09914 | 91° | 57km/h | 7922m | 9.5m/s | 0°C | 0% | 0hPa | 0V | 00:00:00 | 00:00:00 | 00:00:00 | |
| MIELECB | 2026-09-02 11:38:35 | 50.02328 | 21.09829 | 91° | 51km/h | 7898m | 3.0m/s | 0°C | 0% | 0hPa | 0V | 00:00:00 | 00:00:00 | 00:00:00 | |
| SQ9PSP-11 | 2026-09-02 11:38:29 | 50.02321 | 21.09693 | 81° | 44km/h | 7868m | 4.6m/s | 0°C | 0% | 0hPa | 0V | 00:00:00 | 00:00:00 | 00:00:00 | |
| AKAW682 | 2026-09-02 11:38:28 | 50.02320 | 21.09677 | 85° | 42km/h | 7862m | 6.2m/s | 0°C | 0% | 0hPa | 0V | 00:00:00 | 00:00:00 | 00:00:00 | |
| MIELECB | 2026-09-02 11:38:26 | 50.02314 | 21.09622 | 81° | 53km/h | 7847m | 3.8m/s | 0°C | 0% | 0hPa | 0V | 00:00:00 | 00:00:00 | 00:00:00 | |
| AKAW68 | 2026-09-02 11:38:25 | 50.02311 | 21.09602 | 83° | 51km/h | 7842m | 6.3m/s | 0°C | 0% | 0hPa | 0V | 00:00:00 | 00:00:00 | 00:00:00 | |
| SP9KGR-15 | 2026-09-02 11:38:23 | 50.02309 | 21.09582 | 80° | 53km/h | 7834m | 7.0m/s | 0°C | 0% | 0hPa | 0V | 00:00:00 | 00:00:00 | 00:00:00 | |
| MIELECB | 2026-09-02 11:38:17 | 50.02301 | 21.09465 | 88° | 49km/h | 7800m | 5.1m/s | 0°C | 0% | 0hPa | 0V | 00:00:00 | 00:00:00 | 00:00:00 | |
| SQ9PSP-11 | 2026-09-02 11:38:13 | 50.02296 | 21.09381 | 85° | 64km/h | 7779m | 5.9m/s | 0°C | 0% | 0hPa | 0V | 00:00:00 | 00:00:00 | 00:00:00 | |
| MIELECB | 2026-09-02 11:38:12 | 50.02295 | 21.09356 | 89° | 64km/h | 7774m | 3.7m/s | 0°C | 0% | 0hPa | 0V | 00:00:00 | 00:00:00 | 00:00:00 | |
| SP9KGR-15 | 2026-09-02 11:38:08 | 50.02288 | 21.09269 | 68° | 55km/h | 7756m | 5.9m/s | 0°C | 0% | 0hPa | 0V | 00:00:00 | 00:00:00 | 00:00:00 | |
| MIELECB | 2026-09-02 11:38:07 | 50.02282 | 21.09249 | 66° | 55km/h | 7752m | 2.1m/s | 0°C | 0% | 0hPa | 0V | 00:00:00 | 00:00:00 | 00:00:00 | |
| AKAW68 | 2026-09-02 11:38:03 | 50.02277 | 21.09167 | 99° | 58km/h | 7730m | 4.9m/s | 0°C | 0% | 0hPa | 0V | 00:00:00 | 00:00:00 | 00:00:00 | |
| SQ9PSP-11 | 2026-09-02 11:37:58 | 50.02271 | 21.09063 | 78° | 46km/h | 7695m | 4.3m/s | 0°C | 0% | 0hPa | 0V | 00:00:00 | 00:00:00 | 00:00:00 | |
| SP9KGR-15 | 2026-09-02 11:37:50 | 50.02265 | 21.08900 | 90° | 51km/h | 7645m | 5.1m/s | 0°C | 0% | 0hPa | 0V | 00:00:00 | 00:00:00 | 00:00:00 | |
| MIELECB | 2026-09-02 11:37:49 | 50.02265 | 21.08881 | 93° | 49km/h | 7641m | 3.8m/s | 0°C | 0% | 0hPa | 0V | 00:00:00 | 00:00:00 | 00:00:00 | |
| SQ9PSP-11 | 2026-09-02 11:37:42 | 50.02259 | 21.08729 | 96° | 53km/h | 7603m | 2.9m/s | 0°C | 0% | 0hPa | 0V | 00:00:00 | 00:00:00 | 00:00:00 | |
| AKAW68 | 2026-09-02 11:37:40 | 50.02263 | 21.08689 | 103° | 53km/h | 7590m | 3.4m/s | 0°C | 0% | 0hPa | 0V | 00:00:00 | 00:00:00 | 00:00:00 | |
| MIELECB | 2026-09-02 11:37:38 | 50.02267 | 21.08649 | 90° | 49km/h | 7577m | 4.3m/s | 0°C | 0% | 0hPa | 0V | 00:00:00 | 00:00:00 | 00:00:00 | |
| MIELECB | 2026-09-02 11:37:33 | 50.02256 | 21.08549 | 80° | 51km/h | 7548m | 4.6m/s | 0°C | 0% | 0hPa | 0V | 00:00:00 | 00:00:00 | 00:00:00 | |
| SP9KGR-15 | 2026-09-02 11:37:28 | 50.02262 | 21.08447 | 94° | 55km/h | 7518m | 5.3m/s | 0°C | 0% | 0hPa | 0V | 00:00:00 | 00:00:00 | 00:00:00 | |
| SQ9PSP-11 | 2026-09-02 11:37:27 | 50.02262 | 21.08425 | 89° | 55km/h | 7512m | 4.4m/s | 0°C | 0% | 0hPa | 0V | 00:00:00 | 00:00:00 | 00:00:00 | |
| SP9SOS | 2026-09-02 11:37:21 | 50.02260 | 21.08307 | 98° | 42km/h | 7480m | 7.1m/s | 0°C | 0% | 0hPa | 0V | 00:00:00 | 00:00:00 | 00:00:00 | |
| AKAW68 | 2026-09-02 11:37:20 | 50.02261 | 21.08289 | 92° | 46km/h | 7474m | 3.5m/s | 0°C | 0% | 0hPa | 0V | 00:00:00 | 00:00:00 | 00:00:00 | |
| MIELECB | 2026-09-02 11:37:17 | 50.02259 | 21.08238 | 88° | 40km/h | 7460m | 5.4m/s | 0°C | 0% | 0hPa | 0V | 00:00:00 | 00:00:00 | 00:00:00 | |
| SP9KGR-15 | 2026-09-02 11:37:11 | 50.02266 | 21.08145 | 109° | 57km/h | 7427m | 3.5m/s | 0°C | 0% | 0hPa | 0V | 00:00:00 | 00:00:00 | 00:00:00 | |
| MIELECB | 2026-09-02 11:37:09 | 50.02270 | 21.08080 | 82° | 49km/h | 7412m | 4.5m/s | 0°C | 0% | 0hPa | 0V | 00:00:00 | 00:00:00 | 00:00:00 | |
| MIELECB | 2026-09-02 11:37:03 | 50.02260 | 21.07994 | 95° | 55km/h | 7381m | 4.7m/s | 0°C | 0% | 0hPa | 0V | 00:00:00 | 00:00:00 | 00:00:00 | |
| MIELECB | 2026-09-02 11:36:57 | 50.02266 | 21.07888 | 95° | 47km/h | 7345m | 6.5m/s | 0°C | 0% | 0hPa | 0V | 00:00:00 | 00:00:00 | 00:00:00 | |
| SQ9PSP-11 | 2026-09-02 11:36:56 | 50.02266 | 21.07869 | 92° | 51km/h | 7339m | 5.4m/s | 0°C | 0% | 0hPa | 0V | 00:00:00 | 00:00:00 | 00:00:00 | |
| AKAW682 | 2026-09-02 11:36:55 | 50.02266 | 21.07849 | 89° | 49km/h | 7334m | 3.2m/s | 0°C | 0% | 0hPa | 0V | 00:00:00 | 00:00:00 | 00:00:00 | |
| MIELECB | 2026-09-02 11:36:51 | 50.02265 | 21.07775 | 93° | 55km/h | 7310m | 4.4m/s | 0°C | 0% | 0hPa | 0V | 00:00:00 | 00:00:00 | 00:00:00 | |
| SQ9PSP-11 | 2026-09-02 11:36:40 | 50.02262 | 21.07560 | 80° | 49km/h | 7248m | 1.8m/s | 0°C | 0% | 0hPa | 0V | 00:00:00 | 00:00:00 | 00:00:00 | |
| AKAW68 | 2026-09-02 11:36:39 | 50.02260 | 21.07543 | 79° | 42km/h | 7244m | 7.3m/s | 0°C | 0% | 0hPa | 0V | 00:00:00 | 00:00:00 | 00:00:00 | |
| MIELECB | 2026-09-02 11:36:35 | 50.02254 | 21.07495 | 86° | 37km/h | 7227m | 4.4m/s | 0°C | 0% | 0hPa | 0V | 00:00:00 | 00:00:00 | 00:00:00 | |
| AKAW682 | 2026-09-02 11:36:34 | 50.02253 | 21.07479 | 84° | 42km/h | 7222m | 3.6m/s | 0°C | 0% | 0hPa | 0V | 00:00:00 | 00:00:00 | 00:00:00 | |
| SP9KGR-15 | 2026-09-02 11:36:31 | 50.02251 | 21.07418 | 90° | 55km/h | 7205m | 4.7m/s | 0°C | 0% | 0hPa | 0V | 00:00:00 | 00:00:00 | 00:00:00 | |
| SQ9PSP-11 | 2026-09-02 11:36:25 | 50.02244 | 21.07324 | 72° | 31km/h | 7170m | 4.3m/s | 0°C | 0% | 0hPa | 0V | 00:00:00 | 00:00:00 | 00:00:00 | |
| AKAW68 | 2026-09-02 11:36:18 | 50.02242 | 21.07210 | 85° | 49km/h | 7128m | 8.0m/s | 0°C | 0% | 0hPa | 0V | 00:00:00 | 00:00:00 | 00:00:00 | |
| AKAW682 | 2026-09-02 11:36:13 | 50.02229 | 21.07142 | 88° | 26km/h | 7103m | 3.8m/s | 0°C | 0% | 0hPa | 0V | 00:00:00 | 00:00:00 | 00:00:00 | |
| SQ9PSP-11 | 2026-09-02 11:36:09 | 50.02234 | 21.07081 | 87° | 40km/h | 7073m | 8.2m/s | 0°C | 0% | 0hPa | 0V | 00:00:00 | 00:00:00 | 00:00:00 | |
| AKAW68 | 2026-09-02 11:35:57 | 50.02218 | 21.06898 | 79° | 47km/h | 7003m | 6.8m/s | 0°C | 0% | 0hPa | 0V | 00:00:00 | 00:00:00 | 00:00:00 | |
| SQ9PSP-11 | 2026-09-02 11:35:53 | 50.02219 | 21.06827 | 102° | 38km/h | 6977m | 4.5m/s | 0°C | 0% | 0hPa | 0V | 00:00:00 | 00:00:00 | 00:00:00 | |
| SP9KGR-15 | 2026-09-02 11:35:52 | 50.02220 | 21.06812 | 102° | 37km/h | 6973m | 3.5m/s | 0°C | 0% | 0hPa | 0V | 00:00:00 | 00:00:00 | 00:00:00 | |
| MIELECB | 2026-09-02 11:35:50 | 50.02222 | 21.06779 | 92° | 47km/h | 6961m | 3.5m/s | 0°C | 0% | 0hPa | 0V | 00:00:00 | 00:00:00 | 00:00:00 | |
| MIELECB | 2026-09-02 11:35:39 | 50.02208 | 21.06615 | 90° | 38km/h | 6906m | 4.1m/s | 0°C | 0% | 0hPa | 0V | 00:00:00 | 00:00:00 | 00:00:00 | |
| SQ9PSP-11 | 2026-09-02 11:35:38 | 50.02207 | 21.06600 | 83° | 44km/h | 6900m | 10.0m/s | 0°C | 0% | 0hPa | 0V | 00:00:00 | 00:00:00 | 00:00:00 | |
| AKAW68 | 2026-09-02 11:35:36 | 50.02205 | 21.06564 | 84° | 46km/h | 6885m | 9.2m/s | 0°C | 0% | 0hPa | 0V | 00:00:00 | 00:00:00 | 00:00:00 | |
| AKAW682 | 2026-09-02 11:35:33 | 50.02205 | 21.06510 | 106° | 46km/h | 6864m | 5.0m/s | 0°C | 0% | 0hPa | 0V | 00:00:00 | 00:00:00 | 00:00:00 | |
| MIELECB | 2026-09-02 11:35:31 | 50.02210 | 21.06475 | 100° | 44km/h | 6850m | 4.2m/s | 0°C | 0% | 0hPa | 0V | 00:00:00 | 00:00:00 | 00:00:00 | |
| MIELECB | 2026-09-02 11:35:25 | 50.02210 | 21.06378 | 102° | 37km/h | 6817m | 5.1m/s | 0°C | 0% | 0hPa | 0V | 00:00:00 | 00:00:00 | 00:00:00 | |
| SQ9PSP-11 | 2026-09-02 11:35:23 | 50.02214 | 21.06348 | 100° | 40km/h | 6803m | 5.2m/s | 0°C | 0% | 0hPa | 0V | 00:00:00 | 00:00:00 | 00:00:00 | |
| SP9KGR-15 | 2026-09-02 11:35:16 | 50.02212 | 21.06239 | 97° | 49km/h | 6772m | 5.4m/s | 0°C | 0% | 0hPa | 0V | 00:00:00 | 00:00:00 | 00:00:00 | |
| AKAW68 | 2026-09-02 11:35:15 | 50.02212 | 21.06220 | 94° | 49km/h | 6767m | 4.3m/s | 0°C | 0% | 0hPa | 0V | 00:00:00 | 00:00:00 | 00:00:00 | |
| AKAW682 | 2026-09-02 11:35:13 | 50.02209 | 21.06184 | 77° | 38km/h | 6756m | 2.7m/s | 0°C | 0% | 0hPa | 0V | 00:00:00 | 00:00:00 | 00:00:00 | |
| MIELECB | 2026-09-02 11:35:12 | 50.02207 | 21.06170 | 79° | 35km/h | 6752m | 6.0m/s | 0°C | 0% | 0hPa | 0V | 00:00:00 | 00:00:00 | 00:00:00 | |
| SQ9PSP-11 | 2026-09-02 11:35:07 | 50.02225 | 21.06103 | 122° | 42km/h | 6727m | 4.9m/s | 0°C | 0% | 0hPa | 0V | 00:00:00 | 00:00:00 | 00:00:00 | |
| MIELECB | 2026-09-02 11:34:54 | 50.02249 | 21.05897 | 104° | 44km/h | 6639m | 5.2m/s | 0°C | 0% | 0hPa | 0V | 00:00:00 | 00:00:00 | 00:00:00 | |
| SQ9PSP-11 | 2026-09-02 11:34:52 | 50.02250 | 21.05865 | 82° | 38km/h | 6629m | 3.4m/s | 0°C | 0% | 0hPa | 0V | 00:00:00 | 00:00:00 | 00:00:00 | |
| MIELECB | 2026-09-02 11:34:49 | 50.02245 | 21.05796 | 100° | 47km/h | 6612m | 5.6m/s | 0°C | 0% | 0hPa | 0V | 00:00:00 | 00:00:00 | 00:00:00 | |
| MIELECB | 2026-09-02 11:34:42 | 50.02253 | 21.05695 | 80° | 44km/h | 6572m | 6.9m/s | 0°C | 0% | 0hPa | 0V | 00:00:00 | 00:00:00 | 00:00:00 | |
| SQ9PSP-11 | 2026-09-02 11:34:36 | 50.02263 | 21.05609 | 115° | 37km/h | 6540m | 3.0m/s | 0°C | 0% | 0hPa | 0V | 00:00:00 | 00:00:00 | 00:00:00 | |
| AKAW68 | 2026-09-02 11:34:34 | 50.02270 | 21.05582 | 109° | 35km/h | 6527m | 4.1m/s | 0°C | 0% | 0hPa | 0V | 00:00:00 | 00:00:00 | 00:00:00 | |
| SP9KGR-15 | 2026-09-02 11:34:29 | 50.02272 | 21.05512 | 95° | 40km/h | 6499m | 5.9m/s | 0°C | 0% | 0hPa | 0V | 00:00:00 | 00:00:00 | 00:00:00 | |
| AKAW682 | 2026-09-02 11:34:28 | 50.02274 | 21.05498 | 112° | 40km/h | 6493m | 4.6m/s | 0°C | 0% | 0hPa | 0V | 00:00:00 | 00:00:00 | 00:00:00 | |
| SQ9PSP-11 | 2026-09-02 11:34:20 | 50.02297 | 21.05386 | 86° | 44km/h | 6452m | 3.9m/s | 0°C | 0% | 0hPa | 0V | 00:00:00 | 00:00:00 | 00:00:00 | |
| MIELECB | 2026-09-02 11:34:17 | 50.02299 | 21.05343 | 105° | 35km/h | 6437m | 6.5m/s | 0°C | 0% | 0hPa | 0V | 00:00:00 | 00:00:00 | 00:00:00 | |
| AKAW68 | 2026-09-02 11:34:12 | 50.02322 | 21.05276 | 104° | 40km/h | 6406m | 5.9m/s | 0°C | 0% | 0hPa | 0V | 00:00:00 | 00:00:00 | 00:00:00 | |
| MIELECB | 2026-09-02 11:34:08 | 50.02326 | 21.05211 | 99° | 40km/h | 6386m | 4.4m/s | 0°C | 0% | 0hPa | 0V | 00:00:00 | 00:00:00 | 00:00:00 | |
| SQ9PSP-11 | 2026-09-02 11:34:05 | 50.02333 | 21.05168 | 111° | 40km/h | 6367m | 6.3m/s | 0°C | 0% | 0hPa | 0V | 00:00:00 | 00:00:00 | 00:00:00 | |
| MIELECB | 2026-09-02 11:34:03 | 50.02341 | 21.05144 | 120° | 35km/h | 6356m | 6.1m/s | 0°C | 0% | 0hPa | 0V | 00:00:00 | 00:00:00 | 00:00:00 | |
| SQ9EZE-12 | 2026-09-02 11:33:59 | 50.02354 | 21.05080 | 111° | 51km/h | 6331m | 5.1m/s | 0°C | 0% | 0hPa | 0V | 00:00:00 | 00:00:00 | 00:00:00 | |
| MIELECB | 2026-09-02 11:33:58 | 50.02358 | 21.05062 | 114° | 46km/h | 6327m | 3.1m/s | 0°C | 0% | 0hPa | 0V | 00:00:00 | 00:00:00 | 00:00:00 | |
| SP9KGR-15 | 2026-09-02 11:33:56 | 50.02366 | 21.05033 | 106° | 35km/h | 6318m | 4.9m/s | 0°C | 0% | 0hPa | 0V | 00:00:00 | 00:00:00 | 00:00:00 | |
| AKAW68 | 2026-09-02 11:33:53 | 50.02378 | 21.04978 | 112° | 47km/h | 6297m | 5.0m/s | 0°C | 0% | 0hPa | 0V | 00:00:00 | 00:00:00 | 00:00:00 | |
| SQ9PSP-11 | 2026-09-02 11:33:50 | 50.02389 | 21.04947 | 116° | 44km/h | 6287m | 9.8m/s | 0°C | 0% | 0hPa | 0V | 00:00:00 | 00:00:00 | 00:00:00 | |
| MIELECB | 2026-09-02 11:33:47 | 50.02401 | 21.04912 | 115° | 31km/h | 6266m | 8.5m/s | 0°C | 0% | 0hPa | 0V | 00:00:00 | 00:00:00 | 00:00:00 | |
| AKAW682 | 2026-09-02 11:33:38 | 50.02434 | 21.04786 | 132° | 29km/h | 6212m | 4.5m/s | 0°C | 0% | 0hPa | 0V | 00:00:00 | 00:00:00 | 00:00:00 | |
| MIELECB | 2026-09-02 11:33:37 | 50.02439 | 21.04777 | 127° | 33km/h | 6207m | 3.1m/s | 0°C | 0% | 0hPa | 0V | 00:00:00 | 00:00:00 | 00:00:00 | |
| SQ9PSP-11 | 2026-09-02 11:33:34 | 50.02450 | 21.04742 | 113° | 37km/h | 6192m | 6.9m/s | 0°C | 0% | 0hPa | 0V | 00:00:00 | 00:00:00 | 00:00:00 | |
| AKAW68 | 2026-09-02 11:33:31 | 50.02461 | 21.04710 | 123° | 29km/h | 6172m | 5.6m/s | 0°C | 0% | 0hPa | 0V | 00:00:00 | 00:00:00 | 00:00:00 | |
| MIELECB | 2026-09-02 11:33:28 | 50.02477 | 21.04672 | 120° | 47km/h | 6155m | 2.8m/s | 0°C | 0% | 0hPa | 0V | 00:00:00 | 00:00:00 | 00:00:00 | |
| MIELECB | 2026-09-02 11:33:20 | 50.02498 | 21.04555 | 121° | 29km/h | 6116m | 4.6m/s | 0°C | 0% | 0hPa | 0V | 00:00:00 | 00:00:00 | 00:00:00 | |
| SQ9PSP-11 | 2026-09-02 11:33:19 | 50.02503 | 21.04546 | 130° | 33km/h | 6111m | 2.2m/s | 0°C | 0% | 0hPa | 0V | 00:00:00 | 00:00:00 | 00:00:00 | |
| MIELECB | 2026-09-02 11:33:15 | 50.02516 | 21.04499 | 102° | 29km/h | 6090m | 8.4m/s | 0°C | 0% | 0hPa | 0V | 00:00:00 | 00:00:00 | 00:00:00 | |
| AKAW682 | 2026-09-02 11:33:13 | 50.02519 | 21.04478 | 107° | 29km/h | 6076m | 6.7m/s | 0°C | 0% | 0hPa | 0V | 00:00:00 | 00:00:00 | 00:00:00 | |
| AKAW68 | 2026-09-02 11:33:11 | 50.02525 | 21.04450 | 111° | 42km/h | 6061m | 6.4m/s | 0°C | 0% | 0hPa | 0V | 00:00:00 | 00:00:00 | 00:00:00 | |
| SQ9PSP-11 | 2026-09-02 11:33:03 | 50.02544 | 21.04360 | 82° | 26km/h | 6013m | 4.3m/s | 0°C | 0% | 0hPa | 0V | 00:00:00 | 00:00:00 | 00:00:00 | |
| SP9KGR-15 | 2026-09-02 11:32:51 | 50.02570 | 21.04214 | 117° | 42km/h | 5931m | 6.3m/s | 0°C | 0% | 0hPa | 0V | 00:00:00 | 00:00:00 | 00:00:00 | |
| AKAW68 | 2026-09-02 11:32:48 | 50.02586 | 21.04172 | 118° | 42km/h | 5916m | 7.5m/s | 0°C | 0% | 0hPa | 0V | 00:00:00 | 00:00:00 | 00:00:00 | |
| SQ9PSP-11 | 2026-09-02 11:32:47 | 50.02590 | 21.04159 | 114° | 33km/h | 5909m | 5.2m/s | 0°C | 0% | 0hPa | 0V | 00:00:00 | 00:00:00 | 00:00:00 | |
| SP9KGR-15 | 2026-09-02 11:32:33 | 50.02608 | 21.04002 | 96° | 35km/h | 5822m | 7.3m/s | 0°C | 0% | 0hPa | 0V | 00:00:00 | 00:00:00 | 00:00:00 | |
| SQ9PSP-11 | 2026-09-02 11:32:31 | 50.02610 | 21.03976 | 103° | 33km/h | 5809m | 7.4m/s | 0°C | 0% | 0hPa | 0V | 00:00:00 | 00:00:00 | 00:00:00 | |
| AKAW68 | 2026-09-02 11:32:26 | 50.02624 | 21.03908 | 105° | 37km/h | 5774m | 4.8m/s | 0°C | 0% | 0hPa | 0V | 00:00:00 | 00:00:00 | 00:00:00 | |
| SP9KGR-15 | 2026-09-02 11:32:16 | 50.02619 | 21.03800 | 89° | 46km/h | 5714m | 4.5m/s | 0°C | 0% | 0hPa | 0V | 00:00:00 | 00:00:00 | 00:00:00 | |
| SQ9PSP-11 | 2026-09-02 11:32:15 | 50.02619 | 21.03782 | 89° | 44km/h | 5708m | 7.0m/s | 0°C | 0% | 0hPa | 0V | 00:00:00 | 00:00:00 | 00:00:00 | |
| AKAW68 | 2026-09-02 11:32:02 | 50.02603 | 21.03623 | 60° | 35km/h | 5637m | 4.1m/s | 0°C | 0% | 0hPa | 0V | 00:00:00 | 00:00:00 | 00:00:00 | |
| SP9KGR-15 | 2026-09-02 11:32:00 | 50.02599 | 21.03598 | 87° | 33km/h | 5625m | 5.2m/s | 0°C | 0% | 0hPa | 0V | 00:00:00 | 00:00:00 | 00:00:00 | |
| SQ9EZE-12 | 2026-09-02 11:31:59 | 50.02599 | 21.03584 | 93° | 38km/h | 5619m | 6.6m/s | 0°C | 0% | 0hPa | 0V | 00:00:00 | 00:00:00 | 00:00:00 | |
| AKAW682 | 2026-09-02 11:31:46 | 50.02600 | 21.03386 | 70° | 26km/h | 5526m | 6.9m/s | 0°C | 0% | 0hPa | 0V | 00:00:00 | 00:00:00 | 00:00:00 | |
| SQ9PSP-11 | 2026-09-02 11:31:44 | 50.02598 | 21.03374 | 73° | 33km/h | 5520m | 4.0m/s | 0°C | 0% | 0hPa | 0V | 00:00:00 | 00:00:00 | 00:00:00 | |
| AKAW68 | 2026-09-02 11:31:41 | 50.02591 | 21.03327 | 86° | 40km/h | 5504m | 4.9m/s | 0°C | 0% | 0hPa | 0V | 00:00:00 | 00:00:00 | 00:00:00 | |
| SQ9PSP-11 | 2026-09-02 11:31:28 | 50.02571 | 21.03149 | 86° | 31km/h | 5424m | 4.6m/s | 0°C | 0% | 0hPa | 0V | 00:00:00 | 00:00:00 | 00:00:00 | |
| SQ9EZE-12 | 2026-09-02 11:31:20 | 50.02558 | 21.03033 | 86° | 33km/h | 5373m | 5.9m/s | 0°C | 0% | 0hPa | 0V | 00:00:00 | 00:00:00 | 00:00:00 | |
| AKAW68 | 2026-09-02 11:31:17 | 50.02549 | 21.02987 | 79° | 49km/h | 5353m | 3.0m/s | 0°C | 0% | 0hPa | 0V | 00:00:00 | 00:00:00 | 00:00:00 | |
| AKAW682 | 2026-09-02 11:31:12 | 50.02540 | 21.02901 | 77° | 40km/h | 5325m | 3.7m/s | 0°C | 0% | 0hPa | 0V | 00:00:00 | 00:00:00 | 00:00:00 | |
| SP9KGR-15 | 2026-09-02 11:31:01 | 50.02527 | 21.02708 | 90° | 42km/h | 5268m | 2.7m/s | 0°C | 0% | 0hPa | 0V | 00:00:00 | 00:00:00 | 00:00:00 | |
| SQ9PSP-11 | 2026-09-02 11:30:57 | 50.02520 | 21.02637 | 85° | 55km/h | 5241m | 3.2m/s | 0°C | 0% | 0hPa | 0V | 00:00:00 | 00:00:00 | 00:00:00 | |
| AKAW68 | 2026-09-02 11:30:55 | 50.02518 | 21.02601 | 81° | 35km/h | 5230m | 6.3m/s | 0°C | 0% | 0hPa | 0V | 00:00:00 | 00:00:00 | 00:00:00 | |
| AKAW682 | 2026-09-02 11:30:50 | 50.02517 | 21.02539 | 88° | 35km/h | 5203m | 3.2m/s | 0°C | 0% | 0hPa | 0V | 00:00:00 | 00:00:00 | 00:00:00 | |
| SP9KGR-15 | 2026-09-02 11:30:46 | 50.02522 | 21.02474 | 98° | 37km/h | 5179m | 5.2m/s | 0°C | 0% | 0hPa | 0V | 00:00:00 | 00:00:00 | 00:00:00 | |
| SQ9PSP-11 | 2026-09-02 11:30:40 | 50.02513 | 21.02375 | 81° | 37km/h | 5140m | 6.2m/s | 0°C | 0% | 0hPa | 0V | 00:00:00 | 00:00:00 | 00:00:00 | |
| AKAW68 | 2026-09-02 11:30:35 | 50.02518 | 21.02306 | 85° | 35km/h | 5108m | 4.6m/s | 0°C | 0% | 0hPa | 0V | 00:00:00 | 00:00:00 | 00:00:00 | |
| SP9KGR-15 | 2026-09-02 11:30:30 | 50.02520 | 21.02240 | 97° | 40km/h | 5079m | 5.9m/s | 0°C | 0% | 0hPa | 0V | 00:00:00 | 00:00:00 | 00:00:00 | |
| SQ9EZE-12 | 2026-09-02 11:30:14 | 50.02519 | 21.01967 | 97° | 42km/h | 4987m | 5.8m/s | 0°C | 0% | 0hPa | 0V | 00:00:00 | 00:00:00 | 00:00:00 | |
| SQ9PSP-11 | 2026-09-02 11:30:08 | 50.02504 | 21.01873 | 88° | 40km/h | 4945m | 8.9m/s | 0°C | 0% | 0hPa | 0V | 00:00:00 | 00:00:00 | 00:00:00 | |
| AKAW682 | 2026-09-02 11:30:03 | 50.02514 | 21.01796 | 90° | 38km/h | 4910m | 4.4m/s | 0°C | 0% | 0hPa | 0V | 00:00:00 | 00:00:00 | 00:00:00 | |
| SP9KGR-15 | 2026-09-02 11:29:59 | 50.02510 | 21.01721 | 102° | 40km/h | 4894m | 5.2m/s | 0°C | 0% | 0hPa | 0V | 00:00:00 | 00:00:00 | 00:00:00 | |
| SQ9PSP-11 | 2026-09-02 11:29:53 | 50.02502 | 21.01609 | 91° | 44km/h | 4855m | 7.1m/s | 0°C | 0% | 0hPa | 0V | 00:00:00 | 00:00:00 | 00:00:00 | |
| SQ9EZE-12 | 2026-09-02 11:29:48 | 50.02516 | 21.01545 | 107° | 44km/h | 4830m | 2.9m/s | 0°C | 0% | 0hPa | 0V | 00:00:00 | 00:00:00 | 00:00:00 | |
| AKAW68 | 2026-09-02 11:29:47 | 50.02518 | 21.01527 | 101° | 46km/h | 4824m | 6.5m/s | 0°C | 0% | 0hPa | 0V | 00:00:00 | 00:00:00 | 00:00:00 | |
| SP9KGR-15 | 2026-09-02 11:29:43 | 50.02510 | 21.01447 | 79° | 51km/h | 4798m | 3.1m/s | 0°C | 0% | 0hPa | 0V | 00:00:00 | 00:00:00 | 00:00:00 | |
| SQ9PSP-11 | 2026-09-02 11:29:37 | 50.02506 | 21.01364 | 94° | 49km/h | 4766m | 5.9m/s | 0°C | 0% | 0hPa | 0V | 00:00:00 | 00:00:00 | 00:00:00 | |
| AKAW682 | 2026-09-02 11:29:34 | 50.02508 | 21.01306 | 82° | 33km/h | 4747m | 6.4m/s | 0°C | 0% | 0hPa | 0V | 00:00:00 | 00:00:00 | 00:00:00 | |
| AKAW68 | 2026-09-02 11:29:26 | 50.02494 | 21.01184 | 83° | 38km/h | 4697m | 6.2m/s | 0°C | 0% | 0hPa | 0V | 00:00:00 | 00:00:00 | 00:00:00 | |
| SQ9PSP-11 | 2026-09-02 11:29:21 | 50.02499 | 21.01094 | 76° | 46km/h | 4663m | 6.8m/s | 0°C | 0% | 0hPa | 0V | 00:00:00 | 00:00:00 | 00:00:00 | |
| SP9KGR-15 | 2026-09-02 11:29:20 | 50.02496 | 21.01075 | 77° | 51km/h | 4657m | 2.9m/s | 0°C | 0% | 0hPa | 0V | 00:00:00 | 00:00:00 | 00:00:00 | |
| SQ9EZE-12 | 2026-09-02 11:29:09 | 50.02485 | 21.00873 | 95° | 55km/h | 4602m | 4.4m/s | 0°C | 0% | 0hPa | 0V | 00:00:00 | 00:00:00 | 00:00:00 | |
| SQ9PSP-11 | 2026-09-02 11:29:06 | 50.02483 | 21.00826 | 68° | 29km/h | 4591m | 3.7m/s | 0°C | 0% | 0hPa | 0V | 00:00:00 | 00:00:00 | 00:00:00 | |
| AKAW68 | 2026-09-02 11:29:05 | 50.02481 | 21.00816 | 91° | 26km/h | 4586m | 5.0m/s | 0°C | 0% | 0hPa | 0V | 00:00:00 | 00:00:00 | 00:00:00 | |
| SP9KGR-15 | 2026-09-02 11:29:04 | 50.02483 | 21.00804 | 113° | 33km/h | 4580m | 5.6m/s | 0°C | 0% | 0hPa | 0V | 00:00:00 | 00:00:00 | 00:00:00 | |
| SQ9PSP-11 | 2026-09-02 11:28:50 | 50.02511 | 21.00557 | 102° | 51km/h | 4490m | 6.1m/s | 0°C | 0% | 0hPa | 0V | 00:00:00 | 00:00:00 | 00:00:00 | |
| AKAW68 | 2026-09-02 11:28:46 | 50.02526 | 21.00474 | 71° | 35km/h | 4464m | 6.6m/s | 0°C | 0% | 0hPa | 0V | 00:00:00 | 00:00:00 | 00:00:00 | |
| SQ9PSP-11 | 2026-09-02 11:28:35 | 50.02513 | 21.00308 | 96° | 47km/h | 4409m | 7.3m/s | 0°C | 0% | 0hPa | 0V | 00:00:00 | 00:00:00 | 00:00:00 | |
| SQ9EZE-12 | 2026-09-02 11:28:32 | 50.02518 | 21.00258 | 99° | 47km/h | 4391m | 6.2m/s | 0°C | 0% | 0hPa | 0V | 00:00:00 | 00:00:00 | 00:00:00 | |
| SP9KGR-15 | 2026-09-02 11:28:28 | 50.02527 | 21.00173 | 94° | 49km/h | 4373m | 4.6m/s | 0°C | 0% | 0hPa | 0V | 00:00:00 | 00:00:00 | 00:00:00 | |
| AKAW68 | 2026-09-02 11:28:22 | 50.02525 | 21.00060 | 107° | 37km/h | 4334m | 5.4m/s | 0°C | 0% | 0hPa | 0V | 00:00:00 | 00:00:00 | 00:00:00 | |
| SQ9PSP-11 | 2026-09-02 11:28:19 | 50.02528 | 21.00032 | 80° | 20km/h | 4321m | 2.6m/s | 0°C | 0% | 0hPa | 0V | 00:00:00 | 00:00:00 | 00:00:00 | |
| SQ9EZE-12 | 2026-09-02 11:28:11 | 50.02521 | 20.99910 | 96° | 44km/h | 4282m | 5.1m/s | 0°C | 0% | 0hPa | 0V | 00:00:00 | 00:00:00 | 00:00:00 | |
| SP9KGR-15 | 2026-09-02 11:28:10 | 50.02523 | 20.99891 | 104° | 57km/h | 4278m | 5.6m/s | 0°C | 0% | 0hPa | 0V | 00:00:00 | 00:00:00 | 00:00:00 | |
| SQ9PSP-11 | 2026-09-02 11:28:04 | 50.02533 | 20.99805 | 55° | 42km/h | 4246m | 5.0m/s | 0°C | 0% | 0hPa | 0V | 00:00:00 | 00:00:00 | 00:00:00 | |
| SP9KGR-15 | 2026-09-02 11:27:55 | 50.02529 | 20.99646 | 82° | 42km/h | 4193m | 2.0m/s | 0°C | 0% | 0hPa | 0V | 00:00:00 | 00:00:00 | 00:00:00 | |
| SQ9EZE-12 | 2026-09-02 11:27:49 | 50.02521 | 20.99553 | 110° | 38km/h | 4158m | 4.0m/s | 0°C | 0% | 0hPa | 0V | 00:00:00 | 00:00:00 | 00:00:00 | |
| SQ9PSP-11 | 2026-09-02 11:27:47 | 50.02526 | 20.99526 | 100° | 35km/h | 4150m | 5.8m/s | 0°C | 0% | 0hPa | 0V | 00:00:00 | 00:00:00 | 00:00:00 | |
| AKAW68 | 2026-09-02 11:27:34 | 50.02525 | 20.99346 | 71° | 35km/h | 4073m | 6.5m/s | 0°C | 0% | 0hPa | 0V | 00:00:00 | 00:00:00 | 00:00:00 | |
| SP9KGR-15 | 2026-09-02 11:27:32 | 50.02517 | 20.99322 | 64° | 33km/h | 4066m | 0.5m/s | 0°C | 0% | 0hPa | 0V | 00:00:00 | 00:00:00 | 00:00:00 | |
| SQ9PSP-11 | 2026-09-02 11:27:31 | 50.02513 | 20.99310 | 65° | 37km/h | 4063m | 4.5m/s | 0°C | 0% | 0hPa | 0V | 00:00:00 | 00:00:00 | 00:00:00 | |
| SQ9PSP-11 | 2026-09-02 11:27:16 | 50.02510 | 20.99089 | 85° | 37km/h | 3969m | 4.3m/s | 0°C | 0% | 0hPa | 0V | 00:00:00 | 00:00:00 | 00:00:00 | |
| AKAW68 | 2026-09-02 11:27:13 | 50.02513 | 20.99057 | 99° | 22km/h | 3954m | 2.6m/s | 0°C | 0% | 0hPa | 0V | 00:00:00 | 00:00:00 | 00:00:00 | |
| SQ9PSP-11 | 2026-09-02 11:27:00 | 50.02473 | 20.98939 | 68° | 37km/h | 3892m | 5.4m/s | 0°C | 0% | 0hPa | 0V | 00:00:00 | 00:00:00 | 00:00:00 | |
| AKAW68 | 2026-09-02 11:26:48 | 50.02444 | 20.98791 | 98° | 51km/h | 3818m | 7.0m/s | 0°C | 0% | 0hPa | 0V | 00:00:00 | 00:00:00 | 00:00:00 | |
| SQ9EZE-12 | 2026-09-02 11:26:45 | 50.02458 | 20.98738 | 118° | 37km/h | 3805m | 5.9m/s | 0°C | 0% | 0hPa | 0V | 00:00:00 | 00:00:00 | 00:00:00 | |
| SP9KGR-15 | 2026-09-02 11:26:30 | 50.02477 | 20.98541 | 51° | 16km/h | 3725m | 4.9m/s | 0°C | 0% | 0hPa | 0V | 00:00:00 | 00:00:00 | 00:00:00 | |
| SQ9PSP-11 | 2026-09-02 11:26:27 | 50.02479 | 20.98515 | 126° | 33km/h | 3705m | 6.6m/s | 0°C | 0% | 0hPa | 0V | 00:00:00 | 00:00:00 | 00:00:00 | |
| AKAW68 | 2026-09-02 11:26:20 | 50.02479 | 20.98473 | 71° | 37km/h | 3669m | 5.8m/s | 0°C | 0% | 0hPa | 0V | 00:00:00 | 00:00:00 | 00:00:00 | |
| SP9KGR-15 | 2026-09-02 11:26:13 | 50.02497 | 20.98391 | 111° | 35km/h | 3630m | 6.3m/s | 0°C | 0% | 0hPa | 0V | 00:00:00 | 00:00:00 | 00:00:00 | |
| SQ9PSP-11 | 2026-09-02 11:26:12 | 50.02498 | 20.98378 | 92° | 33km/h | 3624m | 4.2m/s | 0°C | 0% | 0hPa | 0V | 00:00:00 | 00:00:00 | 00:00:00 | |
| AKAW68 | 2026-09-02 11:26:00 | 50.02502 | 20.98235 | 93° | 38km/h | 3555m | 4.4m/s | 0°C | 0% | 0hPa | 0V | 00:00:00 | 00:00:00 | 00:00:00 | |
| SQ9PSP-11 | 2026-09-02 11:25:57 | 50.02505 | 20.98210 | 116° | 24km/h | 3545m | 2.7m/s | 0°C | 0% | 0hPa | 0V | 00:00:00 | 00:00:00 | 00:00:00 | |
| SQ9PSP-11 | 2026-09-02 11:25:41 | 50.02486 | 20.98032 | 83° | 35km/h | 3473m | 4.8m/s | 0°C | 0% | 0hPa | 0V | 00:00:00 | 00:00:00 | 00:00:00 | |
| SQ9EZE-12 | 2026-09-02 11:25:40 | 50.02486 | 20.98018 | 110° | 37km/h | 3467m | 6.9m/s | 0°C | 0% | 0hPa | 0V | 00:00:00 | 00:00:00 | 00:00:00 | |
| AKAW68 | 2026-09-02 11:25:35 | 50.02497 | 20.97996 | 103° | 11km/h | 3449m | 4.5m/s | 0°C | 0% | 0hPa | 0V | 00:00:00 | 00:00:00 | 00:00:00 | |
| SQ9EZE-12 | 2026-09-02 11:25:25 | 50.02491 | 20.97935 | 62° | 26km/h | 3395m | 6.0m/s | 0°C | 0% | 0hPa | 0V | 00:00:00 | 00:00:00 | 00:00:00 | |
| AKAW68 | 2026-09-02 11:25:12 | 50.02499 | 20.97790 | 90° | 40km/h | 3321m | 4.7m/s | 0°C | 0% | 0hPa | 0V | 00:00:00 | 00:00:00 | 00:00:00 | |
| SQ9PSP-11 | 2026-09-02 11:25:08 | 50.02489 | 20.97747 | 98° | 18km/h | 3306m | 4.4m/s | 0°C | 0% | 0hPa | 0V | 00:00:00 | 00:00:00 | 00:00:00 | |
| SQ9EZE-12 | 2026-09-02 11:24:59 | 50.02510 | 20.97667 | 105° | 27km/h | 3250m | 6.1m/s | 0°C | 0% | 0hPa | 0V | 00:00:00 | 00:00:00 | 00:00:00 | |
| SQ9PSP-11 | 2026-09-02 11:24:50 | 50.02532 | 20.97575 | 148° | 13km/h | 3205m | 4.4m/s | 0°C | 0% | 0hPa | 0V | 00:00:00 | 00:00:00 | 00:00:00 | |
| SQ9PSP-11 | 2026-09-02 11:24:34 | 50.02571 | 20.97451 | 91° | 37km/h | 3132m | 2.9m/s | 0°C | 0% | 0hPa | 0V | 00:00:00 | 00:00:00 | 00:00:00 | |
| SQ9PSP-11 | 2026-09-02 11:24:19 | 50.02590 | 20.97328 | 134° | 13km/h | 3049m | 5.9m/s | 0°C | 0% | 0hPa | 0V | 00:00:00 | 00:00:00 | 00:00:00 | |
| AKAW68 | 2026-09-02 11:24:16 | 50.02607 | 20.97312 | 128° | 31km/h | 3036m | 4.6m/s | 0°C | 0% | 0hPa | 0V | 00:00:00 | 00:00:00 | 00:00:00 | |
| SQ9PSP-11 | 2026-09-02 11:24:04 | 50.02622 | 20.97200 | 94° | 35km/h | 2964m | 6.7m/s | 0°C | 0% | 0hPa | 0V | 00:00:00 | 00:00:00 | 00:00:00 | |
| SQ9EZE-12 | 2026-09-02 11:23:49 | 50.02616 | 20.97075 | 85° | 13km/h | 2886m | 4.9m/s | 0°C | 0% | 0hPa | 0V | 00:00:00 | 00:00:00 | 00:00:00 | |
| SP9KGR-15 | 2026-09-02 11:23:43 | 50.02623 | 20.97034 | 70° | 29km/h | 2867m | 2.8m/s | 0°C | 0% | 0hPa | 0V | 00:00:00 | 00:00:00 | 00:00:00 | |
| SQ9PSP-11 | 2026-09-02 11:23:32 | 50.02625 | 20.96948 | 89° | 40km/h | 2817m | 4.9m/s | 0°C | 0% | 0hPa | 0V | 00:00:00 | 00:00:00 | 00:00:00 | |
| SP9KGR-15 | 2026-09-02 11:23:27 | 50.02639 | 20.96911 | 115° | 38km/h | 2793m | 3.6m/s | 0°C | 0% | 0hPa | 0V | 00:00:00 | 00:00:00 | 00:00:00 | |
| SQ9PSP-11 | 2026-09-02 11:23:17 | 50.02640 | 20.96804 | 127° | 37km/h | 2737m | 5.5m/s | 0°C | 0% | 0hPa | 0V | 00:00:00 | 00:00:00 | 00:00:00 | |
| SQ9EZE-12 | 2026-09-02 11:23:06 | 50.02640 | 20.96703 | 74° | 35km/h | 2680m | 6.1m/s | 0°C | 0% | 0hPa | 0V | 00:00:00 | 00:00:00 | 00:00:00 | |
| AKAW68 | 2026-09-02 11:23:02 | 50.02628 | 20.96676 | 102° | 7km/h | 2660m | 5.1m/s | 0°C | 0% | 0hPa | 0V | 00:00:00 | 00:00:00 | 00:00:00 | |
| SQ9PSP-11 | 2026-09-02 11:23:01 | 50.02629 | 20.96673 | 131° | 9km/h | 2655m | 4.2m/s | 0°C | 0% | 0hPa | 0V | 00:00:00 | 00:00:00 | 00:00:00 | |
| SQ9PSP-11 | 2026-09-02 11:22:44 | 50.02632 | 20.96545 | 109° | 37km/h | 2565m | 3.9m/s | 0°C | 0% | 0hPa | 0V | 00:00:00 | 00:00:00 | 00:00:00 | |
| SQ9EZE-12 | 2026-09-02 11:22:42 | 50.02631 | 20.96518 | 77° | 31km/h | 2554m | 7.8m/s | 0°C | 0% | 0hPa | 0V | 00:00:00 | 00:00:00 | 00:00:00 | |
| AKAW68 | 2026-09-02 11:22:39 | 50.02622 | 20.96494 | 68° | 18km/h | 2537m | 4.4m/s | 0°C | 0% | 0hPa | 0V | 00:00:00 | 00:00:00 | 00:00:00 | |
| SQ9EZE-12 | 2026-09-02 11:22:22 | 50.02647 | 20.96335 | 113° | 26km/h | 2449m | 6.5m/s | 0°C | 0% | 0hPa | 0V | 00:00:00 | 00:00:00 | 00:00:00 | |
| AKAW68 | 2026-09-02 11:22:19 | 50.02658 | 20.96314 | 88° | 16km/h | 2419m | 5.5m/s | 0°C | 0% | 0hPa | 0V | 00:00:00 | 00:00:00 | 00:00:00 | |
| SQ9PSP-11 | 2026-09-02 11:22:06 | 50.02655 | 20.96240 | 129° | 13km/h | 2367m | 1.7m/s | 0°C | 0% | 0hPa | 0V | 00:00:00 | 00:00:00 | 00:00:00 | |
| SP9KGR-15 | 2026-09-02 11:21:51 | 50.02665 | 20.96133 | 96° | 37km/h | 2287m | 2.1m/s | 0°C | 0% | 0hPa | 0V | 00:00:00 | 00:00:00 | 00:00:00 | |
| SQ9EZE-12 | 2026-09-02 11:21:46 | 50.02664 | 20.96096 | 146° | 20km/h | 2258m | 5.2m/s | 0°C | 0% | 0hPa | 0V | 00:00:00 | 00:00:00 | 00:00:00 | |
| SQ9PSP-11 | 2026-09-02 11:21:37 | 50.02706 | 20.96026 | 124° | 37km/h | 2217m | 4.4m/s | 0°C | 0% | 0hPa | 0V | 00:00:00 | 00:00:00 | 00:00:00 | |
| SP9KGR-15 | 2026-09-02 11:21:34 | 50.02718 | 20.95984 | 111° | 46km/h | 2203m | 5.1m/s | 0°C | 0% | 0hPa | 0V | 00:00:00 | 00:00:00 | 00:00:00 | |
| SP9KGR-15 | 2026-09-02 11:21:18 | 50.02747 | 20.95836 | 136° | 37km/h | 2107m | 6.6m/s | 0°C | 0% | 0hPa | 0V | 00:00:00 | 00:00:00 | 00:00:00 | |
| SQ9PSP-11 | 2026-09-02 11:21:07 | 50.02774 | 20.95754 | 113° | 37km/h | 2043m | 6.3m/s | 0°C | 0% | 0hPa | 0V | 00:00:00 | 00:00:00 | 00:00:00 | |
| SP9KGR-15 | 2026-09-02 11:21:02 | 50.02775 | 20.95692 | 58° | 22km/h | 2015m | 3.9m/s | 0°C | 0% | 0hPa | 0V | 00:00:00 | 00:00:00 | 00:00:00 | |
| SP9KGR-15 | 2026-09-02 11:20:46 | 50.02810 | 20.95584 | 146° | 37km/h | 1922m | 3.3m/s | 0°C | 0% | 0hPa | 0V | 00:00:00 | 00:00:00 | 00:00:00 | |
| SQ9PSP-11 | 2026-09-02 11:20:35 | 50.02830 | 20.95499 | 83° | 16km/h | 1850m | 5.7m/s | 0°C | 0% | 0hPa | 0V | 00:00:00 | 00:00:00 | 00:00:00 | |
| AKAW68 | 2026-09-02 11:20:32 | 50.02835 | 20.95489 | 169° | 16km/h | 1833m | 2.5m/s | 0°C | 0% | 0hPa | 0V | 00:00:00 | 00:00:00 | 00:00:00 | |
| SP9KGR-15 | 2026-09-02 11:20:29 | 50.02842 | 20.95486 | 56° | 5km/h | 1817m | 5.5m/s | 0°C | 0% | 0hPa | 0V | 00:00:00 | 00:00:00 | 00:00:00 |